<?xml version="1.0" encoding="UTF-8" standalone="no" ?>
<gpx xmlns="http://www.topografix.com/GPX/1/1" xmlns:xsi="http://www.w3.org/2001/XMLSchema-instance" xsi:schemaLocation="http://www.topografix.com/GPX/1/1 http://www.topografix.com/GPX/1/1/gpx.xsd" version="1.1" creator="VisuGPX - https://www.visugpx.com">
  <metadata>
    <name>PICE DE L'OURS SAINT RAPHAEL 1ER JUILLET 2019</name>
    <desc><![CDATA[Départ du col des lentisques commune de saint raphaël.On y gare la voiture et on prend le chemin qui monte juste au dessus du parking et nous nous dirigeons vers le pic de l'ours après avoir franchi deux fois la route. Nous prenons ensuite le sentier qui passe le long du pic de l'ours et redescendons vers le lac de l'écureuil où nous devons traverser pour reprendre le GR51 que nous suivons mais nous ratons le chemin qui part à gauche et sommes obligés de revenir (il faut traverser le ruisseau qui est à sec pour suivre le sentier). Malheureusement le cairn qui nous montrait le chemin a été détruit. Nous continuons et ratons encore le sentier qui part à angle droit et sommes obligés de rebrousser chemin après nous être aperçu de notre erreur. Grosse chaleur en ce 1er juillet, beaucoup d'eau nécessaire (3litres). Nous rejoignons le col des lentisques contents d'avoir pu admirer de beaux paysages. Randonnée à faire plutôt en dehors des fortes chaleurs.]]></desc>
  </metadata>
  <trk>
    <name><![CDATA[Activité actuelle: 26 JUIN 2019 22:20]]></name>
    <trkseg>
      <trkpt lat="43.47028" lon="6.90845">
        <ele>202.4</ele>
        <time>2019-07-01T06:33:03Z</time>
      </trkpt>
      <trkpt lat="43.47028" lon="6.90844">
        <ele>202.45</ele>
        <time>2019-07-01T06:33:05Z</time>
      </trkpt>
      <trkpt lat="43.47028" lon="6.90852">
        <ele>202.42</ele>
        <time>2019-07-01T06:33:37Z</time>
      </trkpt>
      <trkpt lat="43.4703" lon="6.90848">
        <ele>202.42</ele>
        <time>2019-07-01T06:34:05Z</time>
      </trkpt>
      <trkpt lat="43.47024" lon="6.9085">
        <ele>202.42</ele>
        <time>2019-07-01T06:34:22Z</time>
      </trkpt>
      <trkpt lat="43.47017" lon="6.90853">
        <ele>202.15</ele>
        <time>2019-07-01T06:34:27Z</time>
      </trkpt>
      <trkpt lat="43.47008" lon="6.90863">
        <ele>202.07</ele>
        <time>2019-07-01T06:34:36Z</time>
      </trkpt>
      <trkpt lat="43.47011" lon="6.90868">
        <ele>202.04</ele>
        <time>2019-07-01T06:34:50Z</time>
      </trkpt>
      <trkpt lat="43.47009" lon="6.90867">
        <ele>202.26</ele>
        <time>2019-07-01T06:35:26Z</time>
      </trkpt>
      <trkpt lat="43.47022" lon="6.90864">
        <ele>202.56</ele>
        <time>2019-07-01T06:35:49Z</time>
      </trkpt>
      <trkpt lat="43.47024" lon="6.90866">
        <ele>204.12</ele>
        <time>2019-07-01T06:36:09Z</time>
      </trkpt>
      <trkpt lat="43.47023" lon="6.90852">
        <ele>202.65</ele>
        <time>2019-07-01T06:36:25Z</time>
      </trkpt>
      <trkpt lat="43.47028" lon="6.90844">
        <ele>202.64</ele>
        <time>2019-07-01T06:36:51Z</time>
      </trkpt>
      <trkpt lat="43.47031" lon="6.9085">
        <ele>202.59</ele>
        <time>2019-07-01T06:37:16Z</time>
      </trkpt>
      <trkpt lat="43.47031" lon="6.90849">
        <ele>202.2</ele>
        <time>2019-07-01T06:37:47Z</time>
      </trkpt>
      <trkpt lat="43.47029" lon="6.9085">
        <ele>202.54</ele>
        <time>2019-07-01T06:38:17Z</time>
      </trkpt>
      <trkpt lat="43.47033" lon="6.90847">
        <ele>202.54</ele>
        <time>2019-07-01T06:38:41Z</time>
      </trkpt>
      <trkpt lat="43.47028" lon="6.90846">
        <ele>202.54</ele>
        <time>2019-07-01T06:39:02Z</time>
      </trkpt>
      <trkpt lat="43.47028" lon="6.90846">
        <ele>202.54</ele>
        <time>2019-07-01T06:39:33Z</time>
      </trkpt>
      <trkpt lat="43.47026" lon="6.90845">
        <ele>202.54</ele>
        <time>2019-07-01T06:40:05Z</time>
      </trkpt>
      <trkpt lat="43.47017" lon="6.90846">
        <ele>202.54</ele>
        <time>2019-07-01T06:40:31Z</time>
      </trkpt>
      <trkpt lat="43.47011" lon="6.90857">
        <ele>202.54</ele>
        <time>2019-07-01T06:40:41Z</time>
      </trkpt>
      <trkpt lat="43.4701" lon="6.90865">
        <ele>202.37</ele>
        <time>2019-07-01T06:40:47Z</time>
      </trkpt>
      <trkpt lat="43.47016" lon="6.90871">
        <ele>203.75</ele>
        <time>2019-07-01T06:41:00Z</time>
      </trkpt>
      <trkpt lat="43.47019" lon="6.9087">
        <ele>204.2</ele>
        <time>2019-07-01T06:41:26Z</time>
      </trkpt>
      <trkpt lat="43.47019" lon="6.90864">
        <ele>204.26</ele>
        <time>2019-07-01T06:42:00Z</time>
      </trkpt>
      <trkpt lat="43.47024" lon="6.90861">
        <ele>204.25</ele>
        <time>2019-07-01T06:42:27Z</time>
      </trkpt>
      <trkpt lat="43.47036" lon="6.90852">
        <ele>206.08</ele>
        <time>2019-07-01T06:42:47Z</time>
      </trkpt>
      <trkpt lat="43.47045" lon="6.90844">
        <ele>208.13</ele>
        <time>2019-07-01T06:43:05Z</time>
      </trkpt>
      <trkpt lat="43.47058" lon="6.90832">
        <ele>211.06</ele>
        <time>2019-07-01T06:43:26Z</time>
      </trkpt>
      <trkpt lat="43.47072" lon="6.90816">
        <ele>213.09</ele>
        <time>2019-07-01T06:43:46Z</time>
      </trkpt>
      <trkpt lat="43.47072" lon="6.9081">
        <ele>213.18</ele>
        <time>2019-07-01T06:44:09Z</time>
      </trkpt>
      <trkpt lat="43.47075" lon="6.90801">
        <ele>213.16</ele>
        <time>2019-07-01T06:44:35Z</time>
      </trkpt>
      <trkpt lat="43.47078" lon="6.90791">
        <ele>212.17</ele>
        <time>2019-07-01T06:44:57Z</time>
      </trkpt>
      <trkpt lat="43.4708" lon="6.90783">
        <ele>211.66</ele>
        <time>2019-07-01T06:45:19Z</time>
      </trkpt>
      <trkpt lat="43.47083" lon="6.9077">
        <ele>209.51</ele>
        <time>2019-07-01T06:45:38Z</time>
      </trkpt>
      <trkpt lat="43.47083" lon="6.90768">
        <ele>209.15</ele>
        <time>2019-07-01T06:46:07Z</time>
      </trkpt>
      <trkpt lat="43.47077" lon="6.9077">
        <ele>209.55</ele>
        <time>2019-07-01T06:46:26Z</time>
      </trkpt>
      <trkpt lat="43.47074" lon="6.90792">
        <ele>212.39</ele>
        <time>2019-07-01T06:46:45Z</time>
      </trkpt>
      <trkpt lat="43.47082" lon="6.90794">
        <ele>214.05</ele>
        <time>2019-07-01T06:47:05Z</time>
      </trkpt>
      <trkpt lat="43.47087" lon="6.90793">
        <ele>216.58</ele>
        <time>2019-07-01T06:47:24Z</time>
      </trkpt>
      <trkpt lat="43.47104" lon="6.90776">
        <ele>219.25</ele>
        <time>2019-07-01T06:47:47Z</time>
      </trkpt>
      <trkpt lat="43.47116" lon="6.90762">
        <ele>221.8</ele>
        <time>2019-07-01T06:48:10Z</time>
      </trkpt>
      <trkpt lat="43.47129" lon="6.90752">
        <ele>224.11</ele>
        <time>2019-07-01T06:48:31Z</time>
      </trkpt>
      <trkpt lat="43.47141" lon="6.90744">
        <ele>227.11</ele>
        <time>2019-07-01T06:48:50Z</time>
      </trkpt>
      <trkpt lat="43.47143" lon="6.90747">
        <ele>228.66</ele>
        <time>2019-07-01T06:49:08Z</time>
      </trkpt>
      <trkpt lat="43.47142" lon="6.90747">
        <ele>228.6</ele>
        <time>2019-07-01T06:49:36Z</time>
      </trkpt>
      <trkpt lat="43.47141" lon="6.90746">
        <ele>228.84</ele>
        <time>2019-07-01T06:50:06Z</time>
      </trkpt>
      <trkpt lat="43.47137" lon="6.90748">
        <ele>228.86</ele>
        <time>2019-07-01T06:50:34Z</time>
      </trkpt>
      <trkpt lat="43.47135" lon="6.9075">
        <ele>228.89</ele>
        <time>2019-07-01T06:50:37Z</time>
      </trkpt>
      <trkpt lat="43.4713" lon="6.90769">
        <ele>230.69</ele>
        <time>2019-07-01T06:50:55Z</time>
      </trkpt>
      <trkpt lat="43.47126" lon="6.90788">
        <ele>233.12</ele>
        <time>2019-07-01T06:51:14Z</time>
      </trkpt>
      <trkpt lat="43.47125" lon="6.9081">
        <ele>235.56</ele>
        <time>2019-07-01T06:51:34Z</time>
      </trkpt>
      <trkpt lat="43.47122" lon="6.90834">
        <ele>238.16</ele>
        <time>2019-07-01T06:51:54Z</time>
      </trkpt>
      <trkpt lat="43.47121" lon="6.90856">
        <ele>240.95</ele>
        <time>2019-07-01T06:52:17Z</time>
      </trkpt>
      <trkpt lat="43.47123" lon="6.9086">
        <ele>242.23</ele>
        <time>2019-07-01T06:52:43Z</time>
      </trkpt>
      <trkpt lat="43.47125" lon="6.90882">
        <ele>243.68</ele>
        <time>2019-07-01T06:53:05Z</time>
      </trkpt>
      <trkpt lat="43.47126" lon="6.90896">
        <ele>245.2</ele>
        <time>2019-07-01T06:53:24Z</time>
      </trkpt>
      <trkpt lat="43.4713" lon="6.9091">
        <ele>246.54</ele>
        <time>2019-07-01T06:53:43Z</time>
      </trkpt>
      <trkpt lat="43.47136" lon="6.90924">
        <ele>248.68</ele>
        <time>2019-07-01T06:54:03Z</time>
      </trkpt>
      <trkpt lat="43.47146" lon="6.90939">
        <ele>250.87</ele>
        <time>2019-07-01T06:54:22Z</time>
      </trkpt>
      <trkpt lat="43.4716" lon="6.9095">
        <ele>253.3</ele>
        <time>2019-07-01T06:54:43Z</time>
      </trkpt>
      <trkpt lat="43.47163" lon="6.90951">
        <ele>254.14</ele>
        <time>2019-07-01T06:55:06Z</time>
      </trkpt>
      <trkpt lat="43.47165" lon="6.90953">
        <ele>254.26</ele>
        <time>2019-07-01T06:55:35Z</time>
      </trkpt>
      <trkpt lat="43.47174" lon="6.90954">
        <ele>255.59</ele>
        <time>2019-07-01T06:55:55Z</time>
      </trkpt>
      <trkpt lat="43.47187" lon="6.90956">
        <ele>257.48</ele>
        <time>2019-07-01T06:56:16Z</time>
      </trkpt>
      <trkpt lat="43.47191" lon="6.90954">
        <ele>257.77</ele>
        <time>2019-07-01T06:56:47Z</time>
      </trkpt>
      <trkpt lat="43.47202" lon="6.9095">
        <ele>259.82</ele>
        <time>2019-07-01T06:57:06Z</time>
      </trkpt>
      <trkpt lat="43.47219" lon="6.90938">
        <ele>262.74</ele>
        <time>2019-07-01T06:57:35Z</time>
      </trkpt>
      <trkpt lat="43.47232" lon="6.9093">
        <ele>265.03</ele>
        <time>2019-07-01T06:57:58Z</time>
      </trkpt>
      <trkpt lat="43.4725" lon="6.90921">
        <ele>267.88</ele>
        <time>2019-07-01T06:58:27Z</time>
      </trkpt>
      <trkpt lat="43.47266" lon="6.90912">
        <ele>270.33</ele>
        <time>2019-07-01T06:58:55Z</time>
      </trkpt>
      <trkpt lat="43.47282" lon="6.90905">
        <ele>273.36</ele>
        <time>2019-07-01T06:59:19Z</time>
      </trkpt>
      <trkpt lat="43.47294" lon="6.90901">
        <ele>274.91</ele>
        <time>2019-07-01T06:59:42Z</time>
      </trkpt>
      <trkpt lat="43.47306" lon="6.90898">
        <ele>276.9</ele>
        <time>2019-07-01T07:00:04Z</time>
      </trkpt>
      <trkpt lat="43.47318" lon="6.90893">
        <ele>279.27</ele>
        <time>2019-07-01T07:00:26Z</time>
      </trkpt>
      <trkpt lat="43.47335" lon="6.90893">
        <ele>281.9</ele>
        <time>2019-07-01T07:00:48Z</time>
      </trkpt>
      <trkpt lat="43.47347" lon="6.90892">
        <ele>284.13</ele>
        <time>2019-07-01T07:01:08Z</time>
      </trkpt>
      <trkpt lat="43.47354" lon="6.90888">
        <ele>285.82</ele>
        <time>2019-07-01T07:01:28Z</time>
      </trkpt>
      <trkpt lat="43.47356" lon="6.90884">
        <ele>287.53</ele>
        <time>2019-07-01T07:01:52Z</time>
      </trkpt>
      <trkpt lat="43.47355" lon="6.90882">
        <ele>288.28</ele>
        <time>2019-07-01T07:02:17Z</time>
      </trkpt>
      <trkpt lat="43.47357" lon="6.90878">
        <ele>288.1</ele>
        <time>2019-07-01T07:02:47Z</time>
      </trkpt>
      <trkpt lat="43.4736" lon="6.90881">
        <ele>287.69</ele>
        <time>2019-07-01T07:03:12Z</time>
      </trkpt>
      <trkpt lat="43.47353" lon="6.90882">
        <ele>287.69</ele>
        <time>2019-07-01T07:03:26Z</time>
      </trkpt>
      <trkpt lat="43.47343" lon="6.90877">
        <ele>286.3</ele>
        <time>2019-07-01T07:03:36Z</time>
      </trkpt>
      <trkpt lat="43.47332" lon="6.90869">
        <ele>288.81</ele>
        <time>2019-07-01T07:03:52Z</time>
      </trkpt>
      <trkpt lat="43.47328" lon="6.90867">
        <ele>289.19</ele>
        <time>2019-07-01T07:03:55Z</time>
      </trkpt>
      <trkpt lat="43.47314" lon="6.90856">
        <ele>291.4</ele>
        <time>2019-07-01T07:04:10Z</time>
      </trkpt>
      <trkpt lat="43.47304" lon="6.90845">
        <ele>294.3</ele>
        <time>2019-07-01T07:04:28Z</time>
      </trkpt>
      <trkpt lat="43.47304" lon="6.90843">
        <ele>295.04</ele>
        <time>2019-07-01T07:04:52Z</time>
      </trkpt>
      <trkpt lat="43.47302" lon="6.90843">
        <ele>294.83</ele>
        <time>2019-07-01T07:05:21Z</time>
      </trkpt>
      <trkpt lat="43.47302" lon="6.90843">
        <ele>294.72</ele>
        <time>2019-07-01T07:05:52Z</time>
      </trkpt>
      <trkpt lat="43.47301" lon="6.90844">
        <ele>294.72</ele>
        <time>2019-07-01T07:06:21Z</time>
      </trkpt>
      <trkpt lat="43.47301" lon="6.90844">
        <ele>294.72</ele>
        <time>2019-07-01T07:06:50Z</time>
      </trkpt>
      <trkpt lat="43.47302" lon="6.90846">
        <ele>294.72</ele>
        <time>2019-07-01T07:07:21Z</time>
      </trkpt>
      <trkpt lat="43.47302" lon="6.90846">
        <ele>294.72</ele>
        <time>2019-07-01T07:07:50Z</time>
      </trkpt>
      <trkpt lat="43.47306" lon="6.90845">
        <ele>294.72</ele>
        <time>2019-07-01T07:08:20Z</time>
      </trkpt>
      <trkpt lat="43.47317" lon="6.90849">
        <ele>294.72</ele>
        <time>2019-07-01T07:08:40Z</time>
      </trkpt>
      <trkpt lat="43.47332" lon="6.9085">
        <ele>294.72</ele>
        <time>2019-07-01T07:09:02Z</time>
      </trkpt>
      <trkpt lat="43.47341" lon="6.90852">
        <ele>294.72</ele>
        <time>2019-07-01T07:09:22Z</time>
      </trkpt>
      <trkpt lat="43.4735" lon="6.90851">
        <ele>299.05</ele>
        <time>2019-07-01T07:09:34Z</time>
      </trkpt>
      <trkpt lat="43.47351" lon="6.90851">
        <ele>299.06</ele>
        <time>2019-07-01T07:09:35Z</time>
      </trkpt>
      <trkpt lat="43.47366" lon="6.90853">
        <ele>300.61</ele>
        <time>2019-07-01T07:09:54Z</time>
      </trkpt>
      <trkpt lat="43.47378" lon="6.90854">
        <ele>301.83</ele>
        <time>2019-07-01T07:10:14Z</time>
      </trkpt>
      <trkpt lat="43.47386" lon="6.90857">
        <ele>303.35</ele>
        <time>2019-07-01T07:10:29Z</time>
      </trkpt>
      <trkpt lat="43.47398" lon="6.90862">
        <ele>305.17</ele>
        <time>2019-07-01T07:10:50Z</time>
      </trkpt>
      <trkpt lat="43.474" lon="6.90862">
        <ele>305.44</ele>
        <time>2019-07-01T07:10:52Z</time>
      </trkpt>
      <trkpt lat="43.4742" lon="6.90871">
        <ele>305.83</ele>
        <time>2019-07-01T07:11:15Z</time>
      </trkpt>
      <trkpt lat="43.47428" lon="6.90878">
        <ele>308.88</ele>
        <time>2019-07-01T07:11:34Z</time>
      </trkpt>
      <trkpt lat="43.47438" lon="6.90887">
        <ele>311.12</ele>
        <time>2019-07-01T07:11:56Z</time>
      </trkpt>
      <trkpt lat="43.47442" lon="6.90894">
        <ele>312.46</ele>
        <time>2019-07-01T07:12:16Z</time>
      </trkpt>
      <trkpt lat="43.4745" lon="6.90905">
        <ele>313.24</ele>
        <time>2019-07-01T07:12:37Z</time>
      </trkpt>
      <trkpt lat="43.47461" lon="6.90916">
        <ele>315.79</ele>
        <time>2019-07-01T07:12:59Z</time>
      </trkpt>
      <trkpt lat="43.47462" lon="6.90918">
        <ele>316.61</ele>
        <time>2019-07-01T07:13:24Z</time>
      </trkpt>
      <trkpt lat="43.47463" lon="6.90918">
        <ele>316.67</ele>
        <time>2019-07-01T07:13:46Z</time>
      </trkpt>
      <trkpt lat="43.47465" lon="6.90918">
        <ele>317.26</ele>
        <time>2019-07-01T07:14:07Z</time>
      </trkpt>
      <trkpt lat="43.47473" lon="6.90934">
        <ele>318.7</ele>
        <time>2019-07-01T07:14:30Z</time>
      </trkpt>
      <trkpt lat="43.4748" lon="6.90948">
        <ele>320.45</ele>
        <time>2019-07-01T07:14:48Z</time>
      </trkpt>
      <trkpt lat="43.47489" lon="6.90964">
        <ele>323.58</ele>
        <time>2019-07-01T07:15:12Z</time>
      </trkpt>
      <trkpt lat="43.47499" lon="6.90975">
        <ele>325.77</ele>
        <time>2019-07-01T07:15:33Z</time>
      </trkpt>
      <trkpt lat="43.47505" lon="6.90982">
        <ele>327.83</ele>
        <time>2019-07-01T07:15:50Z</time>
      </trkpt>
      <trkpt lat="43.47506" lon="6.90963">
        <ele>330.65</ele>
        <time>2019-07-01T07:16:14Z</time>
      </trkpt>
      <trkpt lat="43.47502" lon="6.90959">
        <ele>331.19</ele>
        <time>2019-07-01T07:16:44Z</time>
      </trkpt>
      <trkpt lat="43.47502" lon="6.90957">
        <ele>331.14</ele>
        <time>2019-07-01T07:17:14Z</time>
      </trkpt>
      <trkpt lat="43.47502" lon="6.90942">
        <ele>333.24</ele>
        <time>2019-07-01T07:17:36Z</time>
      </trkpt>
      <trkpt lat="43.47507" lon="6.90946">
        <ele>336.28</ele>
        <time>2019-07-01T07:17:53Z</time>
      </trkpt>
      <trkpt lat="43.47514" lon="6.90959">
        <ele>338.56</ele>
        <time>2019-07-01T07:18:15Z</time>
      </trkpt>
      <trkpt lat="43.47523" lon="6.90974">
        <ele>341.26</ele>
        <time>2019-07-01T07:18:37Z</time>
      </trkpt>
      <trkpt lat="43.47525" lon="6.90972">
        <ele>342.64</ele>
        <time>2019-07-01T07:18:54Z</time>
      </trkpt>
      <trkpt lat="43.47526" lon="6.90952">
        <ele>345.01</ele>
        <time>2019-07-01T07:19:17Z</time>
      </trkpt>
      <trkpt lat="43.47521" lon="6.90929">
        <ele>347.65</ele>
        <time>2019-07-01T07:19:39Z</time>
      </trkpt>
      <trkpt lat="43.47516" lon="6.90906">
        <ele>349.79</ele>
        <time>2019-07-01T07:20:01Z</time>
      </trkpt>
      <trkpt lat="43.4751" lon="6.90882">
        <ele>352.28</ele>
        <time>2019-07-01T07:20:26Z</time>
      </trkpt>
      <trkpt lat="43.4751" lon="6.9088">
        <ele>352.48</ele>
        <time>2019-07-01T07:20:28Z</time>
      </trkpt>
      <trkpt lat="43.47506" lon="6.90863">
        <ele>354.75</ele>
        <time>2019-07-01T07:20:46Z</time>
      </trkpt>
      <trkpt lat="43.47502" lon="6.90849">
        <ele>356.63</ele>
        <time>2019-07-01T07:21:06Z</time>
      </trkpt>
      <trkpt lat="43.47503" lon="6.90839">
        <ele>359.69</ele>
        <time>2019-07-01T07:21:23Z</time>
      </trkpt>
      <trkpt lat="43.47505" lon="6.90835">
        <ele>361.49</ele>
        <time>2019-07-01T07:21:49Z</time>
      </trkpt>
      <trkpt lat="43.47504" lon="6.90828">
        <ele>361.27</ele>
        <time>2019-07-01T07:22:24Z</time>
      </trkpt>
      <trkpt lat="43.47498" lon="6.90827">
        <ele>361.42</ele>
        <time>2019-07-01T07:22:58Z</time>
      </trkpt>
      <trkpt lat="43.475" lon="6.90829">
        <ele>361.42</ele>
        <time>2019-07-01T07:23:25Z</time>
      </trkpt>
      <trkpt lat="43.47498" lon="6.90826">
        <ele>361.42</ele>
        <time>2019-07-01T07:23:56Z</time>
      </trkpt>
      <trkpt lat="43.47497" lon="6.90827">
        <ele>361.42</ele>
        <time>2019-07-01T07:24:42Z</time>
      </trkpt>
      <trkpt lat="43.47496" lon="6.90829">
        <ele>361.42</ele>
        <time>2019-07-01T07:25:13Z</time>
      </trkpt>
      <trkpt lat="43.47496" lon="6.90829">
        <ele>361.42</ele>
        <time>2019-07-01T07:25:51Z</time>
      </trkpt>
      <trkpt lat="43.47498" lon="6.90829">
        <ele>361.42</ele>
        <time>2019-07-01T07:26:35Z</time>
      </trkpt>
      <trkpt lat="43.47498" lon="6.90828">
        <ele>361.42</ele>
        <time>2019-07-01T07:27:08Z</time>
      </trkpt>
      <trkpt lat="43.47498" lon="6.90832">
        <ele>361.42</ele>
        <time>2019-07-01T07:27:36Z</time>
      </trkpt>
      <trkpt lat="43.47498" lon="6.90833">
        <ele>361.42</ele>
        <time>2019-07-01T07:27:58Z</time>
      </trkpt>
      <trkpt lat="43.47498" lon="6.90834">
        <ele>361.42</ele>
        <time>2019-07-01T07:28:27Z</time>
      </trkpt>
      <trkpt lat="43.47497" lon="6.90831">
        <ele>361.42</ele>
        <time>2019-07-01T07:28:59Z</time>
      </trkpt>
      <trkpt lat="43.47496" lon="6.90827">
        <ele>361.42</ele>
        <time>2019-07-01T07:29:31Z</time>
      </trkpt>
      <trkpt lat="43.47494" lon="6.90825">
        <ele>361.42</ele>
        <time>2019-07-01T07:30:07Z</time>
      </trkpt>
      <trkpt lat="43.47497" lon="6.90829">
        <ele>361.42</ele>
        <time>2019-07-01T07:30:37Z</time>
      </trkpt>
      <trkpt lat="43.47499" lon="6.9083">
        <ele>361.42</ele>
        <time>2019-07-01T07:31:13Z</time>
      </trkpt>
      <trkpt lat="43.47497" lon="6.9083">
        <ele>361.42</ele>
        <time>2019-07-01T07:31:47Z</time>
      </trkpt>
      <trkpt lat="43.47496" lon="6.90827">
        <ele>361.42</ele>
        <time>2019-07-01T07:32:15Z</time>
      </trkpt>
      <trkpt lat="43.47496" lon="6.90826">
        <ele>361.42</ele>
        <time>2019-07-01T07:32:16Z</time>
      </trkpt>
      <trkpt lat="43.47495" lon="6.90825">
        <ele>361.42</ele>
        <time>2019-07-01T07:32:18Z</time>
      </trkpt>
      <trkpt lat="43.47493" lon="6.90816">
        <ele>361.16</ele>
        <time>2019-07-01T07:32:26Z</time>
      </trkpt>
      <trkpt lat="43.47499" lon="6.90809">
        <ele>360.44</ele>
        <time>2019-07-01T07:32:44Z</time>
      </trkpt>
      <trkpt lat="43.47511" lon="6.90803">
        <ele>362.85</ele>
        <time>2019-07-01T07:32:58Z</time>
      </trkpt>
      <trkpt lat="43.47518" lon="6.90795">
        <ele>363.73</ele>
        <time>2019-07-01T07:33:09Z</time>
      </trkpt>
      <trkpt lat="43.47521" lon="6.90791">
        <ele>364.21</ele>
        <time>2019-07-01T07:33:14Z</time>
      </trkpt>
      <trkpt lat="43.47532" lon="6.90777">
        <ele>365.77</ele>
        <time>2019-07-01T07:33:31Z</time>
      </trkpt>
      <trkpt lat="43.47539" lon="6.90761">
        <ele>367.96</ele>
        <time>2019-07-01T07:33:53Z</time>
      </trkpt>
      <trkpt lat="43.47536" lon="6.90758">
        <ele>368.04</ele>
        <time>2019-07-01T07:34:22Z</time>
      </trkpt>
      <trkpt lat="43.47537" lon="6.90756">
        <ele>368.16</ele>
        <time>2019-07-01T07:34:52Z</time>
      </trkpt>
      <trkpt lat="43.4755" lon="6.90741">
        <ele>369.71</ele>
        <time>2019-07-01T07:35:12Z</time>
      </trkpt>
      <trkpt lat="43.47557" lon="6.90725">
        <ele>371.16</ele>
        <time>2019-07-01T07:35:30Z</time>
      </trkpt>
      <trkpt lat="43.47564" lon="6.90714">
        <ele>372.55</ele>
        <time>2019-07-01T07:35:41Z</time>
      </trkpt>
      <trkpt lat="43.4757" lon="6.90696">
        <ele>374.4</ele>
        <time>2019-07-01T07:35:58Z</time>
      </trkpt>
      <trkpt lat="43.47575" lon="6.90673">
        <ele>376.78</ele>
        <time>2019-07-01T07:36:18Z</time>
      </trkpt>
      <trkpt lat="43.47581" lon="6.90648">
        <ele>379.32</ele>
        <time>2019-07-01T07:36:40Z</time>
      </trkpt>
      <trkpt lat="43.47583" lon="6.90644">
        <ele>382</ele>
        <time>2019-07-01T07:37:01Z</time>
      </trkpt>
      <trkpt lat="43.47589" lon="6.90646">
        <ele>385.09</ele>
        <time>2019-07-01T07:37:25Z</time>
      </trkpt>
      <trkpt lat="43.47594" lon="6.90652">
        <ele>388.15</ele>
        <time>2019-07-01T07:37:44Z</time>
      </trkpt>
      <trkpt lat="43.47599" lon="6.90659">
        <ele>391.32</ele>
        <time>2019-07-01T07:38:02Z</time>
      </trkpt>
      <trkpt lat="43.47596" lon="6.9064">
        <ele>392.26</ele>
        <time>2019-07-01T07:38:16Z</time>
      </trkpt>
      <trkpt lat="43.47597" lon="6.90634">
        <ele>391.99</ele>
        <time>2019-07-01T07:38:20Z</time>
      </trkpt>
      <trkpt lat="43.47598" lon="6.90614">
        <ele>391.47</ele>
        <time>2019-07-01T07:38:35Z</time>
      </trkpt>
      <trkpt lat="43.47596" lon="6.906">
        <ele>392.26</ele>
        <time>2019-07-01T07:38:48Z</time>
      </trkpt>
      <trkpt lat="43.47597" lon="6.90576">
        <ele>393.34</ele>
        <time>2019-07-01T07:39:08Z</time>
      </trkpt>
      <trkpt lat="43.47592" lon="6.90558">
        <ele>392.31</ele>
        <time>2019-07-01T07:39:26Z</time>
      </trkpt>
      <trkpt lat="43.47584" lon="6.90539">
        <ele>391.45</ele>
        <time>2019-07-01T07:39:46Z</time>
      </trkpt>
      <trkpt lat="43.47577" lon="6.90512">
        <ele>393.87</ele>
        <time>2019-07-01T07:40:09Z</time>
      </trkpt>
      <trkpt lat="43.47572" lon="6.90496">
        <ele>394.07</ele>
        <time>2019-07-01T07:40:28Z</time>
      </trkpt>
      <trkpt lat="43.47562" lon="6.90484">
        <ele>393.13</ele>
        <time>2019-07-01T07:40:41Z</time>
      </trkpt>
      <trkpt lat="43.47561" lon="6.9048">
        <ele>392.82</ele>
        <time>2019-07-01T07:40:44Z</time>
      </trkpt>
      <trkpt lat="43.47559" lon="6.90475">
        <ele>392.53</ele>
        <time>2019-07-01T07:40:48Z</time>
      </trkpt>
      <trkpt lat="43.47554" lon="6.90461">
        <ele>392.22</ele>
        <time>2019-07-01T07:41:00Z</time>
      </trkpt>
      <trkpt lat="43.47553" lon="6.90455">
        <ele>391.83</ele>
        <time>2019-07-01T07:41:05Z</time>
      </trkpt>
      <trkpt lat="43.47552" lon="6.9045">
        <ele>391.98</ele>
        <time>2019-07-01T07:41:09Z</time>
      </trkpt>
      <trkpt lat="43.47551" lon="6.90445">
        <ele>392.36</ele>
        <time>2019-07-01T07:41:13Z</time>
      </trkpt>
      <trkpt lat="43.47554" lon="6.90428">
        <ele>393.43</ele>
        <time>2019-07-01T07:41:28Z</time>
      </trkpt>
      <trkpt lat="43.47554" lon="6.90425">
        <ele>394.48</ele>
        <time>2019-07-01T07:41:54Z</time>
      </trkpt>
      <trkpt lat="43.47554" lon="6.90427">
        <ele>394.48</ele>
        <time>2019-07-01T07:42:26Z</time>
      </trkpt>
      <trkpt lat="43.47554" lon="6.90428">
        <ele>394.48</ele>
        <time>2019-07-01T07:42:28Z</time>
      </trkpt>
      <trkpt lat="43.47553" lon="6.90438">
        <ele>394.48</ele>
        <time>2019-07-01T07:42:45Z</time>
      </trkpt>
      <trkpt lat="43.47551" lon="6.90442">
        <ele>393.54</ele>
        <time>2019-07-01T07:42:49Z</time>
      </trkpt>
      <trkpt lat="43.47553" lon="6.90465">
        <ele>391.91</ele>
        <time>2019-07-01T07:43:07Z</time>
      </trkpt>
      <trkpt lat="43.47557" lon="6.90486">
        <ele>392.83</ele>
        <time>2019-07-01T07:43:23Z</time>
      </trkpt>
      <trkpt lat="43.47564" lon="6.90505">
        <ele>394.2</ele>
        <time>2019-07-01T07:43:39Z</time>
      </trkpt>
      <trkpt lat="43.4757" lon="6.90524">
        <ele>394.04</ele>
        <time>2019-07-01T07:43:59Z</time>
      </trkpt>
      <trkpt lat="43.47576" lon="6.90547">
        <ele>391.59</ele>
        <time>2019-07-01T07:44:19Z</time>
      </trkpt>
      <trkpt lat="43.47587" lon="6.90566">
        <ele>392.37</ele>
        <time>2019-07-01T07:44:38Z</time>
      </trkpt>
      <trkpt lat="43.47592" lon="6.90589">
        <ele>393.4</ele>
        <time>2019-07-01T07:44:59Z</time>
      </trkpt>
      <trkpt lat="43.47596" lon="6.90612">
        <ele>392.8</ele>
        <time>2019-07-01T07:45:15Z</time>
      </trkpt>
      <trkpt lat="43.47596" lon="6.90619">
        <ele>391.87</ele>
        <time>2019-07-01T07:45:19Z</time>
      </trkpt>
      <trkpt lat="43.47599" lon="6.90652">
        <ele>392.29</ele>
        <time>2019-07-01T07:45:40Z</time>
      </trkpt>
      <trkpt lat="43.47605" lon="6.90661">
        <ele>392.79</ele>
        <time>2019-07-01T07:45:50Z</time>
      </trkpt>
      <trkpt lat="43.47613" lon="6.90663">
        <ele>393.17</ele>
        <time>2019-07-01T07:45:58Z</time>
      </trkpt>
      <trkpt lat="43.47626" lon="6.90645">
        <ele>394.69</ele>
        <time>2019-07-01T07:46:16Z</time>
      </trkpt>
      <trkpt lat="43.47634" lon="6.90628">
        <ele>395.93</ele>
        <time>2019-07-01T07:46:35Z</time>
      </trkpt>
      <trkpt lat="43.47638" lon="6.90621">
        <ele>397</ele>
        <time>2019-07-01T07:46:54Z</time>
      </trkpt>
      <trkpt lat="43.47638" lon="6.9062">
        <ele>397.47</ele>
        <time>2019-07-01T07:47:19Z</time>
      </trkpt>
      <trkpt lat="43.47639" lon="6.90615">
        <ele>397.59</ele>
        <time>2019-07-01T07:47:56Z</time>
      </trkpt>
      <trkpt lat="43.47642" lon="6.9061">
        <ele>397.73</ele>
        <time>2019-07-01T07:48:18Z</time>
      </trkpt>
      <trkpt lat="43.47641" lon="6.90613">
        <ele>397.52</ele>
        <time>2019-07-01T07:48:46Z</time>
      </trkpt>
      <trkpt lat="43.4764" lon="6.90615">
        <ele>397.52</ele>
        <time>2019-07-01T07:49:13Z</time>
      </trkpt>
      <trkpt lat="43.47636" lon="6.90617">
        <ele>397.52</ele>
        <time>2019-07-01T07:49:30Z</time>
      </trkpt>
      <trkpt lat="43.47637" lon="6.90618">
        <ele>397.52</ele>
        <time>2019-07-01T07:49:59Z</time>
      </trkpt>
      <trkpt lat="43.47637" lon="6.90619">
        <ele>397.52</ele>
        <time>2019-07-01T07:50:29Z</time>
      </trkpt>
      <trkpt lat="43.47636" lon="6.90617">
        <ele>397.52</ele>
        <time>2019-07-01T07:51:01Z</time>
      </trkpt>
      <trkpt lat="43.47636" lon="6.90618">
        <ele>397.52</ele>
        <time>2019-07-01T07:51:35Z</time>
      </trkpt>
      <trkpt lat="43.47636" lon="6.90616">
        <ele>397.52</ele>
        <time>2019-07-01T07:52:12Z</time>
      </trkpt>
      <trkpt lat="43.47635" lon="6.90616">
        <ele>397.52</ele>
        <time>2019-07-01T07:52:43Z</time>
      </trkpt>
      <trkpt lat="43.47634" lon="6.90614">
        <ele>397.52</ele>
        <time>2019-07-01T07:53:12Z</time>
      </trkpt>
      <trkpt lat="43.47634" lon="6.90616">
        <ele>397.52</ele>
        <time>2019-07-01T07:53:35Z</time>
      </trkpt>
      <trkpt lat="43.47634" lon="6.90615">
        <ele>397.52</ele>
        <time>2019-07-01T07:54:12Z</time>
      </trkpt>
      <trkpt lat="43.47634" lon="6.90615">
        <ele>397.52</ele>
        <time>2019-07-01T07:54:45Z</time>
      </trkpt>
      <trkpt lat="43.47632" lon="6.90614">
        <ele>397.52</ele>
        <time>2019-07-01T07:55:24Z</time>
      </trkpt>
      <trkpt lat="43.47633" lon="6.90615">
        <ele>397.52</ele>
        <time>2019-07-01T07:55:59Z</time>
      </trkpt>
      <trkpt lat="43.47634" lon="6.90615">
        <ele>397.52</ele>
        <time>2019-07-01T07:56:38Z</time>
      </trkpt>
      <trkpt lat="43.47636" lon="6.90615">
        <ele>397.52</ele>
        <time>2019-07-01T07:56:46Z</time>
      </trkpt>
      <trkpt lat="43.47645" lon="6.90593">
        <ele>399.13</ele>
        <time>2019-07-01T07:57:05Z</time>
      </trkpt>
      <trkpt lat="43.47647" lon="6.90587">
        <ele>400.26</ele>
        <time>2019-07-01T07:57:22Z</time>
      </trkpt>
      <trkpt lat="43.47644" lon="6.9059">
        <ele>399.93</ele>
        <time>2019-07-01T07:57:43Z</time>
      </trkpt>
      <trkpt lat="43.47644" lon="6.90593">
        <ele>399.6</ele>
        <time>2019-07-01T07:58:02Z</time>
      </trkpt>
      <trkpt lat="43.47647" lon="6.90596">
        <ele>399.35</ele>
        <time>2019-07-01T07:58:25Z</time>
      </trkpt>
      <trkpt lat="43.47644" lon="6.90595">
        <ele>399.44</ele>
        <time>2019-07-01T07:58:43Z</time>
      </trkpt>
      <trkpt lat="43.47644" lon="6.90598">
        <ele>399.36</ele>
        <time>2019-07-01T07:59:07Z</time>
      </trkpt>
      <trkpt lat="43.47646" lon="6.90592">
        <ele>399.4</ele>
        <time>2019-07-01T07:59:37Z</time>
      </trkpt>
      <trkpt lat="43.47648" lon="6.90595">
        <ele>399.4</ele>
        <time>2019-07-01T08:00:09Z</time>
      </trkpt>
      <trkpt lat="43.47645" lon="6.90603">
        <ele>399.4</ele>
        <time>2019-07-01T08:00:33Z</time>
      </trkpt>
      <trkpt lat="43.47645" lon="6.90607">
        <ele>399.4</ele>
        <time>2019-07-01T08:01:03Z</time>
      </trkpt>
      <trkpt lat="43.47643" lon="6.90605">
        <ele>399.4</ele>
        <time>2019-07-01T08:01:20Z</time>
      </trkpt>
      <trkpt lat="43.47636" lon="6.90618">
        <ele>397.57</ele>
        <time>2019-07-01T08:01:37Z</time>
      </trkpt>
      <trkpt lat="43.47638" lon="6.90624">
        <ele>397.55</ele>
        <time>2019-07-01T08:02:32Z</time>
      </trkpt>
      <trkpt lat="43.47638" lon="6.90622">
        <ele>397.39</ele>
        <time>2019-07-01T08:03:41Z</time>
      </trkpt>
      <trkpt lat="43.47638" lon="6.90624">
        <ele>397.39</ele>
        <time>2019-07-01T08:04:11Z</time>
      </trkpt>
      <trkpt lat="43.47635" lon="6.90622">
        <ele>397.39</ele>
        <time>2019-07-01T08:04:51Z</time>
      </trkpt>
      <trkpt lat="43.47636" lon="6.9062">
        <ele>397.39</ele>
        <time>2019-07-01T08:05:26Z</time>
      </trkpt>
      <trkpt lat="43.47636" lon="6.90619">
        <ele>397.39</ele>
        <time>2019-07-01T08:05:59Z</time>
      </trkpt>
      <trkpt lat="43.47636" lon="6.9062">
        <ele>397.39</ele>
        <time>2019-07-01T08:06:58Z</time>
      </trkpt>
      <trkpt lat="43.47635" lon="6.90619">
        <ele>397.39</ele>
        <time>2019-07-01T08:07:35Z</time>
      </trkpt>
      <trkpt lat="43.47635" lon="6.90617">
        <ele>397.39</ele>
        <time>2019-07-01T08:08:01Z</time>
      </trkpt>
      <trkpt lat="43.47643" lon="6.9061">
        <ele>397.39</ele>
        <time>2019-07-01T08:08:26Z</time>
      </trkpt>
      <trkpt lat="43.47652" lon="6.90589">
        <ele>397.07</ele>
        <time>2019-07-01T08:08:48Z</time>
      </trkpt>
      <trkpt lat="43.47656" lon="6.90577">
        <ele>398.01</ele>
        <time>2019-07-01T08:09:06Z</time>
      </trkpt>
      <trkpt lat="43.47657" lon="6.90572">
        <ele>397.59</ele>
        <time>2019-07-01T08:09:45Z</time>
      </trkpt>
      <trkpt lat="43.47662" lon="6.90567">
        <ele>398.47</ele>
        <time>2019-07-01T08:10:01Z</time>
      </trkpt>
      <trkpt lat="43.47674" lon="6.90552">
        <ele>400.42</ele>
        <time>2019-07-01T08:10:20Z</time>
      </trkpt>
      <trkpt lat="43.47687" lon="6.90538">
        <ele>402.88</ele>
        <time>2019-07-01T08:10:41Z</time>
      </trkpt>
      <trkpt lat="43.47689" lon="6.90524">
        <ele>403.92</ele>
        <time>2019-07-01T08:10:58Z</time>
      </trkpt>
      <trkpt lat="43.47695" lon="6.90519">
        <ele>403.78</ele>
        <time>2019-07-01T08:11:19Z</time>
      </trkpt>
      <trkpt lat="43.47697" lon="6.90511">
        <ele>402.09</ele>
        <time>2019-07-01T08:11:35Z</time>
      </trkpt>
      <trkpt lat="43.47689" lon="6.90504">
        <ele>399.82</ele>
        <time>2019-07-01T08:11:56Z</time>
      </trkpt>
      <trkpt lat="43.47684" lon="6.90501">
        <ele>398.42</ele>
        <time>2019-07-01T08:12:18Z</time>
      </trkpt>
      <trkpt lat="43.47673" lon="6.90492">
        <ele>396.48</ele>
        <time>2019-07-01T08:12:39Z</time>
      </trkpt>
      <trkpt lat="43.4767" lon="6.9049">
        <ele>394.97</ele>
        <time>2019-07-01T08:12:58Z</time>
      </trkpt>
      <trkpt lat="43.47677" lon="6.90487">
        <ele>394.17</ele>
        <time>2019-07-01T08:13:19Z</time>
      </trkpt>
      <trkpt lat="43.47684" lon="6.90482">
        <ele>392.34</ele>
        <time>2019-07-01T08:13:34Z</time>
      </trkpt>
      <trkpt lat="43.47702" lon="6.90472">
        <ele>389.46</ele>
        <time>2019-07-01T08:13:57Z</time>
      </trkpt>
      <trkpt lat="43.47711" lon="6.90467">
        <ele>387.19</ele>
        <time>2019-07-01T08:14:20Z</time>
      </trkpt>
      <trkpt lat="43.47714" lon="6.90462">
        <ele>387.2</ele>
        <time>2019-07-01T08:14:55Z</time>
      </trkpt>
      <trkpt lat="43.47713" lon="6.90464">
        <ele>387.25</ele>
        <time>2019-07-01T08:15:27Z</time>
      </trkpt>
      <trkpt lat="43.47712" lon="6.90463">
        <ele>387.25</ele>
        <time>2019-07-01T08:15:56Z</time>
      </trkpt>
      <trkpt lat="43.47711" lon="6.90466">
        <ele>387.25</ele>
        <time>2019-07-01T08:16:26Z</time>
      </trkpt>
      <trkpt lat="43.47711" lon="6.90467">
        <ele>387.25</ele>
        <time>2019-07-01T08:16:51Z</time>
      </trkpt>
      <trkpt lat="43.47711" lon="6.90465">
        <ele>387.25</ele>
        <time>2019-07-01T08:17:19Z</time>
      </trkpt>
      <trkpt lat="43.47714" lon="6.90461">
        <ele>387.25</ele>
        <time>2019-07-01T08:17:46Z</time>
      </trkpt>
      <trkpt lat="43.47714" lon="6.90458">
        <ele>387.25</ele>
        <time>2019-07-01T08:18:18Z</time>
      </trkpt>
      <trkpt lat="43.47719" lon="6.90465">
        <ele>387.25</ele>
        <time>2019-07-01T08:18:44Z</time>
      </trkpt>
      <trkpt lat="43.47733" lon="6.90462">
        <ele>387.25</ele>
        <time>2019-07-01T08:19:09Z</time>
      </trkpt>
      <trkpt lat="43.47741" lon="6.90464">
        <ele>382.01</ele>
        <time>2019-07-01T08:19:20Z</time>
      </trkpt>
      <trkpt lat="43.47742" lon="6.90464">
        <ele>381.88</ele>
        <time>2019-07-01T08:19:21Z</time>
      </trkpt>
      <trkpt lat="43.47755" lon="6.90472">
        <ele>380.3</ele>
        <time>2019-07-01T08:19:45Z</time>
      </trkpt>
      <trkpt lat="43.47762" lon="6.90484">
        <ele>378.15</ele>
        <time>2019-07-01T08:20:05Z</time>
      </trkpt>
      <trkpt lat="43.47762" lon="6.90505">
        <ele>375.56</ele>
        <time>2019-07-01T08:20:28Z</time>
      </trkpt>
      <trkpt lat="43.47765" lon="6.90528">
        <ele>372.99</ele>
        <time>2019-07-01T08:20:51Z</time>
      </trkpt>
      <trkpt lat="43.4777" lon="6.90543">
        <ele>370.27</ele>
        <time>2019-07-01T08:21:13Z</time>
      </trkpt>
      <trkpt lat="43.47776" lon="6.90532">
        <ele>368.05</ele>
        <time>2019-07-01T08:21:33Z</time>
      </trkpt>
      <trkpt lat="43.47784" lon="6.90514">
        <ele>365.31</ele>
        <time>2019-07-01T08:21:57Z</time>
      </trkpt>
      <trkpt lat="43.47793" lon="6.90495">
        <ele>363.1</ele>
        <time>2019-07-01T08:22:18Z</time>
      </trkpt>
      <trkpt lat="43.47798" lon="6.90479">
        <ele>360.92</ele>
        <time>2019-07-01T08:22:39Z</time>
      </trkpt>
      <trkpt lat="43.47799" lon="6.90477">
        <ele>360.42</ele>
        <time>2019-07-01T08:23:01Z</time>
      </trkpt>
      <trkpt lat="43.478" lon="6.9047">
        <ele>359.84</ele>
        <time>2019-07-01T08:23:23Z</time>
      </trkpt>
      <trkpt lat="43.47801" lon="6.9045">
        <ele>357.84</ele>
        <time>2019-07-01T08:23:46Z</time>
      </trkpt>
      <trkpt lat="43.478" lon="6.90431">
        <ele>355.62</ele>
        <time>2019-07-01T08:24:07Z</time>
      </trkpt>
      <trkpt lat="43.47794" lon="6.90418">
        <ele>354.14</ele>
        <time>2019-07-01T08:24:26Z</time>
      </trkpt>
      <trkpt lat="43.478" lon="6.90419">
        <ele>352.47</ele>
        <time>2019-07-01T08:24:44Z</time>
      </trkpt>
      <trkpt lat="43.47811" lon="6.90428">
        <ele>350.57</ele>
        <time>2019-07-01T08:25:03Z</time>
      </trkpt>
      <trkpt lat="43.47819" lon="6.90434">
        <ele>348.6</ele>
        <time>2019-07-01T08:25:22Z</time>
      </trkpt>
      <trkpt lat="43.47819" lon="6.90419">
        <ele>345.98</ele>
        <time>2019-07-01T08:25:42Z</time>
      </trkpt>
      <trkpt lat="43.47827" lon="6.90419">
        <ele>343.61</ele>
        <time>2019-07-01T08:26:03Z</time>
      </trkpt>
      <trkpt lat="43.47834" lon="6.90437">
        <ele>341.37</ele>
        <time>2019-07-01T08:26:25Z</time>
      </trkpt>
      <trkpt lat="43.47837" lon="6.90452">
        <ele>339.22</ele>
        <time>2019-07-01T08:26:45Z</time>
      </trkpt>
      <trkpt lat="43.47842" lon="6.90448">
        <ele>336.97</ele>
        <time>2019-07-01T08:27:07Z</time>
      </trkpt>
      <trkpt lat="43.47843" lon="6.90432">
        <ele>335.22</ele>
        <time>2019-07-01T08:27:27Z</time>
      </trkpt>
      <trkpt lat="43.47851" lon="6.90412">
        <ele>332.72</ele>
        <time>2019-07-01T08:27:47Z</time>
      </trkpt>
      <trkpt lat="43.47855" lon="6.90391">
        <ele>330.25</ele>
        <time>2019-07-01T08:28:09Z</time>
      </trkpt>
      <trkpt lat="43.47859" lon="6.90393">
        <ele>328.67</ele>
        <time>2019-07-01T08:28:28Z</time>
      </trkpt>
      <trkpt lat="43.47858" lon="6.90396">
        <ele>328.35</ele>
        <time>2019-07-01T08:28:54Z</time>
      </trkpt>
      <trkpt lat="43.47861" lon="6.90402">
        <ele>328.09</ele>
        <time>2019-07-01T08:29:20Z</time>
      </trkpt>
      <trkpt lat="43.47867" lon="6.90388">
        <ele>325.65</ele>
        <time>2019-07-01T08:29:41Z</time>
      </trkpt>
      <trkpt lat="43.47875" lon="6.90379">
        <ele>323.98</ele>
        <time>2019-07-01T08:30:02Z</time>
      </trkpt>
      <trkpt lat="43.47884" lon="6.90363">
        <ele>321.86</ele>
        <time>2019-07-01T08:30:24Z</time>
      </trkpt>
      <trkpt lat="43.47898" lon="6.90353">
        <ele>319.17</ele>
        <time>2019-07-01T08:30:47Z</time>
      </trkpt>
      <trkpt lat="43.4791" lon="6.90344">
        <ele>316.68</ele>
        <time>2019-07-01T08:31:09Z</time>
      </trkpt>
      <trkpt lat="43.47908" lon="6.90337">
        <ele>318.42</ele>
        <time>2019-07-01T08:31:32Z</time>
      </trkpt>
      <trkpt lat="43.4791" lon="6.90339">
        <ele>318.3</ele>
        <time>2019-07-01T08:32:01Z</time>
      </trkpt>
      <trkpt lat="43.47913" lon="6.90336">
        <ele>318.3</ele>
        <time>2019-07-01T08:32:25Z</time>
      </trkpt>
      <trkpt lat="43.47909" lon="6.90334">
        <ele>318.3</ele>
        <time>2019-07-01T08:32:52Z</time>
      </trkpt>
      <trkpt lat="43.47909" lon="6.90333">
        <ele>318.3</ele>
        <time>2019-07-01T08:33:27Z</time>
      </trkpt>
      <trkpt lat="43.47907" lon="6.90335">
        <ele>318.3</ele>
        <time>2019-07-01T08:33:58Z</time>
      </trkpt>
      <trkpt lat="43.47908" lon="6.90341">
        <ele>318.3</ele>
        <time>2019-07-01T08:34:26Z</time>
      </trkpt>
      <trkpt lat="43.47916" lon="6.90341">
        <ele>318.3</ele>
        <time>2019-07-01T08:34:44Z</time>
      </trkpt>
      <trkpt lat="43.47919" lon="6.90341">
        <ele>314.89</ele>
        <time>2019-07-01T08:34:52Z</time>
      </trkpt>
      <trkpt lat="43.4792" lon="6.90341">
        <ele>314.88</ele>
        <time>2019-07-01T08:34:53Z</time>
      </trkpt>
      <trkpt lat="43.47929" lon="6.9034">
        <ele>313.21</ele>
        <time>2019-07-01T08:35:14Z</time>
      </trkpt>
      <trkpt lat="43.47938" lon="6.90332">
        <ele>313.44</ele>
        <time>2019-07-01T08:35:35Z</time>
      </trkpt>
      <trkpt lat="43.4793" lon="6.90325">
        <ele>315.2</ele>
        <time>2019-07-01T08:35:49Z</time>
      </trkpt>
      <trkpt lat="43.47924" lon="6.90313">
        <ele>314.09</ele>
        <time>2019-07-01T08:36:04Z</time>
      </trkpt>
      <trkpt lat="43.47916" lon="6.90314">
        <ele>313.19</ele>
        <time>2019-07-01T08:36:19Z</time>
      </trkpt>
      <trkpt lat="43.47896" lon="6.90312">
        <ele>311.79</ele>
        <time>2019-07-01T08:36:43Z</time>
      </trkpt>
      <trkpt lat="43.47884" lon="6.90307">
        <ele>310.82</ele>
        <time>2019-07-01T08:36:59Z</time>
      </trkpt>
      <trkpt lat="43.47872" lon="6.90302">
        <ele>310</ele>
        <time>2019-07-01T08:37:14Z</time>
      </trkpt>
      <trkpt lat="43.47854" lon="6.90295">
        <ele>308.86</ele>
        <time>2019-07-01T08:37:31Z</time>
      </trkpt>
      <trkpt lat="43.47855" lon="6.90294">
        <ele>308.72</ele>
        <time>2019-07-01T08:37:57Z</time>
      </trkpt>
      <trkpt lat="43.47855" lon="6.90293">
        <ele>308.92</ele>
        <time>2019-07-01T08:38:26Z</time>
      </trkpt>
      <trkpt lat="43.47854" lon="6.90292">
        <ele>308.84</ele>
        <time>2019-07-01T08:38:58Z</time>
      </trkpt>
      <trkpt lat="43.47853" lon="6.90294">
        <ele>308.84</ele>
        <time>2019-07-01T08:39:28Z</time>
      </trkpt>
      <trkpt lat="43.47856" lon="6.90293">
        <ele>308.84</ele>
        <time>2019-07-01T08:40:02Z</time>
      </trkpt>
      <trkpt lat="43.47856" lon="6.90293">
        <ele>308.84</ele>
        <time>2019-07-01T08:40:34Z</time>
      </trkpt>
      <trkpt lat="43.47854" lon="6.90291">
        <ele>308.84</ele>
        <time>2019-07-01T08:41:12Z</time>
      </trkpt>
      <trkpt lat="43.47855" lon="6.90292">
        <ele>308.84</ele>
        <time>2019-07-01T08:41:46Z</time>
      </trkpt>
      <trkpt lat="43.47846" lon="6.90291">
        <ele>308.84</ele>
        <time>2019-07-01T08:41:54Z</time>
      </trkpt>
      <trkpt lat="43.47825" lon="6.90286">
        <ele>307.51</ele>
        <time>2019-07-01T08:42:14Z</time>
      </trkpt>
      <trkpt lat="43.47816" lon="6.90288">
        <ele>307.14</ele>
        <time>2019-07-01T08:42:24Z</time>
      </trkpt>
      <trkpt lat="43.478" lon="6.9029">
        <ele>305.85</ele>
        <time>2019-07-01T08:42:40Z</time>
      </trkpt>
      <trkpt lat="43.47782" lon="6.90282">
        <ele>304.59</ele>
        <time>2019-07-01T08:43:00Z</time>
      </trkpt>
      <trkpt lat="43.47779" lon="6.90283">
        <ele>304.39</ele>
        <time>2019-07-01T08:43:03Z</time>
      </trkpt>
      <trkpt lat="43.4776" lon="6.90285">
        <ele>303.44</ele>
        <time>2019-07-01T08:43:20Z</time>
      </trkpt>
      <trkpt lat="43.47744" lon="6.90279">
        <ele>302.3</ele>
        <time>2019-07-01T08:43:35Z</time>
      </trkpt>
      <trkpt lat="43.47731" lon="6.9027">
        <ele>301.3</ele>
        <time>2019-07-01T08:43:54Z</time>
      </trkpt>
      <trkpt lat="43.47727" lon="6.9026">
        <ele>299.61</ele>
        <time>2019-07-01T08:44:13Z</time>
      </trkpt>
      <trkpt lat="43.47711" lon="6.90242">
        <ele>298.83</ele>
        <time>2019-07-01T08:44:35Z</time>
      </trkpt>
      <trkpt lat="43.47708" lon="6.90225">
        <ele>297.35</ele>
        <time>2019-07-01T08:44:54Z</time>
      </trkpt>
      <trkpt lat="43.47707" lon="6.90205">
        <ele>296.78</ele>
        <time>2019-07-01T08:45:16Z</time>
      </trkpt>
      <trkpt lat="43.47709" lon="6.90196">
        <ele>295.79</ele>
        <time>2019-07-01T08:45:26Z</time>
      </trkpt>
      <trkpt lat="43.47706" lon="6.90182">
        <ele>294.54</ele>
        <time>2019-07-01T08:45:41Z</time>
      </trkpt>
      <trkpt lat="43.47701" lon="6.90174">
        <ele>293.3</ele>
        <time>2019-07-01T08:45:53Z</time>
      </trkpt>
      <trkpt lat="43.47696" lon="6.90168">
        <ele>292.41</ele>
        <time>2019-07-01T08:46:01Z</time>
      </trkpt>
      <trkpt lat="43.47685" lon="6.90159">
        <ele>290.73</ele>
        <time>2019-07-01T08:46:18Z</time>
      </trkpt>
      <trkpt lat="43.47678" lon="6.90139">
        <ele>288.43</ele>
        <time>2019-07-01T08:46:37Z</time>
      </trkpt>
      <trkpt lat="43.47668" lon="6.90124">
        <ele>286.22</ele>
        <time>2019-07-01T08:46:55Z</time>
      </trkpt>
      <trkpt lat="43.47664" lon="6.90105">
        <ele>283.84</ele>
        <time>2019-07-01T08:47:16Z</time>
      </trkpt>
      <trkpt lat="43.47657" lon="6.90086">
        <ele>281.66</ele>
        <time>2019-07-01T08:47:36Z</time>
      </trkpt>
      <trkpt lat="43.47649" lon="6.90071">
        <ele>280.86</ele>
        <time>2019-07-01T08:47:55Z</time>
      </trkpt>
      <trkpt lat="43.47644" lon="6.90069">
        <ele>280.73</ele>
        <time>2019-07-01T08:48:30Z</time>
      </trkpt>
      <trkpt lat="43.47641" lon="6.90054">
        <ele>279.29</ele>
        <time>2019-07-01T08:48:47Z</time>
      </trkpt>
      <trkpt lat="43.47641" lon="6.90044">
        <ele>277.46</ele>
        <time>2019-07-01T08:49:07Z</time>
      </trkpt>
      <trkpt lat="43.47642" lon="6.90053">
        <ele>278.33</ele>
        <time>2019-07-01T08:49:27Z</time>
      </trkpt>
      <trkpt lat="43.47637" lon="6.90055">
        <ele>280.94</ele>
        <time>2019-07-01T08:49:45Z</time>
      </trkpt>
      <trkpt lat="43.47631" lon="6.90037">
        <ele>281.19</ele>
        <time>2019-07-01T08:50:07Z</time>
      </trkpt>
      <trkpt lat="43.47632" lon="6.90026">
        <ele>281.35</ele>
        <time>2019-07-01T08:50:36Z</time>
      </trkpt>
      <trkpt lat="43.47632" lon="6.90009">
        <ele>281.28</ele>
        <time>2019-07-01T08:50:56Z</time>
      </trkpt>
      <trkpt lat="43.47631" lon="6.89993">
        <ele>281.45</ele>
        <time>2019-07-01T08:51:12Z</time>
      </trkpt>
      <trkpt lat="43.47629" lon="6.89967">
        <ele>281.25</ele>
        <time>2019-07-01T08:51:30Z</time>
      </trkpt>
      <trkpt lat="43.47625" lon="6.89941">
        <ele>281.44</ele>
        <time>2019-07-01T08:51:52Z</time>
      </trkpt>
      <trkpt lat="43.47621" lon="6.89925">
        <ele>281.41</ele>
        <time>2019-07-01T08:52:17Z</time>
      </trkpt>
      <trkpt lat="43.47618" lon="6.89918">
        <ele>281.41</ele>
        <time>2019-07-01T08:52:35Z</time>
      </trkpt>
      <trkpt lat="43.47616" lon="6.89916">
        <ele>281.41</ele>
        <time>2019-07-01T08:52:56Z</time>
      </trkpt>
      <trkpt lat="43.4761" lon="6.89915">
        <ele>281.41</ele>
        <time>2019-07-01T08:53:24Z</time>
      </trkpt>
      <trkpt lat="43.47608" lon="6.89913">
        <ele>281.41</ele>
        <time>2019-07-01T08:53:52Z</time>
      </trkpt>
      <trkpt lat="43.47613" lon="6.89912">
        <ele>281.41</ele>
        <time>2019-07-01T08:54:23Z</time>
      </trkpt>
      <trkpt lat="43.47614" lon="6.89912">
        <ele>281.41</ele>
        <time>2019-07-01T08:54:29Z</time>
      </trkpt>
      <trkpt lat="43.47619" lon="6.89938">
        <ele>281.41</ele>
        <time>2019-07-01T08:54:51Z</time>
      </trkpt>
      <trkpt lat="43.47626" lon="6.89956">
        <ele>281.87</ele>
        <time>2019-07-01T08:55:04Z</time>
      </trkpt>
      <trkpt lat="43.47626" lon="6.89973">
        <ele>281.65</ele>
        <time>2019-07-01T08:55:16Z</time>
      </trkpt>
      <trkpt lat="43.47622" lon="6.89983">
        <ele>281.74</ele>
        <time>2019-07-01T08:55:23Z</time>
      </trkpt>
      <trkpt lat="43.47621" lon="6.90001">
        <ele>281.67</ele>
        <time>2019-07-01T08:55:36Z</time>
      </trkpt>
      <trkpt lat="43.47619" lon="6.90016">
        <ele>281.74</ele>
        <time>2019-07-01T08:55:47Z</time>
      </trkpt>
      <trkpt lat="43.47619" lon="6.90017">
        <ele>281.75</ele>
        <time>2019-07-01T08:55:48Z</time>
      </trkpt>
      <trkpt lat="43.47628" lon="6.90028">
        <ele>281.77</ele>
        <time>2019-07-01T08:55:55Z</time>
      </trkpt>
      <trkpt lat="43.47642" lon="6.90052">
        <ele>281.79</ele>
        <time>2019-07-01T08:56:11Z</time>
      </trkpt>
      <trkpt lat="43.47643" lon="6.9005">
        <ele>280.51</ele>
        <time>2019-07-01T08:56:29Z</time>
      </trkpt>
      <trkpt lat="43.47645" lon="6.90038">
        <ele>278.5</ele>
        <time>2019-07-01T08:56:49Z</time>
      </trkpt>
      <trkpt lat="43.47645" lon="6.90021">
        <ele>276.52</ele>
        <time>2019-07-01T08:57:06Z</time>
      </trkpt>
      <trkpt lat="43.47646" lon="6.90016">
        <ele>275.24</ele>
        <time>2019-07-01T08:57:27Z</time>
      </trkpt>
      <trkpt lat="43.47654" lon="6.8999">
        <ele>272.96</ele>
        <time>2019-07-01T08:57:49Z</time>
      </trkpt>
      <trkpt lat="43.47654" lon="6.89986">
        <ele>272.61</ele>
        <time>2019-07-01T08:57:52Z</time>
      </trkpt>
      <trkpt lat="43.47651" lon="6.89964">
        <ele>270.46</ele>
        <time>2019-07-01T08:58:09Z</time>
      </trkpt>
      <trkpt lat="43.47647" lon="6.89934">
        <ele>267.38</ele>
        <time>2019-07-01T08:58:32Z</time>
      </trkpt>
      <trkpt lat="43.47653" lon="6.8991">
        <ele>264.42</ele>
        <time>2019-07-01T08:58:55Z</time>
      </trkpt>
      <trkpt lat="43.47662" lon="6.89884">
        <ele>261.34</ele>
        <time>2019-07-01T08:59:18Z</time>
      </trkpt>
      <trkpt lat="43.47672" lon="6.89868">
        <ele>258.23</ele>
        <time>2019-07-01T08:59:38Z</time>
      </trkpt>
      <trkpt lat="43.47675" lon="6.89869">
        <ele>255.85</ele>
        <time>2019-07-01T09:00:00Z</time>
      </trkpt>
      <trkpt lat="43.4767" lon="6.89868">
        <ele>256.33</ele>
        <time>2019-07-01T09:00:27Z</time>
      </trkpt>
      <trkpt lat="43.47662" lon="6.89871">
        <ele>255.62</ele>
        <time>2019-07-01T09:00:44Z</time>
      </trkpt>
      <trkpt lat="43.4766" lon="6.89887">
        <ele>254</ele>
        <time>2019-07-01T09:00:56Z</time>
      </trkpt>
      <trkpt lat="43.47667" lon="6.89904">
        <ele>252.2</ele>
        <time>2019-07-01T09:01:07Z</time>
      </trkpt>
      <trkpt lat="43.47674" lon="6.89917">
        <ele>250.99</ele>
        <time>2019-07-01T09:01:17Z</time>
      </trkpt>
      <trkpt lat="43.47677" lon="6.89928">
        <ele>249.24</ele>
        <time>2019-07-01T09:01:30Z</time>
      </trkpt>
      <trkpt lat="43.47676" lon="6.89941">
        <ele>247.43</ele>
        <time>2019-07-01T09:01:45Z</time>
      </trkpt>
      <trkpt lat="43.47683" lon="6.89956">
        <ele>246.05</ele>
        <time>2019-07-01T09:01:56Z</time>
      </trkpt>
      <trkpt lat="43.47689" lon="6.89974">
        <ele>243.43</ele>
        <time>2019-07-01T09:02:17Z</time>
      </trkpt>
      <trkpt lat="43.47696" lon="6.8999">
        <ele>242.71</ele>
        <time>2019-07-01T09:02:25Z</time>
      </trkpt>
      <trkpt lat="43.47705" lon="6.90002">
        <ele>241.44</ele>
        <time>2019-07-01T09:02:37Z</time>
      </trkpt>
      <trkpt lat="43.47711" lon="6.90015">
        <ele>239.4</ele>
        <time>2019-07-01T09:02:50Z</time>
      </trkpt>
      <trkpt lat="43.47719" lon="6.90025">
        <ele>238.13</ele>
        <time>2019-07-01T09:03:03Z</time>
      </trkpt>
      <trkpt lat="43.47725" lon="6.90044">
        <ele>235.56</ele>
        <time>2019-07-01T09:03:20Z</time>
      </trkpt>
      <trkpt lat="43.47723" lon="6.90046">
        <ele>234.86</ele>
        <time>2019-07-01T09:03:33Z</time>
      </trkpt>
      <trkpt lat="43.47723" lon="6.90047">
        <ele>234.65</ele>
        <time>2019-07-01T09:04:05Z</time>
      </trkpt>
      <trkpt lat="43.47724" lon="6.90047">
        <ele>234.76</ele>
        <time>2019-07-01T09:04:30Z</time>
      </trkpt>
      <trkpt lat="43.47723" lon="6.90046">
        <ele>234.76</ele>
        <time>2019-07-01T09:04:54Z</time>
      </trkpt>
      <trkpt lat="43.47719" lon="6.90045">
        <ele>234.76</ele>
        <time>2019-07-01T09:04:58Z</time>
      </trkpt>
      <trkpt lat="43.47721" lon="6.90047">
        <ele>234.56</ele>
        <time>2019-07-01T09:05:25Z</time>
      </trkpt>
      <trkpt lat="43.47725" lon="6.90046">
        <ele>234.51</ele>
        <time>2019-07-01T09:05:50Z</time>
      </trkpt>
      <trkpt lat="43.47728" lon="6.90046">
        <ele>234.51</ele>
        <time>2019-07-01T09:05:55Z</time>
      </trkpt>
      <trkpt lat="43.47738" lon="6.90059">
        <ele>233.65</ele>
        <time>2019-07-01T09:06:11Z</time>
      </trkpt>
      <trkpt lat="43.47745" lon="6.90065">
        <ele>233.07</ele>
        <time>2019-07-01T09:06:18Z</time>
      </trkpt>
      <trkpt lat="43.47754" lon="6.90076">
        <ele>230.41</ele>
        <time>2019-07-01T09:06:35Z</time>
      </trkpt>
      <trkpt lat="43.47747" lon="6.90065">
        <ele>228.07</ele>
        <time>2019-07-01T09:06:55Z</time>
      </trkpt>
      <trkpt lat="43.47745" lon="6.90039">
        <ele>225.03</ele>
        <time>2019-07-01T09:07:17Z</time>
      </trkpt>
      <trkpt lat="43.47738" lon="6.9002">
        <ele>222.6</ele>
        <time>2019-07-01T09:07:37Z</time>
      </trkpt>
      <trkpt lat="43.47743" lon="6.90004">
        <ele>221</ele>
        <time>2019-07-01T09:07:53Z</time>
      </trkpt>
      <trkpt lat="43.47745" lon="6.89989">
        <ele>218.71</ele>
        <time>2019-07-01T09:08:09Z</time>
      </trkpt>
      <trkpt lat="43.47754" lon="6.89961">
        <ele>215.93</ele>
        <time>2019-07-01T09:08:29Z</time>
      </trkpt>
      <trkpt lat="43.47757" lon="6.89944">
        <ele>213.99</ele>
        <time>2019-07-01T09:08:43Z</time>
      </trkpt>
      <trkpt lat="43.47764" lon="6.8993">
        <ele>212.68</ele>
        <time>2019-07-01T09:08:56Z</time>
      </trkpt>
      <trkpt lat="43.47777" lon="6.89926">
        <ele>209.74</ele>
        <time>2019-07-01T09:09:14Z</time>
      </trkpt>
      <trkpt lat="43.47777" lon="6.89933">
        <ele>208.15</ele>
        <time>2019-07-01T09:09:25Z</time>
      </trkpt>
      <trkpt lat="43.47778" lon="6.89934">
        <ele>207.92</ele>
        <time>2019-07-01T09:09:27Z</time>
      </trkpt>
      <trkpt lat="43.47786" lon="6.89949">
        <ele>206.09</ele>
        <time>2019-07-01T09:09:40Z</time>
      </trkpt>
      <trkpt lat="43.47795" lon="6.89967">
        <ele>203.56</ele>
        <time>2019-07-01T09:09:58Z</time>
      </trkpt>
      <trkpt lat="43.47784" lon="6.89977">
        <ele>202.42</ele>
        <time>2019-07-01T09:10:12Z</time>
      </trkpt>
      <trkpt lat="43.47769" lon="6.89987">
        <ele>199.94</ele>
        <time>2019-07-01T09:10:28Z</time>
      </trkpt>
      <trkpt lat="43.47782" lon="6.89998">
        <ele>197.74</ele>
        <time>2019-07-01T09:10:52Z</time>
      </trkpt>
      <trkpt lat="43.47788" lon="6.90008">
        <ele>196.74</ele>
        <time>2019-07-01T09:10:59Z</time>
      </trkpt>
      <trkpt lat="43.47773" lon="6.90028">
        <ele>194.64</ele>
        <time>2019-07-01T09:11:17Z</time>
      </trkpt>
      <trkpt lat="43.47766" lon="6.90032">
        <ele>194.13</ele>
        <time>2019-07-01T09:11:25Z</time>
      </trkpt>
      <trkpt lat="43.47767" lon="6.90051">
        <ele>193.19</ele>
        <time>2019-07-01T09:11:48Z</time>
      </trkpt>
      <trkpt lat="43.4777" lon="6.90074">
        <ele>192.94</ele>
        <time>2019-07-01T09:12:03Z</time>
      </trkpt>
      <trkpt lat="43.47772" lon="6.90074">
        <ele>192.91</ele>
        <time>2019-07-01T09:12:05Z</time>
      </trkpt>
      <trkpt lat="43.47782" lon="6.90072">
        <ele>192.27</ele>
        <time>2019-07-01T09:12:12Z</time>
      </trkpt>
      <trkpt lat="43.47786" lon="6.9007">
        <ele>191.93</ele>
        <time>2019-07-01T09:12:16Z</time>
      </trkpt>
      <trkpt lat="43.4779" lon="6.90065">
        <ele>191.68</ele>
        <time>2019-07-01T09:12:19Z</time>
      </trkpt>
      <trkpt lat="43.47794" lon="6.90055">
        <ele>190.58</ele>
        <time>2019-07-01T09:12:32Z</time>
      </trkpt>
      <trkpt lat="43.47796" lon="6.90053">
        <ele>189.72</ele>
        <time>2019-07-01T09:12:38Z</time>
      </trkpt>
      <trkpt lat="43.47793" lon="6.90049">
        <ele>189.31</ele>
        <time>2019-07-01T09:13:09Z</time>
      </trkpt>
      <trkpt lat="43.478" lon="6.90038">
        <ele>187.61</ele>
        <time>2019-07-01T09:13:25Z</time>
      </trkpt>
      <trkpt lat="43.47809" lon="6.90036">
        <ele>185.13</ele>
        <time>2019-07-01T09:13:42Z</time>
      </trkpt>
      <trkpt lat="43.47809" lon="6.90034">
        <ele>184.91</ele>
        <time>2019-07-01T09:14:09Z</time>
      </trkpt>
      <trkpt lat="43.47815" lon="6.90023">
        <ele>184.66</ele>
        <time>2019-07-01T09:14:38Z</time>
      </trkpt>
      <trkpt lat="43.47823" lon="6.90025">
        <ele>183.24</ele>
        <time>2019-07-01T09:14:57Z</time>
      </trkpt>
      <trkpt lat="43.47826" lon="6.90025">
        <ele>182.76</ele>
        <time>2019-07-01T09:15:00Z</time>
      </trkpt>
      <trkpt lat="43.4783" lon="6.90023">
        <ele>181.2</ele>
        <time>2019-07-01T09:15:16Z</time>
      </trkpt>
      <trkpt lat="43.47832" lon="6.90022">
        <ele>181.38</ele>
        <time>2019-07-01T09:15:43Z</time>
      </trkpt>
      <trkpt lat="43.47827" lon="6.90019">
        <ele>181.33</ele>
        <time>2019-07-01T09:16:10Z</time>
      </trkpt>
      <trkpt lat="43.47828" lon="6.90018">
        <ele>181.38</ele>
        <time>2019-07-01T09:16:39Z</time>
      </trkpt>
      <trkpt lat="43.47832" lon="6.90017">
        <ele>181.38</ele>
        <time>2019-07-01T09:17:08Z</time>
      </trkpt>
      <trkpt lat="43.47836" lon="6.90017">
        <ele>181.38</ele>
        <time>2019-07-01T09:17:14Z</time>
      </trkpt>
      <trkpt lat="43.47842" lon="6.90025">
        <ele>181.38</ele>
        <time>2019-07-01T09:17:29Z</time>
      </trkpt>
      <trkpt lat="43.47842" lon="6.90024">
        <ele>178.55</ele>
        <time>2019-07-01T09:17:31Z</time>
      </trkpt>
      <trkpt lat="43.47854" lon="6.90022">
        <ele>177.7</ele>
        <time>2019-07-01T09:17:43Z</time>
      </trkpt>
      <trkpt lat="43.47855" lon="6.9002">
        <ele>177.36</ele>
        <time>2019-07-01T09:17:46Z</time>
      </trkpt>
      <trkpt lat="43.47866" lon="6.90006">
        <ele>175.22</ele>
        <time>2019-07-01T09:18:04Z</time>
      </trkpt>
      <trkpt lat="43.4788" lon="6.89985">
        <ele>172.2</ele>
        <time>2019-07-01T09:18:25Z</time>
      </trkpt>
      <trkpt lat="43.47894" lon="6.89972">
        <ele>169.36</ele>
        <time>2019-07-01T09:18:44Z</time>
      </trkpt>
      <trkpt lat="43.47905" lon="6.8996">
        <ele>167.43</ele>
        <time>2019-07-01T09:18:59Z</time>
      </trkpt>
      <trkpt lat="43.47915" lon="6.8995">
        <ele>165.12</ele>
        <time>2019-07-01T09:19:13Z</time>
      </trkpt>
      <trkpt lat="43.47926" lon="6.89946">
        <ele>164</ele>
        <time>2019-07-01T09:19:27Z</time>
      </trkpt>
      <trkpt lat="43.47941" lon="6.89937">
        <ele>161.7</ele>
        <time>2019-07-01T09:19:45Z</time>
      </trkpt>
      <trkpt lat="43.47945" lon="6.89928">
        <ele>160.07</ele>
        <time>2019-07-01T09:19:56Z</time>
      </trkpt>
      <trkpt lat="43.47957" lon="6.89904">
        <ele>157.07</ele>
        <time>2019-07-01T09:20:17Z</time>
      </trkpt>
      <trkpt lat="43.47967" lon="6.89888">
        <ele>154.18</ele>
        <time>2019-07-01T09:20:37Z</time>
      </trkpt>
      <trkpt lat="43.47979" lon="6.89871">
        <ele>151.07</ele>
        <time>2019-07-01T09:21:00Z</time>
      </trkpt>
      <trkpt lat="43.47989" lon="6.89856">
        <ele>149.36</ele>
        <time>2019-07-01T09:21:14Z</time>
      </trkpt>
      <trkpt lat="43.47994" lon="6.89841">
        <ele>147.11</ele>
        <time>2019-07-01T09:21:29Z</time>
      </trkpt>
      <trkpt lat="43.48001" lon="6.89813">
        <ele>144.1</ele>
        <time>2019-07-01T09:21:51Z</time>
      </trkpt>
      <trkpt lat="43.48009" lon="6.898">
        <ele>142.12</ele>
        <time>2019-07-01T09:22:06Z</time>
      </trkpt>
      <trkpt lat="43.48017" lon="6.8978">
        <ele>139.66</ele>
        <time>2019-07-01T09:22:25Z</time>
      </trkpt>
      <trkpt lat="43.48023" lon="6.8976">
        <ele>137.45</ele>
        <time>2019-07-01T09:22:45Z</time>
      </trkpt>
      <trkpt lat="43.4803" lon="6.89739">
        <ele>134.98</ele>
        <time>2019-07-01T09:23:06Z</time>
      </trkpt>
      <trkpt lat="43.48039" lon="6.89715">
        <ele>132.54</ele>
        <time>2019-07-01T09:23:29Z</time>
      </trkpt>
      <trkpt lat="43.48046" lon="6.89701">
        <ele>130.68</ele>
        <time>2019-07-01T09:23:45Z</time>
      </trkpt>
      <trkpt lat="43.48052" lon="6.89693">
        <ele>129.23</ele>
        <time>2019-07-01T09:23:57Z</time>
      </trkpt>
      <trkpt lat="43.4805" lon="6.89671">
        <ele>127.51</ele>
        <time>2019-07-01T09:24:13Z</time>
      </trkpt>
      <trkpt lat="43.48054" lon="6.89651">
        <ele>125.44</ele>
        <time>2019-07-01T09:24:32Z</time>
      </trkpt>
      <trkpt lat="43.48057" lon="6.89638">
        <ele>123.36</ele>
        <time>2019-07-01T09:24:52Z</time>
      </trkpt>
      <trkpt lat="43.48049" lon="6.89637">
        <ele>121.3</ele>
        <time>2019-07-01T09:25:13Z</time>
      </trkpt>
      <trkpt lat="43.48046" lon="6.89637">
        <ele>120.18</ele>
        <time>2019-07-01T09:25:40Z</time>
      </trkpt>
      <trkpt lat="43.48039" lon="6.89651">
        <ele>118.27</ele>
        <time>2019-07-01T09:26:01Z</time>
      </trkpt>
      <trkpt lat="43.48032" lon="6.89665">
        <ele>115.76</ele>
        <time>2019-07-01T09:26:20Z</time>
      </trkpt>
      <trkpt lat="43.48031" lon="6.89668">
        <ele>115.92</ele>
        <time>2019-07-01T09:26:40Z</time>
      </trkpt>
      <trkpt lat="43.48032" lon="6.8967">
        <ele>116</ele>
        <time>2019-07-01T09:26:44Z</time>
      </trkpt>
      <trkpt lat="43.48035" lon="6.89674">
        <ele>116.04</ele>
        <time>2019-07-01T09:27:19Z</time>
      </trkpt>
      <trkpt lat="43.48034" lon="6.89672">
        <ele>116.2</ele>
        <time>2019-07-01T09:27:49Z</time>
      </trkpt>
      <trkpt lat="43.48035" lon="6.89674">
        <ele>116.18</ele>
        <time>2019-07-01T09:27:57Z</time>
      </trkpt>
      <trkpt lat="43.48033" lon="6.89673">
        <ele>116.08</ele>
        <time>2019-07-01T09:28:19Z</time>
      </trkpt>
      <trkpt lat="43.48034" lon="6.89672">
        <ele>116.08</ele>
        <time>2019-07-01T09:28:49Z</time>
      </trkpt>
      <trkpt lat="43.48036" lon="6.89668">
        <ele>116.08</ele>
        <time>2019-07-01T09:29:10Z</time>
      </trkpt>
      <trkpt lat="43.48027" lon="6.89672">
        <ele>116.08</ele>
        <time>2019-07-01T09:29:41Z</time>
      </trkpt>
      <trkpt lat="43.4802" lon="6.89675">
        <ele>114.76</ele>
        <time>2019-07-01T09:29:48Z</time>
      </trkpt>
      <trkpt lat="43.48014" lon="6.89686">
        <ele>113.09</ele>
        <time>2019-07-01T09:29:58Z</time>
      </trkpt>
      <trkpt lat="43.48007" lon="6.89694">
        <ele>111.82</ele>
        <time>2019-07-01T09:30:07Z</time>
      </trkpt>
      <trkpt lat="43.48002" lon="6.897">
        <ele>110.44</ele>
        <time>2019-07-01T09:30:16Z</time>
      </trkpt>
      <trkpt lat="43.47998" lon="6.89703">
        <ele>109.76</ele>
        <time>2019-07-01T09:30:21Z</time>
      </trkpt>
      <trkpt lat="43.47996" lon="6.89704">
        <ele>109.54</ele>
        <time>2019-07-01T09:30:23Z</time>
      </trkpt>
      <trkpt lat="43.4799" lon="6.89714">
        <ele>108.32</ele>
        <time>2019-07-01T09:30:32Z</time>
      </trkpt>
      <trkpt lat="43.47986" lon="6.89717">
        <ele>107.74</ele>
        <time>2019-07-01T09:30:36Z</time>
      </trkpt>
      <trkpt lat="43.47983" lon="6.89732">
        <ele>105.25</ele>
        <time>2019-07-01T09:30:49Z</time>
      </trkpt>
      <trkpt lat="43.47982" lon="6.89735">
        <ele>104.83</ele>
        <time>2019-07-01T09:30:52Z</time>
      </trkpt>
      <trkpt lat="43.47975" lon="6.89736">
        <ele>104.44</ele>
        <time>2019-07-01T09:30:58Z</time>
      </trkpt>
      <trkpt lat="43.47972" lon="6.89737">
        <ele>104.27</ele>
        <time>2019-07-01T09:31:02Z</time>
      </trkpt>
      <trkpt lat="43.47963" lon="6.89755">
        <ele>102.08</ele>
        <time>2019-07-01T09:31:20Z</time>
      </trkpt>
      <trkpt lat="43.47949" lon="6.8977">
        <ele>99.73</ele>
        <time>2019-07-01T09:31:41Z</time>
      </trkpt>
      <trkpt lat="43.47946" lon="6.89774">
        <ele>97.58</ele>
        <time>2019-07-01T09:31:55Z</time>
      </trkpt>
      <trkpt lat="43.47944" lon="6.89778">
        <ele>95.97</ele>
        <time>2019-07-01T09:32:10Z</time>
      </trkpt>
      <trkpt lat="43.47944" lon="6.89773">
        <ele>94.68</ele>
        <time>2019-07-01T09:32:31Z</time>
      </trkpt>
      <trkpt lat="43.47945" lon="6.89763">
        <ele>94.79</ele>
        <time>2019-07-01T09:32:41Z</time>
      </trkpt>
      <trkpt lat="43.47942" lon="6.89751">
        <ele>94.09</ele>
        <time>2019-07-01T09:32:57Z</time>
      </trkpt>
      <trkpt lat="43.47949" lon="6.89749">
        <ele>93.79</ele>
        <time>2019-07-01T09:33:14Z</time>
      </trkpt>
      <trkpt lat="43.47955" lon="6.89725">
        <ele>91.15</ele>
        <time>2019-07-01T09:33:33Z</time>
      </trkpt>
      <trkpt lat="43.47955" lon="6.89724">
        <ele>90.92</ele>
        <time>2019-07-01T09:33:35Z</time>
      </trkpt>
      <trkpt lat="43.47952" lon="6.89706">
        <ele>87.95</ele>
        <time>2019-07-01T09:33:54Z</time>
      </trkpt>
      <trkpt lat="43.47951" lon="6.89696">
        <ele>85.71</ele>
        <time>2019-07-01T09:34:08Z</time>
      </trkpt>
      <trkpt lat="43.47954" lon="6.89684">
        <ele>83.34</ele>
        <time>2019-07-01T09:34:21Z</time>
      </trkpt>
      <trkpt lat="43.4796" lon="6.89667">
        <ele>80.61</ele>
        <time>2019-07-01T09:34:42Z</time>
      </trkpt>
      <trkpt lat="43.47961" lon="6.89665">
        <ele>80.28</ele>
        <time>2019-07-01T09:34:44Z</time>
      </trkpt>
      <trkpt lat="43.47962" lon="6.89658">
        <ele>78.88</ele>
        <time>2019-07-01T09:34:54Z</time>
      </trkpt>
      <trkpt lat="43.47966" lon="6.89637">
        <ele>76.74</ele>
        <time>2019-07-01T09:35:13Z</time>
      </trkpt>
      <trkpt lat="43.4797" lon="6.89631">
        <ele>75.61</ele>
        <time>2019-07-01T09:35:24Z</time>
      </trkpt>
      <trkpt lat="43.47974" lon="6.89615">
        <ele>74.04</ele>
        <time>2019-07-01T09:35:40Z</time>
      </trkpt>
      <trkpt lat="43.47981" lon="6.89608">
        <ele>73.41</ele>
        <time>2019-07-01T09:35:49Z</time>
      </trkpt>
      <trkpt lat="43.47985" lon="6.89595">
        <ele>71.94</ele>
        <time>2019-07-01T09:36:04Z</time>
      </trkpt>
      <trkpt lat="43.47986" lon="6.8958">
        <ele>70.81</ele>
        <time>2019-07-01T09:36:18Z</time>
      </trkpt>
      <trkpt lat="43.47985" lon="6.89575">
        <ele>71.37</ele>
        <time>2019-07-01T09:36:34Z</time>
      </trkpt>
      <trkpt lat="43.47981" lon="6.89575">
        <ele>71.35</ele>
        <time>2019-07-01T09:36:39Z</time>
      </trkpt>
      <trkpt lat="43.47976" lon="6.89572">
        <ele>71.28</ele>
        <time>2019-07-01T09:37:07Z</time>
      </trkpt>
      <trkpt lat="43.47987" lon="6.89559">
        <ele>70.6</ele>
        <time>2019-07-01T09:37:30Z</time>
      </trkpt>
      <trkpt lat="43.47996" lon="6.89544">
        <ele>67.54</ele>
        <time>2019-07-01T09:37:49Z</time>
      </trkpt>
      <trkpt lat="43.48003" lon="6.89526">
        <ele>64.52</ele>
        <time>2019-07-01T09:38:07Z</time>
      </trkpt>
      <trkpt lat="43.48003" lon="6.89505">
        <ele>62.56</ele>
        <time>2019-07-01T09:38:24Z</time>
      </trkpt>
      <trkpt lat="43.48004" lon="6.89484">
        <ele>60.71</ele>
        <time>2019-07-01T09:38:45Z</time>
      </trkpt>
      <trkpt lat="43.48004" lon="6.89461">
        <ele>59.84</ele>
        <time>2019-07-01T09:39:04Z</time>
      </trkpt>
      <trkpt lat="43.48004" lon="6.89434">
        <ele>58.31</ele>
        <time>2019-07-01T09:39:27Z</time>
      </trkpt>
      <trkpt lat="43.48006" lon="6.89415">
        <ele>56.63</ele>
        <time>2019-07-01T09:39:47Z</time>
      </trkpt>
      <trkpt lat="43.48007" lon="6.89392">
        <ele>53.77</ele>
        <time>2019-07-01T09:40:10Z</time>
      </trkpt>
      <trkpt lat="43.48009" lon="6.89367">
        <ele>53.51</ele>
        <time>2019-07-01T09:40:31Z</time>
      </trkpt>
      <trkpt lat="43.48008" lon="6.89339">
        <ele>52.24</ele>
        <time>2019-07-01T09:40:50Z</time>
      </trkpt>
      <trkpt lat="43.48012" lon="6.89322">
        <ele>51.23</ele>
        <time>2019-07-01T09:41:04Z</time>
      </trkpt>
      <trkpt lat="43.48007" lon="6.89295">
        <ele>49.7</ele>
        <time>2019-07-01T09:41:24Z</time>
      </trkpt>
      <trkpt lat="43.48002" lon="6.89267">
        <ele>46.95</ele>
        <time>2019-07-01T09:41:47Z</time>
      </trkpt>
      <trkpt lat="43.48007" lon="6.89247">
        <ele>44.87</ele>
        <time>2019-07-01T09:42:07Z</time>
      </trkpt>
      <trkpt lat="43.48006" lon="6.8923">
        <ele>43.14</ele>
        <time>2019-07-01T09:42:28Z</time>
      </trkpt>
      <trkpt lat="43.48015" lon="6.89218">
        <ele>44.11</ele>
        <time>2019-07-01T09:42:44Z</time>
      </trkpt>
      <trkpt lat="43.48015" lon="6.89194">
        <ele>44.81</ele>
        <time>2019-07-01T09:43:03Z</time>
      </trkpt>
      <trkpt lat="43.4801" lon="6.89183">
        <ele>44.42</ele>
        <time>2019-07-01T09:43:10Z</time>
      </trkpt>
      <trkpt lat="43.48008" lon="6.89174">
        <ele>43.9</ele>
        <time>2019-07-01T09:43:16Z</time>
      </trkpt>
      <trkpt lat="43.4801" lon="6.89144">
        <ele>41.84</ele>
        <time>2019-07-01T09:43:39Z</time>
      </trkpt>
      <trkpt lat="43.48012" lon="6.89117">
        <ele>40.19</ele>
        <time>2019-07-01T09:44:01Z</time>
      </trkpt>
      <trkpt lat="43.48008" lon="6.89088">
        <ele>38.65</ele>
        <time>2019-07-01T09:44:23Z</time>
      </trkpt>
      <trkpt lat="43.48007" lon="6.89072">
        <ele>37.72</ele>
        <time>2019-07-01T09:44:35Z</time>
      </trkpt>
      <trkpt lat="43.47999" lon="6.89057">
        <ele>37.38</ele>
        <time>2019-07-01T09:44:43Z</time>
      </trkpt>
      <trkpt lat="43.47988" lon="6.89033">
        <ele>36.95</ele>
        <time>2019-07-01T09:44:59Z</time>
      </trkpt>
      <trkpt lat="43.47979" lon="6.89012">
        <ele>36.35</ele>
        <time>2019-07-01T09:45:16Z</time>
      </trkpt>
      <trkpt lat="43.47962" lon="6.88996">
        <ele>35.77</ele>
        <time>2019-07-01T09:45:36Z</time>
      </trkpt>
      <trkpt lat="43.47947" lon="6.88985">
        <ele>35.46</ele>
        <time>2019-07-01T09:45:58Z</time>
      </trkpt>
      <trkpt lat="43.47941" lon="6.88979">
        <ele>35.27</ele>
        <time>2019-07-01T09:46:08Z</time>
      </trkpt>
      <trkpt lat="43.47927" lon="6.88969">
        <ele>34.14</ele>
        <time>2019-07-01T09:46:24Z</time>
      </trkpt>
      <trkpt lat="43.4792" lon="6.88966">
        <ele>33.36</ele>
        <time>2019-07-01T09:46:31Z</time>
      </trkpt>
      <trkpt lat="43.47917" lon="6.88954">
        <ele>33.2</ele>
        <time>2019-07-01T09:46:41Z</time>
      </trkpt>
      <trkpt lat="43.47909" lon="6.88935">
        <ele>32.36</ele>
        <time>2019-07-01T09:46:58Z</time>
      </trkpt>
      <trkpt lat="43.47901" lon="6.88912">
        <ele>30.63</ele>
        <time>2019-07-01T09:47:17Z</time>
      </trkpt>
      <trkpt lat="43.47901" lon="6.8891">
        <ele>30.56</ele>
        <time>2019-07-01T09:47:18Z</time>
      </trkpt>
      <trkpt lat="43.47893" lon="6.88898">
        <ele>29.32</ele>
        <time>2019-07-01T09:47:32Z</time>
      </trkpt>
      <trkpt lat="43.47875" lon="6.88884">
        <ele>26.98</ele>
        <time>2019-07-01T09:47:52Z</time>
      </trkpt>
      <trkpt lat="43.4787" lon="6.8887">
        <ele>26.77</ele>
        <time>2019-07-01T09:48:07Z</time>
      </trkpt>
      <trkpt lat="43.47861" lon="6.88852">
        <ele>27.16</ele>
        <time>2019-07-01T09:48:27Z</time>
      </trkpt>
      <trkpt lat="43.47856" lon="6.88831">
        <ele>27.69</ele>
        <time>2019-07-01T09:48:46Z</time>
      </trkpt>
      <trkpt lat="43.47853" lon="6.88809">
        <ele>27.28</ele>
        <time>2019-07-01T09:49:02Z</time>
      </trkpt>
      <trkpt lat="43.47851" lon="6.88805">
        <ele>26.97</ele>
        <time>2019-07-01T09:49:19Z</time>
      </trkpt>
      <trkpt lat="43.4785" lon="6.888">
        <ele>26.75</ele>
        <time>2019-07-01T09:49:44Z</time>
      </trkpt>
      <trkpt lat="43.47848" lon="6.88799">
        <ele>27.19</ele>
        <time>2019-07-01T09:50:12Z</time>
      </trkpt>
      <trkpt lat="43.47846" lon="6.88804">
        <ele>27.19</ele>
        <time>2019-07-01T09:50:39Z</time>
      </trkpt>
      <trkpt lat="43.47848" lon="6.88805">
        <ele>27.19</ele>
        <time>2019-07-01T09:51:10Z</time>
      </trkpt>
      <trkpt lat="43.47847" lon="6.88798">
        <ele>27.19</ele>
        <time>2019-07-01T09:51:41Z</time>
      </trkpt>
      <trkpt lat="43.47851" lon="6.88799">
        <ele>27.19</ele>
        <time>2019-07-01T09:51:56Z</time>
      </trkpt>
      <trkpt lat="43.47851" lon="6.88799">
        <ele>27.19</ele>
        <time>2019-07-01T09:52:24Z</time>
      </trkpt>
      <trkpt lat="43.47853" lon="6.888">
        <ele>27.19</ele>
        <time>2019-07-01T09:52:33Z</time>
      </trkpt>
      <trkpt lat="43.47856" lon="6.88791">
        <ele>27.19</ele>
        <time>2019-07-01T09:52:53Z</time>
      </trkpt>
      <trkpt lat="43.47867" lon="6.88782">
        <ele>27.19</ele>
        <time>2019-07-01T09:53:07Z</time>
      </trkpt>
      <trkpt lat="43.4787" lon="6.88778">
        <ele>23.86</ele>
        <time>2019-07-01T09:53:10Z</time>
      </trkpt>
      <trkpt lat="43.4787" lon="6.88777">
        <ele>23.72</ele>
        <time>2019-07-01T09:53:11Z</time>
      </trkpt>
      <trkpt lat="43.47869" lon="6.88766">
        <ele>22.3</ele>
        <time>2019-07-01T09:53:33Z</time>
      </trkpt>
      <trkpt lat="43.47874" lon="6.88756">
        <ele>21.74</ele>
        <time>2019-07-01T09:53:52Z</time>
      </trkpt>
      <trkpt lat="43.4788" lon="6.88748">
        <ele>20.46</ele>
        <time>2019-07-01T09:54:10Z</time>
      </trkpt>
      <trkpt lat="43.47888" lon="6.88744">
        <ele>19.03</ele>
        <time>2019-07-01T09:54:31Z</time>
      </trkpt>
      <trkpt lat="43.47889" lon="6.88744">
        <ele>18.95</ele>
        <time>2019-07-01T09:54:52Z</time>
      </trkpt>
      <trkpt lat="43.47888" lon="6.8874">
        <ele>18.99</ele>
        <time>2019-07-01T09:55:18Z</time>
      </trkpt>
      <trkpt lat="43.47885" lon="6.8874">
        <ele>19.06</ele>
        <time>2019-07-01T09:55:45Z</time>
      </trkpt>
      <trkpt lat="43.47888" lon="6.88737">
        <ele>18.95</ele>
        <time>2019-07-01T09:56:11Z</time>
      </trkpt>
      <trkpt lat="43.47886" lon="6.88739">
        <ele>18.98</ele>
        <time>2019-07-01T09:56:41Z</time>
      </trkpt>
      <trkpt lat="43.47886" lon="6.88741">
        <ele>18.98</ele>
        <time>2019-07-01T09:57:04Z</time>
      </trkpt>
      <trkpt lat="43.47884" lon="6.8874">
        <ele>18.98</ele>
        <time>2019-07-01T09:57:35Z</time>
      </trkpt>
      <trkpt lat="43.47882" lon="6.88739">
        <ele>18.98</ele>
        <time>2019-07-01T09:58:03Z</time>
      </trkpt>
      <trkpt lat="43.47888" lon="6.88734">
        <ele>18.98</ele>
        <time>2019-07-01T09:58:22Z</time>
      </trkpt>
      <trkpt lat="43.47888" lon="6.88739">
        <ele>18.98</ele>
        <time>2019-07-01T09:58:44Z</time>
      </trkpt>
      <trkpt lat="43.47896" lon="6.88732">
        <ele>18.97</ele>
        <time>2019-07-01T09:59:09Z</time>
      </trkpt>
      <trkpt lat="43.47893" lon="6.88739">
        <ele>19.03</ele>
        <time>2019-07-01T09:59:43Z</time>
      </trkpt>
      <trkpt lat="43.4789" lon="6.88744">
        <ele>18.8</ele>
        <time>2019-07-01T10:00:14Z</time>
      </trkpt>
      <trkpt lat="43.47888" lon="6.88742">
        <ele>18.8</ele>
        <time>2019-07-01T10:00:47Z</time>
      </trkpt>
      <trkpt lat="43.47888" lon="6.88736">
        <ele>18.8</ele>
        <time>2019-07-01T10:01:16Z</time>
      </trkpt>
      <trkpt lat="43.47888" lon="6.88727">
        <ele>18.8</ele>
        <time>2019-07-01T10:01:48Z</time>
      </trkpt>
      <trkpt lat="43.47883" lon="6.88725">
        <ele>18.8</ele>
        <time>2019-07-01T10:02:18Z</time>
      </trkpt>
      <trkpt lat="43.47886" lon="6.88727">
        <ele>18.8</ele>
        <time>2019-07-01T10:02:49Z</time>
      </trkpt>
      <trkpt lat="43.47896" lon="6.88734">
        <ele>18.8</ele>
        <time>2019-07-01T10:03:21Z</time>
      </trkpt>
      <trkpt lat="43.47895" lon="6.88737">
        <ele>18.8</ele>
        <time>2019-07-01T10:03:49Z</time>
      </trkpt>
      <trkpt lat="43.4789" lon="6.88741">
        <ele>18.8</ele>
        <time>2019-07-01T10:04:19Z</time>
      </trkpt>
      <trkpt lat="43.47886" lon="6.88736">
        <ele>18.8</ele>
        <time>2019-07-01T10:04:43Z</time>
      </trkpt>
      <trkpt lat="43.47888" lon="6.88734">
        <ele>18.8</ele>
        <time>2019-07-01T10:05:15Z</time>
      </trkpt>
      <trkpt lat="43.47889" lon="6.88738">
        <ele>18.8</ele>
        <time>2019-07-01T10:05:45Z</time>
      </trkpt>
      <trkpt lat="43.47888" lon="6.88744">
        <ele>18.8</ele>
        <time>2019-07-01T10:06:19Z</time>
      </trkpt>
      <trkpt lat="43.4789" lon="6.88745">
        <ele>18.8</ele>
        <time>2019-07-01T10:06:50Z</time>
      </trkpt>
      <trkpt lat="43.47891" lon="6.88744">
        <ele>18.8</ele>
        <time>2019-07-01T10:07:17Z</time>
      </trkpt>
      <trkpt lat="43.47889" lon="6.88741">
        <ele>18.8</ele>
        <time>2019-07-01T10:07:47Z</time>
      </trkpt>
      <trkpt lat="43.47889" lon="6.88746">
        <ele>18.8</ele>
        <time>2019-07-01T10:08:16Z</time>
      </trkpt>
      <trkpt lat="43.47891" lon="6.88748">
        <ele>18.8</ele>
        <time>2019-07-01T10:08:43Z</time>
      </trkpt>
      <trkpt lat="43.47889" lon="6.88747">
        <ele>18.8</ele>
        <time>2019-07-01T10:09:17Z</time>
      </trkpt>
      <trkpt lat="43.47891" lon="6.88742">
        <ele>18.8</ele>
        <time>2019-07-01T10:09:48Z</time>
      </trkpt>
      <trkpt lat="43.47897" lon="6.88742">
        <ele>18.8</ele>
        <time>2019-07-01T10:10:14Z</time>
      </trkpt>
      <trkpt lat="43.47888" lon="6.88738">
        <ele>18.95</ele>
        <time>2019-07-01T10:10:30Z</time>
      </trkpt>
      <trkpt lat="43.47889" lon="6.88737">
        <ele>18.95</ele>
        <time>2019-07-01T10:10:59Z</time>
      </trkpt>
      <trkpt lat="43.47886" lon="6.8874">
        <ele>18.86</ele>
        <time>2019-07-01T10:11:26Z</time>
      </trkpt>
      <trkpt lat="43.47883" lon="6.88741">
        <ele>18.93</ele>
        <time>2019-07-01T10:11:52Z</time>
      </trkpt>
      <trkpt lat="43.47884" lon="6.88743">
        <ele>18.93</ele>
        <time>2019-07-01T10:12:19Z</time>
      </trkpt>
      <trkpt lat="43.47887" lon="6.88741">
        <ele>18.93</ele>
        <time>2019-07-01T10:12:43Z</time>
      </trkpt>
      <trkpt lat="43.47887" lon="6.88742">
        <ele>18.93</ele>
        <time>2019-07-01T10:13:12Z</time>
      </trkpt>
      <trkpt lat="43.4789" lon="6.88739">
        <ele>18.93</ele>
        <time>2019-07-01T10:13:47Z</time>
      </trkpt>
      <trkpt lat="43.47892" lon="6.88742">
        <ele>18.93</ele>
        <time>2019-07-01T10:14:13Z</time>
      </trkpt>
      <trkpt lat="43.4789" lon="6.88741">
        <ele>18.93</ele>
        <time>2019-07-01T10:14:27Z</time>
      </trkpt>
      <trkpt lat="43.47889" lon="6.88739">
        <ele>19</ele>
        <time>2019-07-01T10:14:57Z</time>
      </trkpt>
      <trkpt lat="43.47904" lon="6.88732">
        <ele>19.24</ele>
        <time>2019-07-01T10:15:49Z</time>
      </trkpt>
      <trkpt lat="43.47911" lon="6.88743">
        <ele>19.24</ele>
        <time>2019-07-01T10:16:00Z</time>
      </trkpt>
      <trkpt lat="43.47918" lon="6.88749">
        <ele>20.25</ele>
        <time>2019-07-01T10:16:12Z</time>
      </trkpt>
      <trkpt lat="43.47909" lon="6.88745">
        <ele>20.6</ele>
        <time>2019-07-01T10:16:34Z</time>
      </trkpt>
      <trkpt lat="43.47895" lon="6.8874">
        <ele>20.03</ele>
        <time>2019-07-01T10:16:52Z</time>
      </trkpt>
      <trkpt lat="43.4789" lon="6.88742">
        <ele>19.5</ele>
        <time>2019-07-01T10:17:14Z</time>
      </trkpt>
      <trkpt lat="43.47888" lon="6.88741">
        <ele>19.59</ele>
        <time>2019-07-01T10:17:51Z</time>
      </trkpt>
      <trkpt lat="43.47885" lon="6.88739">
        <ele>19.54</ele>
        <time>2019-07-01T10:18:19Z</time>
      </trkpt>
      <trkpt lat="43.47887" lon="6.88739">
        <ele>19.54</ele>
        <time>2019-07-01T10:18:44Z</time>
      </trkpt>
      <trkpt lat="43.47884" lon="6.88734">
        <ele>19.54</ele>
        <time>2019-07-01T10:19:15Z</time>
      </trkpt>
      <trkpt lat="43.47884" lon="6.88731">
        <ele>19.54</ele>
        <time>2019-07-01T10:19:24Z</time>
      </trkpt>
      <trkpt lat="43.47886" lon="6.88733">
        <ele>19.54</ele>
        <time>2019-07-01T10:19:30Z</time>
      </trkpt>
      <trkpt lat="43.47887" lon="6.88735">
        <ele>19.61</ele>
        <time>2019-07-01T10:19:33Z</time>
      </trkpt>
      <trkpt lat="43.47892" lon="6.88739">
        <ele>19.83</ele>
        <time>2019-07-01T10:20:12Z</time>
      </trkpt>
      <trkpt lat="43.47889" lon="6.88737">
        <ele>20.05</ele>
        <time>2019-07-01T10:20:40Z</time>
      </trkpt>
      <trkpt lat="43.47888" lon="6.88727">
        <ele>19.97</ele>
        <time>2019-07-01T10:20:56Z</time>
      </trkpt>
      <trkpt lat="43.47884" lon="6.88719">
        <ele>19.81</ele>
        <time>2019-07-01T10:21:28Z</time>
      </trkpt>
      <trkpt lat="43.47885" lon="6.88722">
        <ele>19.76</ele>
        <time>2019-07-01T10:21:57Z</time>
      </trkpt>
      <trkpt lat="43.47885" lon="6.88729">
        <ele>19.96</ele>
        <time>2019-07-01T10:22:13Z</time>
      </trkpt>
      <trkpt lat="43.47883" lon="6.88719">
        <ele>19.82</ele>
        <time>2019-07-01T10:22:57Z</time>
      </trkpt>
      <trkpt lat="43.4789" lon="6.88734">
        <ele>19.89</ele>
        <time>2019-07-01T10:23:31Z</time>
      </trkpt>
      <trkpt lat="43.4789" lon="6.88741">
        <ele>19.89</ele>
        <time>2019-07-01T10:23:53Z</time>
      </trkpt>
      <trkpt lat="43.47892" lon="6.88743">
        <ele>19.89</ele>
        <time>2019-07-01T10:24:15Z</time>
      </trkpt>
      <trkpt lat="43.47898" lon="6.88744">
        <ele>19.89</ele>
        <time>2019-07-01T10:24:39Z</time>
      </trkpt>
      <trkpt lat="43.47889" lon="6.88742">
        <ele>19.89</ele>
        <time>2019-07-01T10:25:00Z</time>
      </trkpt>
      <trkpt lat="43.4789" lon="6.88743">
        <ele>19.89</ele>
        <time>2019-07-01T10:25:27Z</time>
      </trkpt>
      <trkpt lat="43.47886" lon="6.88739">
        <ele>19.89</ele>
        <time>2019-07-01T10:25:54Z</time>
      </trkpt>
      <trkpt lat="43.47886" lon="6.88739">
        <ele>20.59</ele>
        <time>2019-07-01T10:26:21Z</time>
      </trkpt>
      <trkpt lat="43.47886" lon="6.88735">
        <ele>20.72</ele>
        <time>2019-07-01T10:26:50Z</time>
      </trkpt>
      <trkpt lat="43.47887" lon="6.88738">
        <ele>20.61</ele>
        <time>2019-07-01T10:27:18Z</time>
      </trkpt>
      <trkpt lat="43.47897" lon="6.8874">
        <ele>20.61</ele>
        <time>2019-07-01T10:27:41Z</time>
      </trkpt>
      <trkpt lat="43.47907" lon="6.88748">
        <ele>20.61</ele>
        <time>2019-07-01T10:27:56Z</time>
      </trkpt>
      <trkpt lat="43.47913" lon="6.8875">
        <ele>20.61</ele>
        <time>2019-07-01T10:28:16Z</time>
      </trkpt>
      <trkpt lat="43.47914" lon="6.88749">
        <ele>20.61</ele>
        <time>2019-07-01T10:28:47Z</time>
      </trkpt>
      <trkpt lat="43.47918" lon="6.88749">
        <ele>20.61</ele>
        <time>2019-07-01T10:29:10Z</time>
      </trkpt>
      <trkpt lat="43.47916" lon="6.88745">
        <ele>20.61</ele>
        <time>2019-07-01T10:29:43Z</time>
      </trkpt>
      <trkpt lat="43.47904" lon="6.8874">
        <ele>20.21</ele>
        <time>2019-07-01T10:29:55Z</time>
      </trkpt>
      <trkpt lat="43.47896" lon="6.88729">
        <ele>19.19</ele>
        <time>2019-07-01T10:30:10Z</time>
      </trkpt>
      <trkpt lat="43.47899" lon="6.88723">
        <ele>17.91</ele>
        <time>2019-07-01T10:30:24Z</time>
      </trkpt>
      <trkpt lat="43.4791" lon="6.8872">
        <ele>20.3</ele>
        <time>2019-07-01T10:30:42Z</time>
      </trkpt>
      <trkpt lat="43.47905" lon="6.88708">
        <ele>21.25</ele>
        <time>2019-07-01T10:30:56Z</time>
      </trkpt>
      <trkpt lat="43.47901" lon="6.88692">
        <ele>21.68</ele>
        <time>2019-07-01T10:31:11Z</time>
      </trkpt>
      <trkpt lat="43.47897" lon="6.88679">
        <ele>21.53</ele>
        <time>2019-07-01T10:31:25Z</time>
      </trkpt>
      <trkpt lat="43.47895" lon="6.88663">
        <ele>21.1</ele>
        <time>2019-07-01T10:31:38Z</time>
      </trkpt>
      <trkpt lat="43.47894" lon="6.8866">
        <ele>21.09</ele>
        <time>2019-07-01T10:31:40Z</time>
      </trkpt>
      <trkpt lat="43.47889" lon="6.88649">
        <ele>20.9</ele>
        <time>2019-07-01T10:31:49Z</time>
      </trkpt>
      <trkpt lat="43.47888" lon="6.88632">
        <ele>21.4</ele>
        <time>2019-07-01T10:32:03Z</time>
      </trkpt>
      <trkpt lat="43.47888" lon="6.88632">
        <ele>21.19</ele>
        <time>2019-07-01T10:32:26Z</time>
      </trkpt>
      <trkpt lat="43.47883" lon="6.88629">
        <ele>21.26</ele>
        <time>2019-07-01T10:32:59Z</time>
      </trkpt>
      <trkpt lat="43.47872" lon="6.88613">
        <ele>19.93</ele>
        <time>2019-07-01T10:33:18Z</time>
      </trkpt>
      <trkpt lat="43.47885" lon="6.88606">
        <ele>18</ele>
        <time>2019-07-01T10:33:34Z</time>
      </trkpt>
      <trkpt lat="43.4789" lon="6.88606">
        <ele>17.99</ele>
        <time>2019-07-01T10:33:39Z</time>
      </trkpt>
      <trkpt lat="43.47895" lon="6.88603">
        <ele>17.46</ele>
        <time>2019-07-01T10:33:56Z</time>
      </trkpt>
      <trkpt lat="43.47896" lon="6.88603">
        <ele>17.46</ele>
        <time>2019-07-01T10:33:57Z</time>
      </trkpt>
      <trkpt lat="43.47907" lon="6.88603">
        <ele>18.38</ele>
        <time>2019-07-01T10:34:14Z</time>
      </trkpt>
      <trkpt lat="43.47913" lon="6.88602">
        <ele>19.05</ele>
        <time>2019-07-01T10:34:27Z</time>
      </trkpt>
      <trkpt lat="43.47918" lon="6.88593">
        <ele>20.97</ele>
        <time>2019-07-01T10:34:41Z</time>
      </trkpt>
      <trkpt lat="43.47924" lon="6.88587">
        <ele>21.92</ele>
        <time>2019-07-01T10:34:49Z</time>
      </trkpt>
      <trkpt lat="43.47928" lon="6.88579">
        <ele>23.89</ele>
        <time>2019-07-01T10:35:03Z</time>
      </trkpt>
      <trkpt lat="43.47927" lon="6.88569">
        <ele>25.47</ele>
        <time>2019-07-01T10:35:22Z</time>
      </trkpt>
      <trkpt lat="43.47927" lon="6.88566">
        <ele>25.41</ele>
        <time>2019-07-01T10:35:45Z</time>
      </trkpt>
      <trkpt lat="43.47924" lon="6.88563">
        <ele>25.33</ele>
        <time>2019-07-01T10:36:15Z</time>
      </trkpt>
      <trkpt lat="43.47904" lon="6.88561">
        <ele>25.33</ele>
        <time>2019-07-01T10:36:38Z</time>
      </trkpt>
      <trkpt lat="43.47892" lon="6.88565">
        <ele>26.36</ele>
        <time>2019-07-01T10:36:50Z</time>
      </trkpt>
      <trkpt lat="43.47881" lon="6.88566">
        <ele>26.64</ele>
        <time>2019-07-01T10:37:02Z</time>
      </trkpt>
      <trkpt lat="43.47867" lon="6.88576">
        <ele>27.54</ele>
        <time>2019-07-01T10:37:17Z</time>
      </trkpt>
      <trkpt lat="43.47852" lon="6.88586">
        <ele>28.77</ele>
        <time>2019-07-01T10:37:36Z</time>
      </trkpt>
      <trkpt lat="43.47848" lon="6.88588">
        <ele>29.1</ele>
        <time>2019-07-01T10:37:40Z</time>
      </trkpt>
      <trkpt lat="43.47826" lon="6.88592">
        <ele>29.98</ele>
        <time>2019-07-01T10:38:00Z</time>
      </trkpt>
      <trkpt lat="43.47817" lon="6.88589">
        <ele>30.45</ele>
        <time>2019-07-01T10:38:08Z</time>
      </trkpt>
      <trkpt lat="43.47813" lon="6.88587">
        <ele>30.64</ele>
        <time>2019-07-01T10:38:11Z</time>
      </trkpt>
      <trkpt lat="43.47797" lon="6.88576">
        <ele>31.36</ele>
        <time>2019-07-01T10:38:27Z</time>
      </trkpt>
      <trkpt lat="43.47785" lon="6.88563">
        <ele>31.32</ele>
        <time>2019-07-01T10:38:42Z</time>
      </trkpt>
      <trkpt lat="43.47784" lon="6.88561">
        <ele>31.33</ele>
        <time>2019-07-01T10:38:43Z</time>
      </trkpt>
      <trkpt lat="43.4777" lon="6.88546">
        <ele>31.98</ele>
        <time>2019-07-01T10:39:00Z</time>
      </trkpt>
      <trkpt lat="43.47758" lon="6.88528">
        <ele>32.58</ele>
        <time>2019-07-01T10:39:18Z</time>
      </trkpt>
      <trkpt lat="43.47757" lon="6.88501">
        <ele>33.12</ele>
        <time>2019-07-01T10:39:37Z</time>
      </trkpt>
      <trkpt lat="43.47753" lon="6.88482">
        <ele>34.6</ele>
        <time>2019-07-01T10:39:56Z</time>
      </trkpt>
      <trkpt lat="43.47751" lon="6.88483">
        <ele>34.57</ele>
        <time>2019-07-01T10:40:26Z</time>
      </trkpt>
      <trkpt lat="43.47744" lon="6.88479">
        <ele>34.26</ele>
        <time>2019-07-01T10:40:49Z</time>
      </trkpt>
      <trkpt lat="43.47739" lon="6.88478">
        <ele>34.17</ele>
        <time>2019-07-01T10:40:54Z</time>
      </trkpt>
      <trkpt lat="43.47715" lon="6.88477">
        <ele>33.39</ele>
        <time>2019-07-01T10:41:16Z</time>
      </trkpt>
      <trkpt lat="43.47715" lon="6.88477">
        <ele>33.35</ele>
        <time>2019-07-01T10:41:17Z</time>
      </trkpt>
      <trkpt lat="43.47711" lon="6.88478">
        <ele>33.29</ele>
        <time>2019-07-01T10:41:20Z</time>
      </trkpt>
      <trkpt lat="43.47696" lon="6.88476">
        <ele>32.84</ele>
        <time>2019-07-01T10:41:33Z</time>
      </trkpt>
      <trkpt lat="43.47677" lon="6.88472">
        <ele>32.4</ele>
        <time>2019-07-01T10:41:48Z</time>
      </trkpt>
      <trkpt lat="43.47659" lon="6.88466">
        <ele>30.83</ele>
        <time>2019-07-01T10:42:08Z</time>
      </trkpt>
      <trkpt lat="43.47656" lon="6.88465">
        <ele>30.57</ele>
        <time>2019-07-01T10:42:10Z</time>
      </trkpt>
      <trkpt lat="43.47642" lon="6.88462">
        <ele>29.59</ele>
        <time>2019-07-01T10:42:21Z</time>
      </trkpt>
      <trkpt lat="43.47627" lon="6.88459">
        <ele>28.85</ele>
        <time>2019-07-01T10:42:33Z</time>
      </trkpt>
      <trkpt lat="43.47611" lon="6.88455">
        <ele>27.93</ele>
        <time>2019-07-01T10:42:49Z</time>
      </trkpt>
      <trkpt lat="43.47594" lon="6.88452">
        <ele>26.46</ele>
        <time>2019-07-01T10:43:05Z</time>
      </trkpt>
      <trkpt lat="43.47577" lon="6.88444">
        <ele>25.65</ele>
        <time>2019-07-01T10:43:23Z</time>
      </trkpt>
      <trkpt lat="43.47572" lon="6.8844">
        <ele>25.51</ele>
        <time>2019-07-01T10:43:28Z</time>
      </trkpt>
      <trkpt lat="43.47556" lon="6.88435">
        <ele>22.35</ele>
        <time>2019-07-01T10:43:44Z</time>
      </trkpt>
      <trkpt lat="43.47551" lon="6.88435">
        <ele>21.56</ele>
        <time>2019-07-01T10:43:50Z</time>
      </trkpt>
      <trkpt lat="43.47544" lon="6.88434">
        <ele>21.18</ele>
        <time>2019-07-01T10:43:55Z</time>
      </trkpt>
      <trkpt lat="43.4753" lon="6.88429">
        <ele>19.11</ele>
        <time>2019-07-01T10:44:08Z</time>
      </trkpt>
      <trkpt lat="43.47526" lon="6.88428">
        <ele>18.5</ele>
        <time>2019-07-01T10:44:11Z</time>
      </trkpt>
      <trkpt lat="43.47514" lon="6.88425">
        <ele>16.75</ele>
        <time>2019-07-01T10:44:21Z</time>
      </trkpt>
      <trkpt lat="43.47498" lon="6.88425">
        <ele>14.61</ele>
        <time>2019-07-01T10:44:33Z</time>
      </trkpt>
      <trkpt lat="43.47481" lon="6.88433">
        <ele>12.26</ele>
        <time>2019-07-01T10:44:50Z</time>
      </trkpt>
      <trkpt lat="43.4748" lon="6.88432">
        <ele>12.2</ele>
        <time>2019-07-01T10:44:51Z</time>
      </trkpt>
      <trkpt lat="43.47471" lon="6.88445">
        <ele>11.53</ele>
        <time>2019-07-01T10:45:10Z</time>
      </trkpt>
      <trkpt lat="43.47472" lon="6.88459">
        <ele>11.32</ele>
        <time>2019-07-01T10:45:31Z</time>
      </trkpt>
      <trkpt lat="43.47472" lon="6.88458">
        <ele>11.14</ele>
        <time>2019-07-01T10:45:37Z</time>
      </trkpt>
      <trkpt lat="43.47467" lon="6.88458">
        <ele>11.49</ele>
        <time>2019-07-01T10:45:57Z</time>
      </trkpt>
      <trkpt lat="43.47469" lon="6.88469">
        <ele>11.49</ele>
        <time>2019-07-01T10:46:09Z</time>
      </trkpt>
      <trkpt lat="43.47468" lon="6.88473">
        <ele>11.49</ele>
        <time>2019-07-01T10:46:12Z</time>
      </trkpt>
      <trkpt lat="43.47464" lon="6.88481">
        <ele>10.06</ele>
        <time>2019-07-01T10:46:30Z</time>
      </trkpt>
      <trkpt lat="43.47454" lon="6.8848">
        <ele>10.45</ele>
        <time>2019-07-01T10:46:53Z</time>
      </trkpt>
      <trkpt lat="43.47448" lon="6.88478">
        <ele>10.47</ele>
        <time>2019-07-01T10:47:09Z</time>
      </trkpt>
      <trkpt lat="43.47445" lon="6.88477">
        <ele>10.18</ele>
        <time>2019-07-01T10:47:14Z</time>
      </trkpt>
      <trkpt lat="43.47446" lon="6.88485">
        <ele>10.55</ele>
        <time>2019-07-01T10:47:36Z</time>
      </trkpt>
      <trkpt lat="43.47435" lon="6.88476">
        <ele>10.91</ele>
        <time>2019-07-01T10:47:58Z</time>
      </trkpt>
      <trkpt lat="43.47423" lon="6.88471">
        <ele>10.72</ele>
        <time>2019-07-01T10:48:12Z</time>
      </trkpt>
      <trkpt lat="43.47414" lon="6.88457">
        <ele>10.62</ele>
        <time>2019-07-01T10:48:28Z</time>
      </trkpt>
      <trkpt lat="43.47412" lon="6.88451">
        <ele>10.37</ele>
        <time>2019-07-01T10:48:34Z</time>
      </trkpt>
      <trkpt lat="43.4741" lon="6.88446">
        <ele>10.31</ele>
        <time>2019-07-01T10:48:38Z</time>
      </trkpt>
      <trkpt lat="43.474" lon="6.88428">
        <ele>9.81</ele>
        <time>2019-07-01T10:48:54Z</time>
      </trkpt>
      <trkpt lat="43.47397" lon="6.88419">
        <ele>9.71</ele>
        <time>2019-07-01T10:49:01Z</time>
      </trkpt>
      <trkpt lat="43.47393" lon="6.8839">
        <ele>9.62</ele>
        <time>2019-07-01T10:49:20Z</time>
      </trkpt>
      <trkpt lat="43.47394" lon="6.88362">
        <ele>8.87</ele>
        <time>2019-07-01T10:49:39Z</time>
      </trkpt>
      <trkpt lat="43.47398" lon="6.88345">
        <ele>8.11</ele>
        <time>2019-07-01T10:49:55Z</time>
      </trkpt>
      <trkpt lat="43.47398" lon="6.88344">
        <ele>8.07</ele>
        <time>2019-07-01T10:49:56Z</time>
      </trkpt>
      <trkpt lat="43.47398" lon="6.88334">
        <ele>7.74</ele>
        <time>2019-07-01T10:50:02Z</time>
      </trkpt>
      <trkpt lat="43.47399" lon="6.883">
        <ele>6.3</ele>
        <time>2019-07-01T10:50:24Z</time>
      </trkpt>
      <trkpt lat="43.474" lon="6.88297">
        <ele>6.16</ele>
        <time>2019-07-01T10:50:26Z</time>
      </trkpt>
      <trkpt lat="43.474" lon="6.88271">
        <ele>5.15</ele>
        <time>2019-07-01T10:50:44Z</time>
      </trkpt>
      <trkpt lat="43.47403" lon="6.88245">
        <ele>4.36</ele>
        <time>2019-07-01T10:51:01Z</time>
      </trkpt>
      <trkpt lat="43.47403" lon="6.8823">
        <ele>4.2</ele>
        <time>2019-07-01T10:51:11Z</time>
      </trkpt>
      <trkpt lat="43.47393" lon="6.88215">
        <ele>3.37</ele>
        <time>2019-07-01T10:51:23Z</time>
      </trkpt>
      <trkpt lat="43.47389" lon="6.88204">
        <ele>2.44</ele>
        <time>2019-07-01T10:51:37Z</time>
      </trkpt>
      <trkpt lat="43.47387" lon="6.88206">
        <ele>2.58</ele>
        <time>2019-07-01T10:51:57Z</time>
      </trkpt>
      <trkpt lat="43.47385" lon="6.88204">
        <ele>2.25</ele>
        <time>2019-07-01T10:52:18Z</time>
      </trkpt>
      <trkpt lat="43.47389" lon="6.88205">
        <ele>2.09</ele>
        <time>2019-07-01T10:52:51Z</time>
      </trkpt>
      <trkpt lat="43.47377" lon="6.88198">
        <ele>2.09</ele>
        <time>2019-07-01T10:53:14Z</time>
      </trkpt>
      <trkpt lat="43.47374" lon="6.8818">
        <ele>3.84</ele>
        <time>2019-07-01T10:53:33Z</time>
      </trkpt>
      <trkpt lat="43.47377" lon="6.88177">
        <ele>4.56</ele>
        <time>2019-07-01T10:53:53Z</time>
      </trkpt>
      <trkpt lat="43.47374" lon="6.8818">
        <ele>5</ele>
        <time>2019-07-01T10:54:20Z</time>
      </trkpt>
      <trkpt lat="43.47374" lon="6.88174">
        <ele>4.94</ele>
        <time>2019-07-01T10:54:52Z</time>
      </trkpt>
      <trkpt lat="43.47372" lon="6.88176">
        <ele>4.94</ele>
        <time>2019-07-01T10:55:18Z</time>
      </trkpt>
      <trkpt lat="43.47372" lon="6.88181">
        <ele>4.94</ele>
        <time>2019-07-01T10:55:51Z</time>
      </trkpt>
      <trkpt lat="43.47371" lon="6.88177">
        <ele>4.94</ele>
        <time>2019-07-01T10:55:54Z</time>
      </trkpt>
      <trkpt lat="43.47366" lon="6.88178">
        <ele>4.94</ele>
        <time>2019-07-01T10:56:20Z</time>
      </trkpt>
      <trkpt lat="43.47367" lon="6.88195">
        <ele>4.94</ele>
        <time>2019-07-01T10:56:40Z</time>
      </trkpt>
      <trkpt lat="43.47365" lon="6.88202">
        <ele>6.26</ele>
        <time>2019-07-01T10:56:47Z</time>
      </trkpt>
      <trkpt lat="43.47368" lon="6.88213">
        <ele>6.77</ele>
        <time>2019-07-01T10:56:59Z</time>
      </trkpt>
      <trkpt lat="43.4737" lon="6.88222">
        <ele>6.85</ele>
        <time>2019-07-01T10:57:07Z</time>
      </trkpt>
      <trkpt lat="43.47372" lon="6.88231">
        <ele>7.03</ele>
        <time>2019-07-01T10:57:22Z</time>
      </trkpt>
      <trkpt lat="43.47371" lon="6.88244">
        <ele>7.02</ele>
        <time>2019-07-01T10:57:48Z</time>
      </trkpt>
      <trkpt lat="43.4737" lon="6.88247">
        <ele>7.03</ele>
        <time>2019-07-01T10:57:50Z</time>
      </trkpt>
      <trkpt lat="43.47367" lon="6.88262">
        <ele>7.16</ele>
        <time>2019-07-01T10:58:01Z</time>
      </trkpt>
      <trkpt lat="43.47361" lon="6.88289">
        <ele>7.15</ele>
        <time>2019-07-01T10:58:24Z</time>
      </trkpt>
      <trkpt lat="43.47358" lon="6.88306">
        <ele>7.47</ele>
        <time>2019-07-01T10:58:37Z</time>
      </trkpt>
      <trkpt lat="43.47356" lon="6.88322">
        <ele>7.31</ele>
        <time>2019-07-01T10:58:48Z</time>
      </trkpt>
      <trkpt lat="43.47356" lon="6.88346">
        <ele>7.57</ele>
        <time>2019-07-01T10:59:04Z</time>
      </trkpt>
      <trkpt lat="43.47353" lon="6.88374">
        <ele>7.8</ele>
        <time>2019-07-01T10:59:23Z</time>
      </trkpt>
      <trkpt lat="43.47346" lon="6.88398">
        <ele>7.81</ele>
        <time>2019-07-01T10:59:43Z</time>
      </trkpt>
      <trkpt lat="43.4734" lon="6.88411">
        <ele>8.04</ele>
        <time>2019-07-01T10:59:55Z</time>
      </trkpt>
      <trkpt lat="43.47337" lon="6.88417">
        <ele>8.1</ele>
        <time>2019-07-01T10:59:59Z</time>
      </trkpt>
      <trkpt lat="43.47317" lon="6.88425">
        <ele>9.89</ele>
        <time>2019-07-01T11:00:19Z</time>
      </trkpt>
      <trkpt lat="43.47305" lon="6.88435">
        <ele>11.48</ele>
        <time>2019-07-01T11:00:38Z</time>
      </trkpt>
      <trkpt lat="43.47293" lon="6.88445">
        <ele>12.33</ele>
        <time>2019-07-01T11:00:56Z</time>
      </trkpt>
      <trkpt lat="43.47291" lon="6.88453">
        <ele>12.9</ele>
        <time>2019-07-01T11:01:13Z</time>
      </trkpt>
      <trkpt lat="43.47278" lon="6.88467">
        <ele>14.42</ele>
        <time>2019-07-01T11:01:33Z</time>
      </trkpt>
      <trkpt lat="43.47259" lon="6.88478">
        <ele>16.11</ele>
        <time>2019-07-01T11:01:55Z</time>
      </trkpt>
      <trkpt lat="43.47248" lon="6.88497">
        <ele>17.97</ele>
        <time>2019-07-01T11:02:17Z</time>
      </trkpt>
      <trkpt lat="43.47234" lon="6.88517">
        <ele>19.4</ele>
        <time>2019-07-01T11:02:40Z</time>
      </trkpt>
      <trkpt lat="43.4723" lon="6.88543">
        <ele>21.11</ele>
        <time>2019-07-01T11:03:01Z</time>
      </trkpt>
      <trkpt lat="43.47214" lon="6.8856">
        <ele>22.67</ele>
        <time>2019-07-01T11:03:24Z</time>
      </trkpt>
      <trkpt lat="43.47213" lon="6.88562">
        <ele>23</ele>
        <time>2019-07-01T11:03:26Z</time>
      </trkpt>
      <trkpt lat="43.4721" lon="6.88574">
        <ele>23.95</ele>
        <time>2019-07-01T11:03:36Z</time>
      </trkpt>
      <trkpt lat="43.472" lon="6.8859">
        <ele>25.42</ele>
        <time>2019-07-01T11:03:54Z</time>
      </trkpt>
      <trkpt lat="43.47191" lon="6.88615">
        <ele>26.61</ele>
        <time>2019-07-01T11:04:16Z</time>
      </trkpt>
      <trkpt lat="43.4719" lon="6.88619">
        <ele>26.93</ele>
        <time>2019-07-01T11:04:20Z</time>
      </trkpt>
      <trkpt lat="43.47185" lon="6.88635">
        <ele>28.65</ele>
        <time>2019-07-01T11:04:36Z</time>
      </trkpt>
      <trkpt lat="43.47183" lon="6.8865">
        <ele>30.11</ele>
        <time>2019-07-01T11:04:49Z</time>
      </trkpt>
      <trkpt lat="43.47171" lon="6.88656">
        <ele>31.41</ele>
        <time>2019-07-01T11:05:01Z</time>
      </trkpt>
      <trkpt lat="43.4717" lon="6.88657">
        <ele>31.49</ele>
        <time>2019-07-01T11:05:02Z</time>
      </trkpt>
      <trkpt lat="43.47163" lon="6.88668">
        <ele>32.34</ele>
        <time>2019-07-01T11:05:16Z</time>
      </trkpt>
      <trkpt lat="43.47152" lon="6.88682">
        <ele>33.33</ele>
        <time>2019-07-01T11:05:30Z</time>
      </trkpt>
      <trkpt lat="43.47145" lon="6.88692">
        <ele>34.15</ele>
        <time>2019-07-01T11:05:40Z</time>
      </trkpt>
      <trkpt lat="43.47139" lon="6.88708">
        <ele>35.46</ele>
        <time>2019-07-01T11:05:56Z</time>
      </trkpt>
      <trkpt lat="43.47132" lon="6.8872">
        <ele>36.82</ele>
        <time>2019-07-01T11:06:09Z</time>
      </trkpt>
      <trkpt lat="43.47129" lon="6.88727">
        <ele>38.03</ele>
        <time>2019-07-01T11:06:18Z</time>
      </trkpt>
      <trkpt lat="43.47132" lon="6.88728">
        <ele>38.53</ele>
        <time>2019-07-01T11:06:37Z</time>
      </trkpt>
      <trkpt lat="43.47134" lon="6.88728">
        <ele>38.51</ele>
        <time>2019-07-01T11:06:41Z</time>
      </trkpt>
      <trkpt lat="43.47138" lon="6.8873">
        <ele>38.52</ele>
        <time>2019-07-01T11:06:46Z</time>
      </trkpt>
      <trkpt lat="43.47141" lon="6.88731">
        <ele>38.52</ele>
        <time>2019-07-01T11:06:50Z</time>
      </trkpt>
      <trkpt lat="43.4715" lon="6.8873">
        <ele>38.42</ele>
        <time>2019-07-01T11:07:15Z</time>
      </trkpt>
      <trkpt lat="43.47132" lon="6.88731">
        <ele>38.49</ele>
        <time>2019-07-01T11:07:32Z</time>
      </trkpt>
      <trkpt lat="43.47128" lon="6.88729">
        <ele>38.43</ele>
        <time>2019-07-01T11:07:50Z</time>
      </trkpt>
      <trkpt lat="43.47129" lon="6.88725">
        <ele>38.12</ele>
        <time>2019-07-01T11:08:01Z</time>
      </trkpt>
      <trkpt lat="43.47124" lon="6.88723">
        <ele>38.04</ele>
        <time>2019-07-01T11:08:06Z</time>
      </trkpt>
      <trkpt lat="43.47115" lon="6.88725">
        <ele>38.38</ele>
        <time>2019-07-01T11:08:32Z</time>
      </trkpt>
      <trkpt lat="43.47117" lon="6.88722">
        <ele>38.88</ele>
        <time>2019-07-01T11:08:58Z</time>
      </trkpt>
      <trkpt lat="43.47128" lon="6.88722">
        <ele>38.66</ele>
        <time>2019-07-01T11:09:15Z</time>
      </trkpt>
      <trkpt lat="43.47138" lon="6.88716">
        <ele>38.02</ele>
        <time>2019-07-01T11:09:24Z</time>
      </trkpt>
      <trkpt lat="43.47141" lon="6.88713">
        <ele>37.75</ele>
        <time>2019-07-01T11:09:27Z</time>
      </trkpt>
      <trkpt lat="43.47151" lon="6.88707">
        <ele>36.58</ele>
        <time>2019-07-01T11:09:36Z</time>
      </trkpt>
      <trkpt lat="43.47156" lon="6.8869">
        <ele>35.49</ele>
        <time>2019-07-01T11:09:47Z</time>
      </trkpt>
      <trkpt lat="43.47166" lon="6.88679">
        <ele>34.24</ele>
        <time>2019-07-01T11:09:59Z</time>
      </trkpt>
      <trkpt lat="43.4717" lon="6.88666">
        <ele>33.37</ele>
        <time>2019-07-01T11:10:10Z</time>
      </trkpt>
      <trkpt lat="43.47175" lon="6.8866">
        <ele>32.93</ele>
        <time>2019-07-01T11:10:19Z</time>
      </trkpt>
      <trkpt lat="43.47186" lon="6.88642">
        <ele>30.92</ele>
        <time>2019-07-01T11:10:39Z</time>
      </trkpt>
      <trkpt lat="43.47189" lon="6.88633">
        <ele>29.97</ele>
        <time>2019-07-01T11:10:46Z</time>
      </trkpt>
      <trkpt lat="43.47193" lon="6.88613">
        <ele>27.89</ele>
        <time>2019-07-01T11:11:03Z</time>
      </trkpt>
      <trkpt lat="43.47202" lon="6.88589">
        <ele>26.33</ele>
        <time>2019-07-01T11:11:22Z</time>
      </trkpt>
      <trkpt lat="43.47211" lon="6.88576">
        <ele>25.3</ele>
        <time>2019-07-01T11:11:36Z</time>
      </trkpt>
      <trkpt lat="43.47211" lon="6.88559">
        <ele>24.3</ele>
        <time>2019-07-01T11:11:48Z</time>
      </trkpt>
      <trkpt lat="43.47219" lon="6.88545">
        <ele>22.81</ele>
        <time>2019-07-01T11:12:05Z</time>
      </trkpt>
      <trkpt lat="43.47226" lon="6.88527">
        <ele>21.18</ele>
        <time>2019-07-01T11:12:29Z</time>
      </trkpt>
      <trkpt lat="43.47232" lon="6.88507">
        <ele>20.01</ele>
        <time>2019-07-01T11:12:44Z</time>
      </trkpt>
      <trkpt lat="43.47252" lon="6.88493">
        <ele>18.49</ele>
        <time>2019-07-01T11:13:07Z</time>
      </trkpt>
      <trkpt lat="43.47271" lon="6.88477">
        <ele>16.55</ele>
        <time>2019-07-01T11:13:27Z</time>
      </trkpt>
      <trkpt lat="43.47294" lon="6.88462">
        <ele>15.18</ele>
        <time>2019-07-01T11:13:46Z</time>
      </trkpt>
      <trkpt lat="43.47298" lon="6.8846">
        <ele>14.91</ele>
        <time>2019-07-01T11:13:49Z</time>
      </trkpt>
      <trkpt lat="43.47312" lon="6.88445">
        <ele>13.63</ele>
        <time>2019-07-01T11:14:07Z</time>
      </trkpt>
      <trkpt lat="43.47318" lon="6.88436">
        <ele>12.54</ele>
        <time>2019-07-01T11:14:22Z</time>
      </trkpt>
      <trkpt lat="43.47327" lon="6.88428">
        <ele>10.52</ele>
        <time>2019-07-01T11:14:42Z</time>
      </trkpt>
      <trkpt lat="43.47333" lon="6.88432">
        <ele>9.4</ele>
        <time>2019-07-01T11:14:59Z</time>
      </trkpt>
      <trkpt lat="43.47322" lon="6.88445">
        <ele>7.57</ele>
        <time>2019-07-01T11:15:19Z</time>
      </trkpt>
      <trkpt lat="43.47313" lon="6.88451">
        <ele>6.73</ele>
        <time>2019-07-01T11:15:33Z</time>
      </trkpt>
      <trkpt lat="43.473" lon="6.8845">
        <ele>7.66</ele>
        <time>2019-07-01T11:15:47Z</time>
      </trkpt>
      <trkpt lat="43.47298" lon="6.88451">
        <ele>7.91</ele>
        <time>2019-07-01T11:15:49Z</time>
      </trkpt>
      <trkpt lat="43.47299" lon="6.88465">
        <ele>10.39</ele>
        <time>2019-07-01T11:16:07Z</time>
      </trkpt>
      <trkpt lat="43.47299" lon="6.88474">
        <ele>11.8</ele>
        <time>2019-07-01T11:16:16Z</time>
      </trkpt>
      <trkpt lat="43.47297" lon="6.88488">
        <ele>13.64</ele>
        <time>2019-07-01T11:16:29Z</time>
      </trkpt>
      <trkpt lat="43.47292" lon="6.88505">
        <ele>15.42</ele>
        <time>2019-07-01T11:16:42Z</time>
      </trkpt>
      <trkpt lat="43.47292" lon="6.88507">
        <ele>15.5</ele>
        <time>2019-07-01T11:16:43Z</time>
      </trkpt>
      <trkpt lat="43.47286" lon="6.88525">
        <ele>17.07</ele>
        <time>2019-07-01T11:16:57Z</time>
      </trkpt>
      <trkpt lat="43.47284" lon="6.8853">
        <ele>17.68</ele>
        <time>2019-07-01T11:17:02Z</time>
      </trkpt>
      <trkpt lat="43.47278" lon="6.88536">
        <ele>19.04</ele>
        <time>2019-07-01T11:17:12Z</time>
      </trkpt>
      <trkpt lat="43.47272" lon="6.88543">
        <ele>20.49</ele>
        <time>2019-07-01T11:17:25Z</time>
      </trkpt>
      <trkpt lat="43.47269" lon="6.88553">
        <ele>21.7</ele>
        <time>2019-07-01T11:17:35Z</time>
      </trkpt>
      <trkpt lat="43.47269" lon="6.88555">
        <ele>21.67</ele>
        <time>2019-07-01T11:17:36Z</time>
      </trkpt>
      <trkpt lat="43.47283" lon="6.88569">
        <ele>21.87</ele>
        <time>2019-07-01T11:17:48Z</time>
      </trkpt>
      <trkpt lat="43.47291" lon="6.88577">
        <ele>22.26</ele>
        <time>2019-07-01T11:17:59Z</time>
      </trkpt>
      <trkpt lat="43.47288" lon="6.88581">
        <ele>22.99</ele>
        <time>2019-07-01T11:19:15Z</time>
      </trkpt>
      <trkpt lat="43.47292" lon="6.88577">
        <ele>22.99</ele>
        <time>2019-07-01T11:19:49Z</time>
      </trkpt>
      <trkpt lat="43.47292" lon="6.88577">
        <ele>22.99</ele>
        <time>2019-07-01T11:19:50Z</time>
      </trkpt>
      <trkpt lat="43.4729" lon="6.88577">
        <ele>22.99</ele>
        <time>2019-07-01T11:20:32Z</time>
      </trkpt>
      <trkpt lat="43.47285" lon="6.88577">
        <ele>23.56</ele>
        <time>2019-07-01T11:21:18Z</time>
      </trkpt>
      <trkpt lat="43.47285" lon="6.88577">
        <ele>23.43</ele>
        <time>2019-07-01T11:21:47Z</time>
      </trkpt>
      <trkpt lat="43.47287" lon="6.8858">
        <ele>23.43</ele>
        <time>2019-07-01T11:22:23Z</time>
      </trkpt>
      <trkpt lat="43.47301" lon="6.88603">
        <ele>24.25</ele>
        <time>2019-07-01T11:22:46Z</time>
      </trkpt>
      <trkpt lat="43.47302" lon="6.8863">
        <ele>24.75</ele>
        <time>2019-07-01T11:23:02Z</time>
      </trkpt>
      <trkpt lat="43.4731" lon="6.88647">
        <ele>25.24</ele>
        <time>2019-07-01T11:23:16Z</time>
      </trkpt>
      <trkpt lat="43.47316" lon="6.88658">
        <ele>25.7</ele>
        <time>2019-07-01T11:23:27Z</time>
      </trkpt>
      <trkpt lat="43.47324" lon="6.88675">
        <ele>26.37</ele>
        <time>2019-07-01T11:23:41Z</time>
      </trkpt>
      <trkpt lat="43.47331" lon="6.88692">
        <ele>27.32</ele>
        <time>2019-07-01T11:23:56Z</time>
      </trkpt>
      <trkpt lat="43.47335" lon="6.88706">
        <ele>27.81</ele>
        <time>2019-07-01T11:24:09Z</time>
      </trkpt>
      <trkpt lat="43.47341" lon="6.88716">
        <ele>28.37</ele>
        <time>2019-07-01T11:24:17Z</time>
      </trkpt>
      <trkpt lat="43.47345" lon="6.88725">
        <ele>28.15</ele>
        <time>2019-07-01T11:24:26Z</time>
      </trkpt>
      <trkpt lat="43.47348" lon="6.88738">
        <ele>27.67</ele>
        <time>2019-07-01T11:24:37Z</time>
      </trkpt>
      <trkpt lat="43.47352" lon="6.88751">
        <ele>28.75</ele>
        <time>2019-07-01T11:24:49Z</time>
      </trkpt>
      <trkpt lat="43.47355" lon="6.8876">
        <ele>30.09</ele>
        <time>2019-07-01T11:25:00Z</time>
      </trkpt>
      <trkpt lat="43.47357" lon="6.88774">
        <ele>31.92</ele>
        <time>2019-07-01T11:25:15Z</time>
      </trkpt>
      <trkpt lat="43.47358" lon="6.88788">
        <ele>33.59</ele>
        <time>2019-07-01T11:25:28Z</time>
      </trkpt>
      <trkpt lat="43.47359" lon="6.88792">
        <ele>34.07</ele>
        <time>2019-07-01T11:25:32Z</time>
      </trkpt>
      <trkpt lat="43.47355" lon="6.88817">
        <ele>37.2</ele>
        <time>2019-07-01T11:25:57Z</time>
      </trkpt>
      <trkpt lat="43.47354" lon="6.88823">
        <ele>37.79</ele>
        <time>2019-07-01T11:26:06Z</time>
      </trkpt>
      <trkpt lat="43.47356" lon="6.88834">
        <ele>38.49</ele>
        <time>2019-07-01T11:26:15Z</time>
      </trkpt>
      <trkpt lat="43.47369" lon="6.88854">
        <ele>41.61</ele>
        <time>2019-07-01T11:26:40Z</time>
      </trkpt>
      <trkpt lat="43.47378" lon="6.88857">
        <ele>42.57</ele>
        <time>2019-07-01T11:26:49Z</time>
      </trkpt>
      <trkpt lat="43.47386" lon="6.88863">
        <ele>43.53</ele>
        <time>2019-07-01T11:26:58Z</time>
      </trkpt>
      <trkpt lat="43.47392" lon="6.88868">
        <ele>44.84</ele>
        <time>2019-07-01T11:27:09Z</time>
      </trkpt>
      <trkpt lat="43.47396" lon="6.88871">
        <ele>45.72</ele>
        <time>2019-07-01T11:27:14Z</time>
      </trkpt>
      <trkpt lat="43.47406" lon="6.88881">
        <ele>47.79</ele>
        <time>2019-07-01T11:27:31Z</time>
      </trkpt>
      <trkpt lat="43.47407" lon="6.88884">
        <ele>48.22</ele>
        <time>2019-07-01T11:27:34Z</time>
      </trkpt>
      <trkpt lat="43.47407" lon="6.88887">
        <ele>48.36</ele>
        <time>2019-07-01T11:27:36Z</time>
      </trkpt>
      <trkpt lat="43.47408" lon="6.88892">
        <ele>48.49</ele>
        <time>2019-07-01T11:27:40Z</time>
      </trkpt>
      <trkpt lat="43.4741" lon="6.88894">
        <ele>48.52</ele>
        <time>2019-07-01T11:27:42Z</time>
      </trkpt>
      <trkpt lat="43.47415" lon="6.88905">
        <ele>49.08</ele>
        <time>2019-07-01T11:27:52Z</time>
      </trkpt>
      <trkpt lat="43.47419" lon="6.8891">
        <ele>49.62</ele>
        <time>2019-07-01T11:27:57Z</time>
      </trkpt>
      <trkpt lat="43.47426" lon="6.88922">
        <ele>51.19</ele>
        <time>2019-07-01T11:28:10Z</time>
      </trkpt>
      <trkpt lat="43.47431" lon="6.88932">
        <ele>52.19</ele>
        <time>2019-07-01T11:28:21Z</time>
      </trkpt>
      <trkpt lat="43.47436" lon="6.88948">
        <ele>53.22</ele>
        <time>2019-07-01T11:28:38Z</time>
      </trkpt>
      <trkpt lat="43.47442" lon="6.88975">
        <ele>56.32</ele>
        <time>2019-07-01T11:29:04Z</time>
      </trkpt>
      <trkpt lat="43.47446" lon="6.88982">
        <ele>57.19</ele>
        <time>2019-07-01T11:29:13Z</time>
      </trkpt>
      <trkpt lat="43.47445" lon="6.88992">
        <ele>58.87</ele>
        <time>2019-07-01T11:29:26Z</time>
      </trkpt>
      <trkpt lat="43.47447" lon="6.89002">
        <ele>60.99</ele>
        <time>2019-07-01T11:29:44Z</time>
      </trkpt>
      <trkpt lat="43.47459" lon="6.89026">
        <ele>60.81</ele>
        <time>2019-07-01T11:30:09Z</time>
      </trkpt>
      <trkpt lat="43.47455" lon="6.89024">
        <ele>63.57</ele>
        <time>2019-07-01T11:30:24Z</time>
      </trkpt>
      <trkpt lat="43.47455" lon="6.89014">
        <ele>66.82</ele>
        <time>2019-07-01T11:30:50Z</time>
      </trkpt>
      <trkpt lat="43.47455" lon="6.8901">
        <ele>68.81</ele>
        <time>2019-07-01T11:31:02Z</time>
      </trkpt>
      <trkpt lat="43.47449" lon="6.89005">
        <ele>70.97</ele>
        <time>2019-07-01T11:31:20Z</time>
      </trkpt>
      <trkpt lat="43.47457" lon="6.89007">
        <ele>71.59</ele>
        <time>2019-07-01T11:31:55Z</time>
      </trkpt>
      <trkpt lat="43.47456" lon="6.89013">
        <ele>71.86</ele>
        <time>2019-07-01T11:32:02Z</time>
      </trkpt>
      <trkpt lat="43.47449" lon="6.89026">
        <ele>72.86</ele>
        <time>2019-07-01T11:32:16Z</time>
      </trkpt>
      <trkpt lat="43.47454" lon="6.89039">
        <ele>74.43</ele>
        <time>2019-07-01T11:32:31Z</time>
      </trkpt>
      <trkpt lat="43.47441" lon="6.89054">
        <ele>77.1</ele>
        <time>2019-07-01T11:33:17Z</time>
      </trkpt>
      <trkpt lat="43.47442" lon="6.89058">
        <ele>76.99</ele>
        <time>2019-07-01T11:33:44Z</time>
      </trkpt>
      <trkpt lat="43.47441" lon="6.89057">
        <ele>76.98</ele>
        <time>2019-07-01T11:33:48Z</time>
      </trkpt>
      <trkpt lat="43.47442" lon="6.89055">
        <ele>76.95</ele>
        <time>2019-07-01T11:34:35Z</time>
      </trkpt>
      <trkpt lat="43.4744" lon="6.89058">
        <ele>76.95</ele>
        <time>2019-07-01T11:34:58Z</time>
      </trkpt>
      <trkpt lat="43.47448" lon="6.89058">
        <ele>76.95</ele>
        <time>2019-07-01T11:35:30Z</time>
      </trkpt>
      <trkpt lat="43.47438" lon="6.8905">
        <ele>77.28</ele>
        <time>2019-07-01T11:36:10Z</time>
      </trkpt>
      <trkpt lat="43.47443" lon="6.89061">
        <ele>77.08</ele>
        <time>2019-07-01T11:36:40Z</time>
      </trkpt>
      <trkpt lat="43.47453" lon="6.89066">
        <ele>77.24</ele>
        <time>2019-07-01T11:37:00Z</time>
      </trkpt>
      <trkpt lat="43.47457" lon="6.89064">
        <ele>77.24</ele>
        <time>2019-07-01T11:37:05Z</time>
      </trkpt>
      <trkpt lat="43.4747" lon="6.89042">
        <ele>77.05</ele>
        <time>2019-07-01T11:37:52Z</time>
      </trkpt>
      <trkpt lat="43.4747" lon="6.89048">
        <ele>77.61</ele>
        <time>2019-07-01T11:38:13Z</time>
      </trkpt>
      <trkpt lat="43.47464" lon="6.89051">
        <ele>78.44</ele>
        <time>2019-07-01T11:38:19Z</time>
      </trkpt>
      <trkpt lat="43.47446" lon="6.89075">
        <ele>80.34</ele>
        <time>2019-07-01T11:38:37Z</time>
      </trkpt>
      <trkpt lat="43.47463" lon="6.89101">
        <ele>81.6</ele>
        <time>2019-07-01T11:38:53Z</time>
      </trkpt>
      <trkpt lat="43.47471" lon="6.89116">
        <ele>83.23</ele>
        <time>2019-07-01T11:39:08Z</time>
      </trkpt>
      <trkpt lat="43.47476" lon="6.89119">
        <ele>84.36</ele>
        <time>2019-07-01T11:39:27Z</time>
      </trkpt>
      <trkpt lat="43.47478" lon="6.89124">
        <ele>84.67</ele>
        <time>2019-07-01T11:39:35Z</time>
      </trkpt>
      <trkpt lat="43.47485" lon="6.89125">
        <ele>84.87</ele>
        <time>2019-07-01T11:39:41Z</time>
      </trkpt>
      <trkpt lat="43.47496" lon="6.89125">
        <ele>84.93</ele>
        <time>2019-07-01T11:39:48Z</time>
      </trkpt>
      <trkpt lat="43.47506" lon="6.89122">
        <ele>84.61</ele>
        <time>2019-07-01T11:40:15Z</time>
      </trkpt>
      <trkpt lat="43.47514" lon="6.89115">
        <ele>84.8</ele>
        <time>2019-07-01T11:41:07Z</time>
      </trkpt>
      <trkpt lat="43.47517" lon="6.89114">
        <ele>84.85</ele>
        <time>2019-07-01T11:41:17Z</time>
      </trkpt>
      <trkpt lat="43.4752" lon="6.89139">
        <ele>85.67</ele>
        <time>2019-07-01T11:41:31Z</time>
      </trkpt>
      <trkpt lat="43.47512" lon="6.89149">
        <ele>86.85</ele>
        <time>2019-07-01T11:41:45Z</time>
      </trkpt>
      <trkpt lat="43.47502" lon="6.89159">
        <ele>86.66</ele>
        <time>2019-07-01T11:41:53Z</time>
      </trkpt>
      <trkpt lat="43.47487" lon="6.89163">
        <ele>88.06</ele>
        <time>2019-07-01T11:42:06Z</time>
      </trkpt>
      <trkpt lat="43.4748" lon="6.8916">
        <ele>87.78</ele>
        <time>2019-07-01T11:42:18Z</time>
      </trkpt>
      <trkpt lat="43.47481" lon="6.89161">
        <ele>87.95</ele>
        <time>2019-07-01T11:42:32Z</time>
      </trkpt>
      <trkpt lat="43.47482" lon="6.8916">
        <ele>88.43</ele>
        <time>2019-07-01T11:42:49Z</time>
      </trkpt>
      <trkpt lat="43.47483" lon="6.8915">
        <ele>88.45</ele>
        <time>2019-07-01T11:43:12Z</time>
      </trkpt>
      <trkpt lat="43.47491" lon="6.89127">
        <ele>90.79</ele>
        <time>2019-07-01T11:43:36Z</time>
      </trkpt>
      <trkpt lat="43.47491" lon="6.89117">
        <ele>92.07</ele>
        <time>2019-07-01T11:43:51Z</time>
      </trkpt>
      <trkpt lat="43.47497" lon="6.89108">
        <ele>93.75</ele>
        <time>2019-07-01T11:44:09Z</time>
      </trkpt>
      <trkpt lat="43.47507" lon="6.891">
        <ele>94.88</ele>
        <time>2019-07-01T11:44:32Z</time>
      </trkpt>
      <trkpt lat="43.47504" lon="6.8911">
        <ele>97.07</ele>
        <time>2019-07-01T11:44:52Z</time>
      </trkpt>
      <trkpt lat="43.475" lon="6.89129">
        <ele>99.51</ele>
        <time>2019-07-01T11:45:12Z</time>
      </trkpt>
      <trkpt lat="43.47498" lon="6.89144">
        <ele>101.89</ele>
        <time>2019-07-01T11:45:31Z</time>
      </trkpt>
      <trkpt lat="43.47501" lon="6.89153">
        <ele>102.06</ele>
        <time>2019-07-01T11:46:00Z</time>
      </trkpt>
      <trkpt lat="43.47505" lon="6.89151">
        <ele>101.97</ele>
        <time>2019-07-01T11:46:27Z</time>
      </trkpt>
      <trkpt lat="43.47507" lon="6.89153">
        <ele>101.9</ele>
        <time>2019-07-01T11:46:41Z</time>
      </trkpt>
      <trkpt lat="43.47502" lon="6.8915">
        <ele>102.05</ele>
        <time>2019-07-01T11:47:16Z</time>
      </trkpt>
      <trkpt lat="43.47497" lon="6.8915">
        <ele>102.02</ele>
        <time>2019-07-01T11:48:02Z</time>
      </trkpt>
      <trkpt lat="43.47496" lon="6.89148">
        <ele>102.06</ele>
        <time>2019-07-01T11:48:25Z</time>
      </trkpt>
      <trkpt lat="43.47498" lon="6.89163">
        <ele>102.06</ele>
        <time>2019-07-01T11:48:43Z</time>
      </trkpt>
      <trkpt lat="43.47493" lon="6.8917">
        <ele>102.06</ele>
        <time>2019-07-01T11:48:54Z</time>
      </trkpt>
      <trkpt lat="43.47493" lon="6.89171">
        <ele>102.06</ele>
        <time>2019-07-01T11:48:56Z</time>
      </trkpt>
      <trkpt lat="43.47493" lon="6.89181">
        <ele>105.37</ele>
        <time>2019-07-01T11:49:03Z</time>
      </trkpt>
      <trkpt lat="43.47493" lon="6.89184">
        <ele>106.03</ele>
        <time>2019-07-01T11:49:05Z</time>
      </trkpt>
      <trkpt lat="43.47486" lon="6.89187">
        <ele>106.37</ele>
        <time>2019-07-01T11:49:14Z</time>
      </trkpt>
      <trkpt lat="43.4748" lon="6.89201">
        <ele>107.8</ele>
        <time>2019-07-01T11:49:27Z</time>
      </trkpt>
      <trkpt lat="43.47473" lon="6.89211">
        <ele>107.95</ele>
        <time>2019-07-01T11:49:39Z</time>
      </trkpt>
      <trkpt lat="43.4747" lon="6.89222">
        <ele>109</ele>
        <time>2019-07-01T11:49:51Z</time>
      </trkpt>
      <trkpt lat="43.47472" lon="6.89235">
        <ele>110.41</ele>
        <time>2019-07-01T11:50:00Z</time>
      </trkpt>
      <trkpt lat="43.47473" lon="6.8924">
        <ele>110.89</ele>
        <time>2019-07-01T11:50:04Z</time>
      </trkpt>
      <trkpt lat="43.47469" lon="6.89251">
        <ele>112.6</ele>
        <time>2019-07-01T11:50:17Z</time>
      </trkpt>
      <trkpt lat="43.47469" lon="6.89254">
        <ele>112.9</ele>
        <time>2019-07-01T11:50:20Z</time>
      </trkpt>
      <trkpt lat="43.47469" lon="6.89265">
        <ele>114.25</ele>
        <time>2019-07-01T11:50:29Z</time>
      </trkpt>
      <trkpt lat="43.47459" lon="6.89276">
        <ele>116.62</ele>
        <time>2019-07-01T11:50:48Z</time>
      </trkpt>
      <trkpt lat="43.47462" lon="6.89277">
        <ele>119.15</ele>
        <time>2019-07-01T11:51:01Z</time>
      </trkpt>
      <trkpt lat="43.47467" lon="6.89277">
        <ele>120.4</ele>
        <time>2019-07-01T11:51:13Z</time>
      </trkpt>
      <trkpt lat="43.47471" lon="6.89273">
        <ele>121.47</ele>
        <time>2019-07-01T11:51:22Z</time>
      </trkpt>
      <trkpt lat="43.47478" lon="6.89264">
        <ele>123.21</ele>
        <time>2019-07-01T11:51:42Z</time>
      </trkpt>
      <trkpt lat="43.47488" lon="6.8926">
        <ele>124.32</ele>
        <time>2019-07-01T11:52:00Z</time>
      </trkpt>
      <trkpt lat="43.47493" lon="6.89252">
        <ele>125.13</ele>
        <time>2019-07-01T11:52:10Z</time>
      </trkpt>
      <trkpt lat="43.475" lon="6.89249">
        <ele>125.77</ele>
        <time>2019-07-01T11:52:18Z</time>
      </trkpt>
      <trkpt lat="43.47499" lon="6.89257">
        <ele>127.26</ele>
        <time>2019-07-01T11:52:30Z</time>
      </trkpt>
      <trkpt lat="43.47492" lon="6.89264">
        <ele>128.35</ele>
        <time>2019-07-01T11:52:41Z</time>
      </trkpt>
      <trkpt lat="43.47486" lon="6.89268">
        <ele>129.88</ele>
        <time>2019-07-01T11:52:54Z</time>
      </trkpt>
      <trkpt lat="43.47481" lon="6.89269">
        <ele>130.09</ele>
        <time>2019-07-01T11:52:59Z</time>
      </trkpt>
      <trkpt lat="43.47472" lon="6.89287">
        <ele>132.47</ele>
        <time>2019-07-01T11:53:16Z</time>
      </trkpt>
      <trkpt lat="43.4747" lon="6.89299">
        <ele>133.76</ele>
        <time>2019-07-01T11:53:27Z</time>
      </trkpt>
      <trkpt lat="43.47469" lon="6.89313">
        <ele>135.56</ele>
        <time>2019-07-01T11:53:40Z</time>
      </trkpt>
      <trkpt lat="43.47472" lon="6.89316">
        <ele>136.36</ele>
        <time>2019-07-01T11:53:54Z</time>
      </trkpt>
      <trkpt lat="43.47482" lon="6.89324">
        <ele>136.25</ele>
        <time>2019-07-01T11:54:13Z</time>
      </trkpt>
      <trkpt lat="43.47482" lon="6.89326">
        <ele>136.2</ele>
        <time>2019-07-01T11:54:46Z</time>
      </trkpt>
      <trkpt lat="43.4748" lon="6.89321">
        <ele>136.21</ele>
        <time>2019-07-01T11:55:17Z</time>
      </trkpt>
      <trkpt lat="43.47477" lon="6.89315">
        <ele>136.41</ele>
        <time>2019-07-01T11:55:42Z</time>
      </trkpt>
      <trkpt lat="43.47476" lon="6.89317">
        <ele>136.81</ele>
        <time>2019-07-01T11:56:04Z</time>
      </trkpt>
      <trkpt lat="43.47474" lon="6.89315">
        <ele>136.66</ele>
        <time>2019-07-01T11:56:33Z</time>
      </trkpt>
      <trkpt lat="43.47476" lon="6.89317">
        <ele>136.57</ele>
        <time>2019-07-01T11:56:43Z</time>
      </trkpt>
      <trkpt lat="43.47473" lon="6.89316">
        <ele>136.56</ele>
        <time>2019-07-01T11:57:03Z</time>
      </trkpt>
      <trkpt lat="43.47453" lon="6.89319">
        <ele>136.56</ele>
        <time>2019-07-01T11:57:18Z</time>
      </trkpt>
      <trkpt lat="43.47442" lon="6.89327">
        <ele>136.56</ele>
        <time>2019-07-01T11:57:32Z</time>
      </trkpt>
      <trkpt lat="43.47438" lon="6.89339">
        <ele>138.97</ele>
        <time>2019-07-01T11:57:50Z</time>
      </trkpt>
      <trkpt lat="43.47442" lon="6.89353">
        <ele>137.84</ele>
        <time>2019-07-01T11:58:04Z</time>
      </trkpt>
      <trkpt lat="43.47446" lon="6.89366">
        <ele>140.61</ele>
        <time>2019-07-01T11:58:32Z</time>
      </trkpt>
      <trkpt lat="43.47435" lon="6.89352">
        <ele>142.08</ele>
        <time>2019-07-01T11:58:46Z</time>
      </trkpt>
      <trkpt lat="43.47434" lon="6.8934">
        <ele>143.54</ele>
        <time>2019-07-01T11:59:00Z</time>
      </trkpt>
      <trkpt lat="43.47433" lon="6.8934">
        <ele>143.84</ele>
        <time>2019-07-01T11:59:04Z</time>
      </trkpt>
      <trkpt lat="43.47426" lon="6.89338">
        <ele>144.12</ele>
        <time>2019-07-01T11:59:11Z</time>
      </trkpt>
      <trkpt lat="43.47417" lon="6.89336">
        <ele>144.98</ele>
        <time>2019-07-01T11:59:20Z</time>
      </trkpt>
      <trkpt lat="43.47414" lon="6.89342">
        <ele>147.84</ele>
        <time>2019-07-01T11:59:36Z</time>
      </trkpt>
      <trkpt lat="43.47417" lon="6.89351">
        <ele>149.17</ele>
        <time>2019-07-01T11:59:45Z</time>
      </trkpt>
      <trkpt lat="43.47415" lon="6.89358">
        <ele>150.85</ele>
        <time>2019-07-01T11:59:56Z</time>
      </trkpt>
      <trkpt lat="43.47419" lon="6.89371">
        <ele>153.21</ele>
        <time>2019-07-01T12:00:20Z</time>
      </trkpt>
      <trkpt lat="43.47427" lon="6.8938">
        <ele>154.6</ele>
        <time>2019-07-01T12:00:34Z</time>
      </trkpt>
      <trkpt lat="43.47434" lon="6.89393">
        <ele>157.2</ele>
        <time>2019-07-01T12:00:50Z</time>
      </trkpt>
      <trkpt lat="43.47432" lon="6.8939">
        <ele>158.4</ele>
        <time>2019-07-01T12:00:56Z</time>
      </trkpt>
      <trkpt lat="43.47427" lon="6.89383">
        <ele>160.87</ele>
        <time>2019-07-01T12:01:13Z</time>
      </trkpt>
      <trkpt lat="43.4742" lon="6.89384">
        <ele>162.29</ele>
        <time>2019-07-01T12:01:26Z</time>
      </trkpt>
      <trkpt lat="43.47409" lon="6.89376">
        <ele>164.06</ele>
        <time>2019-07-01T12:01:46Z</time>
      </trkpt>
      <trkpt lat="43.47405" lon="6.89374">
        <ele>165.65</ele>
        <time>2019-07-01T12:02:02Z</time>
      </trkpt>
      <trkpt lat="43.47396" lon="6.8937">
        <ele>166.9</ele>
        <time>2019-07-01T12:02:18Z</time>
      </trkpt>
      <trkpt lat="43.47392" lon="6.89369">
        <ele>167.21</ele>
        <time>2019-07-01T12:02:37Z</time>
      </trkpt>
      <trkpt lat="43.47388" lon="6.89368">
        <ele>167.21</ele>
        <time>2019-07-01T12:02:59Z</time>
      </trkpt>
      <trkpt lat="43.47388" lon="6.89369">
        <ele>167.29</ele>
        <time>2019-07-01T12:03:06Z</time>
      </trkpt>
      <trkpt lat="43.47388" lon="6.89371">
        <ele>166.82</ele>
        <time>2019-07-01T12:03:30Z</time>
      </trkpt>
      <trkpt lat="43.47381" lon="6.89363">
        <ele>166.87</ele>
        <time>2019-07-01T12:04:05Z</time>
      </trkpt>
      <trkpt lat="43.47381" lon="6.89365">
        <ele>166.97</ele>
        <time>2019-07-01T12:04:33Z</time>
      </trkpt>
      <trkpt lat="43.4738" lon="6.8936">
        <ele>167.25</ele>
        <time>2019-07-01T12:05:11Z</time>
      </trkpt>
      <trkpt lat="43.47382" lon="6.89344">
        <ele>167.25</ele>
        <time>2019-07-01T12:05:24Z</time>
      </trkpt>
      <trkpt lat="43.4738" lon="6.89337">
        <ele>167.25</ele>
        <time>2019-07-01T12:05:37Z</time>
      </trkpt>
      <trkpt lat="43.47381" lon="6.89335">
        <ele>171.24</ele>
        <time>2019-07-01T12:05:41Z</time>
      </trkpt>
      <trkpt lat="43.47373" lon="6.89318">
        <ele>174.33</ele>
        <time>2019-07-01T12:05:59Z</time>
      </trkpt>
      <trkpt lat="43.47363" lon="6.893">
        <ele>175.86</ele>
        <time>2019-07-01T12:06:12Z</time>
      </trkpt>
      <trkpt lat="43.47354" lon="6.89282">
        <ele>177.77</ele>
        <time>2019-07-01T12:06:24Z</time>
      </trkpt>
      <trkpt lat="43.4735" lon="6.8928">
        <ele>178.85</ele>
        <time>2019-07-01T12:06:32Z</time>
      </trkpt>
      <trkpt lat="43.47345" lon="6.89289">
        <ele>179.85</ele>
        <time>2019-07-01T12:06:40Z</time>
      </trkpt>
      <trkpt lat="43.47336" lon="6.89299">
        <ele>181.4</ele>
        <time>2019-07-01T12:06:52Z</time>
      </trkpt>
      <trkpt lat="43.47338" lon="6.89315">
        <ele>183.02</ele>
        <time>2019-07-01T12:07:04Z</time>
      </trkpt>
      <trkpt lat="43.47345" lon="6.89331">
        <ele>184.3</ele>
        <time>2019-07-01T12:07:13Z</time>
      </trkpt>
      <trkpt lat="43.47345" lon="6.89332">
        <ele>184.44</ele>
        <time>2019-07-01T12:07:14Z</time>
      </trkpt>
      <trkpt lat="43.47342" lon="6.89337">
        <ele>185.28</ele>
        <time>2019-07-01T12:07:22Z</time>
      </trkpt>
      <trkpt lat="43.47336" lon="6.89355">
        <ele>188.15</ele>
        <time>2019-07-01T12:07:45Z</time>
      </trkpt>
      <trkpt lat="43.47339" lon="6.8936">
        <ele>189.34</ele>
        <time>2019-07-01T12:07:55Z</time>
      </trkpt>
      <trkpt lat="43.47339" lon="6.89373">
        <ele>190.76</ele>
        <time>2019-07-01T12:08:06Z</time>
      </trkpt>
      <trkpt lat="43.47332" lon="6.89391">
        <ele>192.31</ele>
        <time>2019-07-01T12:08:21Z</time>
      </trkpt>
      <trkpt lat="43.47334" lon="6.89404">
        <ele>194.48</ele>
        <time>2019-07-01T12:08:37Z</time>
      </trkpt>
      <trkpt lat="43.47343" lon="6.89414">
        <ele>195.17</ele>
        <time>2019-07-01T12:08:46Z</time>
      </trkpt>
      <trkpt lat="43.47349" lon="6.89419">
        <ele>196</ele>
        <time>2019-07-01T12:08:54Z</time>
      </trkpt>
      <trkpt lat="43.47369" lon="6.89436">
        <ele>197.61</ele>
        <time>2019-07-01T12:09:15Z</time>
      </trkpt>
      <trkpt lat="43.47373" lon="6.89454">
        <ele>198.6</ele>
        <time>2019-07-01T12:09:28Z</time>
      </trkpt>
      <trkpt lat="43.47374" lon="6.89455">
        <ele>198.84</ele>
        <time>2019-07-01T12:09:31Z</time>
      </trkpt>
      <trkpt lat="43.47385" lon="6.8947">
        <ele>200.44</ele>
        <time>2019-07-01T12:09:52Z</time>
      </trkpt>
      <trkpt lat="43.47388" lon="6.8948">
        <ele>201.52</ele>
        <time>2019-07-01T12:10:03Z</time>
      </trkpt>
      <trkpt lat="43.47395" lon="6.89493">
        <ele>202.79</ele>
        <time>2019-07-01T12:10:15Z</time>
      </trkpt>
      <trkpt lat="43.47395" lon="6.89494">
        <ele>202.85</ele>
        <time>2019-07-01T12:10:16Z</time>
      </trkpt>
      <trkpt lat="43.47397" lon="6.89497">
        <ele>203.11</ele>
        <time>2019-07-01T12:10:19Z</time>
      </trkpt>
      <trkpt lat="43.47405" lon="6.89509">
        <ele>204.32</ele>
        <time>2019-07-01T12:10:32Z</time>
      </trkpt>
      <trkpt lat="43.47409" lon="6.89521">
        <ele>205.58</ele>
        <time>2019-07-01T12:10:46Z</time>
      </trkpt>
      <trkpt lat="43.47413" lon="6.89532">
        <ele>206.42</ele>
        <time>2019-07-01T12:10:54Z</time>
      </trkpt>
      <trkpt lat="43.47413" lon="6.89537">
        <ele>206.73</ele>
        <time>2019-07-01T12:10:57Z</time>
      </trkpt>
      <trkpt lat="43.47417" lon="6.89549">
        <ele>207.7</ele>
        <time>2019-07-01T12:11:06Z</time>
      </trkpt>
      <trkpt lat="43.47427" lon="6.89553">
        <ele>208.37</ele>
        <time>2019-07-01T12:11:16Z</time>
      </trkpt>
      <trkpt lat="43.47444" lon="6.89556">
        <ele>210.19</ele>
        <time>2019-07-01T12:11:55Z</time>
      </trkpt>
      <trkpt lat="43.47441" lon="6.89552">
        <ele>210.09</ele>
        <time>2019-07-01T12:12:18Z</time>
      </trkpt>
      <trkpt lat="43.47442" lon="6.89553">
        <ele>210.25</ele>
        <time>2019-07-01T12:12:47Z</time>
      </trkpt>
      <trkpt lat="43.47434" lon="6.8955">
        <ele>210.35</ele>
        <time>2019-07-01T12:13:16Z</time>
      </trkpt>
      <trkpt lat="43.47434" lon="6.89546">
        <ele>210.35</ele>
        <time>2019-07-01T12:13:44Z</time>
      </trkpt>
      <trkpt lat="43.47433" lon="6.89543">
        <ele>210.35</ele>
        <time>2019-07-01T12:14:14Z</time>
      </trkpt>
      <trkpt lat="43.47436" lon="6.89543">
        <ele>210.35</ele>
        <time>2019-07-01T12:14:46Z</time>
      </trkpt>
      <trkpt lat="43.47436" lon="6.89544">
        <ele>210.35</ele>
        <time>2019-07-01T12:15:12Z</time>
      </trkpt>
      <trkpt lat="43.47434" lon="6.89541">
        <ele>210.35</ele>
        <time>2019-07-01T12:15:37Z</time>
      </trkpt>
      <trkpt lat="43.47433" lon="6.89539">
        <ele>210.35</ele>
        <time>2019-07-01T12:16:11Z</time>
      </trkpt>
      <trkpt lat="43.47429" lon="6.89539">
        <ele>210.35</ele>
        <time>2019-07-01T12:16:31Z</time>
      </trkpt>
      <trkpt lat="43.47434" lon="6.89545">
        <ele>210.16</ele>
        <time>2019-07-01T12:16:57Z</time>
      </trkpt>
      <trkpt lat="43.47454" lon="6.89542">
        <ele>211.36</ele>
        <time>2019-07-01T12:17:20Z</time>
      </trkpt>
      <trkpt lat="43.47468" lon="6.89538">
        <ele>213.18</ele>
        <time>2019-07-01T12:17:40Z</time>
      </trkpt>
      <trkpt lat="43.47483" lon="6.89529">
        <ele>214.47</ele>
        <time>2019-07-01T12:17:58Z</time>
      </trkpt>
      <trkpt lat="43.47494" lon="6.89523">
        <ele>216.22</ele>
        <time>2019-07-01T12:18:17Z</time>
      </trkpt>
      <trkpt lat="43.47506" lon="6.89519">
        <ele>217.5</ele>
        <time>2019-07-01T12:18:35Z</time>
      </trkpt>
      <trkpt lat="43.47519" lon="6.89511">
        <ele>218.3</ele>
        <time>2019-07-01T12:18:53Z</time>
      </trkpt>
      <trkpt lat="43.47527" lon="6.89507">
        <ele>221.43</ele>
        <time>2019-07-01T12:19:11Z</time>
      </trkpt>
      <trkpt lat="43.47539" lon="6.89494">
        <ele>223.85</ele>
        <time>2019-07-01T12:19:33Z</time>
      </trkpt>
      <trkpt lat="43.47541" lon="6.89495">
        <ele>226.25</ele>
        <time>2019-07-01T12:19:54Z</time>
      </trkpt>
      <trkpt lat="43.4754" lon="6.89489">
        <ele>226.29</ele>
        <time>2019-07-01T12:20:17Z</time>
      </trkpt>
      <trkpt lat="43.47546" lon="6.89494">
        <ele>228.23</ele>
        <time>2019-07-01T12:20:36Z</time>
      </trkpt>
      <trkpt lat="43.47549" lon="6.89496">
        <ele>231.03</ele>
        <time>2019-07-01T12:20:54Z</time>
      </trkpt>
      <trkpt lat="43.47548" lon="6.89499">
        <ele>231.51</ele>
        <time>2019-07-01T12:21:15Z</time>
      </trkpt>
      <trkpt lat="43.47546" lon="6.89503">
        <ele>233.54</ele>
        <time>2019-07-01T12:21:36Z</time>
      </trkpt>
      <trkpt lat="43.4755" lon="6.89508">
        <ele>235.09</ele>
        <time>2019-07-01T12:22:00Z</time>
      </trkpt>
      <trkpt lat="43.47554" lon="6.89508">
        <ele>237.34</ele>
        <time>2019-07-01T12:22:24Z</time>
      </trkpt>
      <trkpt lat="43.47557" lon="6.8951">
        <ele>240.23</ele>
        <time>2019-07-01T12:22:45Z</time>
      </trkpt>
      <trkpt lat="43.47559" lon="6.8951">
        <ele>240.51</ele>
        <time>2019-07-01T12:22:48Z</time>
      </trkpt>
      <trkpt lat="43.47567" lon="6.89514">
        <ele>242.6</ele>
        <time>2019-07-01T12:23:06Z</time>
      </trkpt>
      <trkpt lat="43.47567" lon="6.89513">
        <ele>244.38</ele>
        <time>2019-07-01T12:23:27Z</time>
      </trkpt>
      <trkpt lat="43.4757" lon="6.89507">
        <ele>246.26</ele>
        <time>2019-07-01T12:23:48Z</time>
      </trkpt>
      <trkpt lat="43.47572" lon="6.89505">
        <ele>247.26</ele>
        <time>2019-07-01T12:24:06Z</time>
      </trkpt>
      <trkpt lat="43.4757" lon="6.89507">
        <ele>245.65</ele>
        <time>2019-07-01T12:24:30Z</time>
      </trkpt>
      <trkpt lat="43.47566" lon="6.89499">
        <ele>243.56</ele>
        <time>2019-07-01T12:24:53Z</time>
      </trkpt>
      <trkpt lat="43.47563" lon="6.89506">
        <ele>242.24</ele>
        <time>2019-07-01T12:25:11Z</time>
      </trkpt>
      <trkpt lat="43.4756" lon="6.89503">
        <ele>240.29</ele>
        <time>2019-07-01T12:25:35Z</time>
      </trkpt>
      <trkpt lat="43.47556" lon="6.89502">
        <ele>237.57</ele>
        <time>2019-07-01T12:25:59Z</time>
      </trkpt>
      <trkpt lat="43.47554" lon="6.89498">
        <ele>234.98</ele>
        <time>2019-07-01T12:26:22Z</time>
      </trkpt>
      <trkpt lat="43.47548" lon="6.89497">
        <ele>233.34</ele>
        <time>2019-07-01T12:26:40Z</time>
      </trkpt>
      <trkpt lat="43.47555" lon="6.8949">
        <ele>231.55</ele>
        <time>2019-07-01T12:27:02Z</time>
      </trkpt>
      <trkpt lat="43.47557" lon="6.89493">
        <ele>233.17</ele>
        <time>2019-07-01T12:27:25Z</time>
      </trkpt>
      <trkpt lat="43.47558" lon="6.89491">
        <ele>233.85</ele>
        <time>2019-07-01T12:27:50Z</time>
      </trkpt>
      <trkpt lat="43.47562" lon="6.89492">
        <ele>233.85</ele>
        <time>2019-07-01T12:28:09Z</time>
      </trkpt>
      <trkpt lat="43.47564" lon="6.8949">
        <ele>237.42</ele>
        <time>2019-07-01T12:28:31Z</time>
      </trkpt>
      <trkpt lat="43.47564" lon="6.8949">
        <ele>237.42</ele>
        <time>2019-07-01T12:28:32Z</time>
      </trkpt>
      <trkpt lat="43.47567" lon="6.89489">
        <ele>237.37</ele>
        <time>2019-07-01T12:29:00Z</time>
      </trkpt>
      <trkpt lat="43.47566" lon="6.89488">
        <ele>237.82</ele>
        <time>2019-07-01T12:29:36Z</time>
      </trkpt>
      <trkpt lat="43.47564" lon="6.89488">
        <ele>237.82</ele>
        <time>2019-07-01T12:30:12Z</time>
      </trkpt>
      <trkpt lat="43.4756" lon="6.89488">
        <ele>234.83</ele>
        <time>2019-07-01T12:30:34Z</time>
      </trkpt>
      <trkpt lat="43.47557" lon="6.89487">
        <ele>233.61</ele>
        <time>2019-07-01T12:31:00Z</time>
      </trkpt>
      <trkpt lat="43.47556" lon="6.89488">
        <ele>233.27</ele>
        <time>2019-07-01T12:31:05Z</time>
      </trkpt>
      <trkpt lat="43.47547" lon="6.89486">
        <ele>231.51</ele>
        <time>2019-07-01T12:31:25Z</time>
      </trkpt>
      <trkpt lat="43.47546" lon="6.89484">
        <ele>229.43</ele>
        <time>2019-07-01T12:31:46Z</time>
      </trkpt>
      <trkpt lat="43.47548" lon="6.89487">
        <ele>229.71</ele>
        <time>2019-07-01T12:32:22Z</time>
      </trkpt>
      <trkpt lat="43.47548" lon="6.89485">
        <ele>229.55</ele>
        <time>2019-07-01T12:32:53Z</time>
      </trkpt>
      <trkpt lat="43.4755" lon="6.89488">
        <ele>229.32</ele>
        <time>2019-07-01T12:33:26Z</time>
      </trkpt>
      <trkpt lat="43.47546" lon="6.89489">
        <ele>228.09</ele>
        <time>2019-07-01T12:33:49Z</time>
      </trkpt>
      <trkpt lat="43.47541" lon="6.89488">
        <ele>226.41</ele>
        <time>2019-07-01T12:34:10Z</time>
      </trkpt>
      <trkpt lat="43.47527" lon="6.89495">
        <ele>224.2</ele>
        <time>2019-07-01T12:34:30Z</time>
      </trkpt>
      <trkpt lat="43.47522" lon="6.89499">
        <ele>222.24</ele>
        <time>2019-07-01T12:34:51Z</time>
      </trkpt>
      <trkpt lat="43.47515" lon="6.89504">
        <ele>220.14</ele>
        <time>2019-07-01T12:35:16Z</time>
      </trkpt>
      <trkpt lat="43.47506" lon="6.89514">
        <ele>218.95</ele>
        <time>2019-07-01T12:35:36Z</time>
      </trkpt>
      <trkpt lat="43.47503" lon="6.89518">
        <ele>218.19</ele>
        <time>2019-07-01T12:35:58Z</time>
      </trkpt>
      <trkpt lat="43.47489" lon="6.89518">
        <ele>217.26</ele>
        <time>2019-07-01T12:36:21Z</time>
      </trkpt>
      <trkpt lat="43.47474" lon="6.89522">
        <ele>215.22</ele>
        <time>2019-07-01T12:36:38Z</time>
      </trkpt>
      <trkpt lat="43.47455" lon="6.89535">
        <ele>213.85</ele>
        <time>2019-07-01T12:36:59Z</time>
      </trkpt>
      <trkpt lat="43.47435" lon="6.8954">
        <ele>211.75</ele>
        <time>2019-07-01T12:37:19Z</time>
      </trkpt>
      <trkpt lat="43.47431" lon="6.89548">
        <ele>210.51</ele>
        <time>2019-07-01T12:37:38Z</time>
      </trkpt>
      <trkpt lat="43.47431" lon="6.8955">
        <ele>210.78</ele>
        <time>2019-07-01T12:38:05Z</time>
      </trkpt>
      <trkpt lat="43.47431" lon="6.8955">
        <ele>210.75</ele>
        <time>2019-07-01T12:38:23Z</time>
      </trkpt>
      <trkpt lat="43.47426" lon="6.89545">
        <ele>211.11</ele>
        <time>2019-07-01T12:38:56Z</time>
      </trkpt>
      <trkpt lat="43.47429" lon="6.89548">
        <ele>211.04</ele>
        <time>2019-07-01T12:38:59Z</time>
      </trkpt>
      <trkpt lat="43.47431" lon="6.89552">
        <ele>211.05</ele>
        <time>2019-07-01T12:39:06Z</time>
      </trkpt>
      <trkpt lat="43.47433" lon="6.89552">
        <ele>210.84</ele>
        <time>2019-07-01T12:39:33Z</time>
      </trkpt>
      <trkpt lat="43.47454" lon="6.89543">
        <ele>212.19</ele>
        <time>2019-07-01T12:39:55Z</time>
      </trkpt>
      <trkpt lat="43.47473" lon="6.89531">
        <ele>214.19</ele>
        <time>2019-07-01T12:40:16Z</time>
      </trkpt>
      <trkpt lat="43.47494" lon="6.89522">
        <ele>216.77</ele>
        <time>2019-07-01T12:40:38Z</time>
      </trkpt>
      <trkpt lat="43.475" lon="6.89519">
        <ele>219.08</ele>
        <time>2019-07-01T12:40:57Z</time>
      </trkpt>
      <trkpt lat="43.47501" lon="6.89519">
        <ele>220.03</ele>
        <time>2019-07-01T12:41:24Z</time>
      </trkpt>
      <trkpt lat="43.47502" lon="6.89522">
        <ele>220.12</ele>
        <time>2019-07-01T12:41:49Z</time>
      </trkpt>
      <trkpt lat="43.47503" lon="6.8952">
        <ele>220.16</ele>
        <time>2019-07-01T12:42:15Z</time>
      </trkpt>
      <trkpt lat="43.47502" lon="6.89518">
        <ele>220.3</ele>
        <time>2019-07-01T12:42:47Z</time>
      </trkpt>
      <trkpt lat="43.47504" lon="6.89521">
        <ele>220.3</ele>
        <time>2019-07-01T12:43:21Z</time>
      </trkpt>
      <trkpt lat="43.47504" lon="6.89521">
        <ele>220.3</ele>
        <time>2019-07-01T12:43:49Z</time>
      </trkpt>
      <trkpt lat="43.47504" lon="6.89523">
        <ele>220.3</ele>
        <time>2019-07-01T12:44:18Z</time>
      </trkpt>
      <trkpt lat="43.47503" lon="6.89523">
        <ele>220.3</ele>
        <time>2019-07-01T12:44:44Z</time>
      </trkpt>
      <trkpt lat="43.47503" lon="6.89525">
        <ele>220.3</ele>
        <time>2019-07-01T12:45:15Z</time>
      </trkpt>
      <trkpt lat="43.47504" lon="6.89526">
        <ele>220.3</ele>
        <time>2019-07-01T12:45:45Z</time>
      </trkpt>
      <trkpt lat="43.47504" lon="6.89524">
        <ele>220.3</ele>
        <time>2019-07-01T12:46:15Z</time>
      </trkpt>
      <trkpt lat="43.47504" lon="6.89521">
        <ele>220.3</ele>
        <time>2019-07-01T12:46:44Z</time>
      </trkpt>
      <trkpt lat="43.47503" lon="6.89523">
        <ele>220.3</ele>
        <time>2019-07-01T12:47:15Z</time>
      </trkpt>
      <trkpt lat="43.47504" lon="6.89524">
        <ele>220.3</ele>
        <time>2019-07-01T12:47:45Z</time>
      </trkpt>
      <trkpt lat="43.47503" lon="6.89518">
        <ele>220.3</ele>
        <time>2019-07-01T12:48:17Z</time>
      </trkpt>
      <trkpt lat="43.47503" lon="6.89515">
        <ele>220.3</ele>
        <time>2019-07-01T12:48:46Z</time>
      </trkpt>
      <trkpt lat="43.47502" lon="6.89517">
        <ele>220.3</ele>
        <time>2019-07-01T12:49:14Z</time>
      </trkpt>
      <trkpt lat="43.47506" lon="6.89517">
        <ele>220.3</ele>
        <time>2019-07-01T12:49:43Z</time>
      </trkpt>
      <trkpt lat="43.47503" lon="6.89521">
        <ele>220.3</ele>
        <time>2019-07-01T12:50:09Z</time>
      </trkpt>
      <trkpt lat="43.47502" lon="6.89521">
        <ele>220.3</ele>
        <time>2019-07-01T12:50:36Z</time>
      </trkpt>
      <trkpt lat="43.47498" lon="6.89517">
        <ele>220.3</ele>
        <time>2019-07-01T12:51:04Z</time>
      </trkpt>
      <trkpt lat="43.47485" lon="6.8953">
        <ele>222.73</ele>
        <time>2019-07-01T12:51:25Z</time>
      </trkpt>
      <trkpt lat="43.47471" lon="6.89542">
        <ele>224.44</ele>
        <time>2019-07-01T12:51:46Z</time>
      </trkpt>
      <trkpt lat="43.47462" lon="6.89564">
        <ele>226.16</ele>
        <time>2019-07-01T12:52:06Z</time>
      </trkpt>
      <trkpt lat="43.47448" lon="6.89579">
        <ele>228.01</ele>
        <time>2019-07-01T12:52:28Z</time>
      </trkpt>
      <trkpt lat="43.47436" lon="6.89593">
        <ele>230.01</ele>
        <time>2019-07-01T12:52:47Z</time>
      </trkpt>
      <trkpt lat="43.47424" lon="6.89609">
        <ele>231.99</ele>
        <time>2019-07-01T12:53:10Z</time>
      </trkpt>
      <trkpt lat="43.47414" lon="6.89612">
        <ele>233.45</ele>
        <time>2019-07-01T12:53:31Z</time>
      </trkpt>
      <trkpt lat="43.47412" lon="6.89619">
        <ele>233.3</ele>
        <time>2019-07-01T12:54:01Z</time>
      </trkpt>
      <trkpt lat="43.47404" lon="6.89624">
        <ele>234</ele>
        <time>2019-07-01T12:54:15Z</time>
      </trkpt>
      <trkpt lat="43.47394" lon="6.89628">
        <ele>235.13</ele>
        <time>2019-07-01T12:54:28Z</time>
      </trkpt>
      <trkpt lat="43.47391" lon="6.89625">
        <ele>235.97</ele>
        <time>2019-07-01T12:54:53Z</time>
      </trkpt>
      <trkpt lat="43.47382" lon="6.89626">
        <ele>236.34</ele>
        <time>2019-07-01T12:55:11Z</time>
      </trkpt>
      <trkpt lat="43.47372" lon="6.8962">
        <ele>237.39</ele>
        <time>2019-07-01T12:55:26Z</time>
      </trkpt>
      <trkpt lat="43.47363" lon="6.89601">
        <ele>239.79</ele>
        <time>2019-07-01T12:55:46Z</time>
      </trkpt>
      <trkpt lat="43.47356" lon="6.89593">
        <ele>240.97</ele>
        <time>2019-07-01T12:55:58Z</time>
      </trkpt>
      <trkpt lat="43.47347" lon="6.89574">
        <ele>242.55</ele>
        <time>2019-07-01T12:56:22Z</time>
      </trkpt>
      <trkpt lat="43.47337" lon="6.89549">
        <ele>244.81</ele>
        <time>2019-07-01T12:56:43Z</time>
      </trkpt>
      <trkpt lat="43.47329" lon="6.8954">
        <ele>246.03</ele>
        <time>2019-07-01T12:57:04Z</time>
      </trkpt>
      <trkpt lat="43.47318" lon="6.89534">
        <ele>246.44</ele>
        <time>2019-07-01T12:57:25Z</time>
      </trkpt>
      <trkpt lat="43.47316" lon="6.89529">
        <ele>246.33</ele>
        <time>2019-07-01T12:57:48Z</time>
      </trkpt>
      <trkpt lat="43.47316" lon="6.89528">
        <ele>246.86</ele>
        <time>2019-07-01T12:58:11Z</time>
      </trkpt>
      <trkpt lat="43.47315" lon="6.89528">
        <ele>246.64</ele>
        <time>2019-07-01T12:58:31Z</time>
      </trkpt>
      <trkpt lat="43.47316" lon="6.89528">
        <ele>246.68</ele>
        <time>2019-07-01T12:58:50Z</time>
      </trkpt>
      <trkpt lat="43.47317" lon="6.89527">
        <ele>247.1</ele>
        <time>2019-07-01T12:59:21Z</time>
      </trkpt>
      <trkpt lat="43.47317" lon="6.89531">
        <ele>247.1</ele>
        <time>2019-07-01T12:59:48Z</time>
      </trkpt>
      <trkpt lat="43.47319" lon="6.89535">
        <ele>247.1</ele>
        <time>2019-07-01T12:59:52Z</time>
      </trkpt>
      <trkpt lat="43.47316" lon="6.89546">
        <ele>245.33</ele>
        <time>2019-07-01T13:00:09Z</time>
      </trkpt>
      <trkpt lat="43.4732" lon="6.89538">
        <ele>245.52</ele>
        <time>2019-07-01T13:00:54Z</time>
      </trkpt>
      <trkpt lat="43.47318" lon="6.89528">
        <ele>246.32</ele>
        <time>2019-07-01T13:01:11Z</time>
      </trkpt>
      <trkpt lat="43.47317" lon="6.89527">
        <ele>246.56</ele>
        <time>2019-07-01T13:01:42Z</time>
      </trkpt>
      <trkpt lat="43.47313" lon="6.89526">
        <ele>246.52</ele>
        <time>2019-07-01T13:02:19Z</time>
      </trkpt>
      <trkpt lat="43.47315" lon="6.89526">
        <ele>246.52</ele>
        <time>2019-07-01T13:02:56Z</time>
      </trkpt>
      <trkpt lat="43.47314" lon="6.89526">
        <ele>246.52</ele>
        <time>2019-07-01T13:03:25Z</time>
      </trkpt>
      <trkpt lat="43.47315" lon="6.89524">
        <ele>246.52</ele>
        <time>2019-07-01T13:03:58Z</time>
      </trkpt>
      <trkpt lat="43.47314" lon="6.89525">
        <ele>246.52</ele>
        <time>2019-07-01T13:04:32Z</time>
      </trkpt>
      <trkpt lat="43.47314" lon="6.89522">
        <ele>246.52</ele>
        <time>2019-07-01T13:05:02Z</time>
      </trkpt>
      <trkpt lat="43.47315" lon="6.89526">
        <ele>246.52</ele>
        <time>2019-07-01T13:05:38Z</time>
      </trkpt>
      <trkpt lat="43.47313" lon="6.8952">
        <ele>246.85</ele>
        <time>2019-07-01T13:06:14Z</time>
      </trkpt>
      <trkpt lat="43.47312" lon="6.89515">
        <ele>246.7</ele>
        <time>2019-07-01T13:06:46Z</time>
      </trkpt>
      <trkpt lat="43.47316" lon="6.89519">
        <ele>247.11</ele>
        <time>2019-07-01T13:07:22Z</time>
      </trkpt>
      <trkpt lat="43.47316" lon="6.89522">
        <ele>247.11</ele>
        <time>2019-07-01T13:07:52Z</time>
      </trkpt>
      <trkpt lat="43.47313" lon="6.89523">
        <ele>247.11</ele>
        <time>2019-07-01T13:08:19Z</time>
      </trkpt>
      <trkpt lat="43.47314" lon="6.89527">
        <ele>247.11</ele>
        <time>2019-07-01T13:08:49Z</time>
      </trkpt>
      <trkpt lat="43.47315" lon="6.89529">
        <ele>247.11</ele>
        <time>2019-07-01T13:09:20Z</time>
      </trkpt>
      <trkpt lat="43.47316" lon="6.89545">
        <ele>247.11</ele>
        <time>2019-07-01T13:09:41Z</time>
      </trkpt>
      <trkpt lat="43.47312" lon="6.8955">
        <ele>247.11</ele>
        <time>2019-07-01T13:09:47Z</time>
      </trkpt>
      <trkpt lat="43.47308" lon="6.89555">
        <ele>245.19</ele>
        <time>2019-07-01T13:09:52Z</time>
      </trkpt>
      <trkpt lat="43.473" lon="6.89568">
        <ele>243.73</ele>
        <time>2019-07-01T13:10:07Z</time>
      </trkpt>
      <trkpt lat="43.47287" lon="6.89584">
        <ele>242.32</ele>
        <time>2019-07-01T13:10:24Z</time>
      </trkpt>
      <trkpt lat="43.47275" lon="6.896">
        <ele>241.45</ele>
        <time>2019-07-01T13:10:40Z</time>
      </trkpt>
      <trkpt lat="43.47264" lon="6.89611">
        <ele>239.58</ele>
        <time>2019-07-01T13:10:55Z</time>
      </trkpt>
      <trkpt lat="43.4725" lon="6.89627">
        <ele>237.31</ele>
        <time>2019-07-01T13:11:14Z</time>
      </trkpt>
      <trkpt lat="43.47241" lon="6.89641">
        <ele>235.24</ele>
        <time>2019-07-01T13:11:30Z</time>
      </trkpt>
      <trkpt lat="43.47226" lon="6.89654">
        <ele>233.48</ele>
        <time>2019-07-01T13:11:47Z</time>
      </trkpt>
      <trkpt lat="43.47217" lon="6.89666">
        <ele>231.43</ele>
        <time>2019-07-01T13:12:02Z</time>
      </trkpt>
      <trkpt lat="43.47209" lon="6.89681">
        <ele>229.65</ele>
        <time>2019-07-01T13:12:17Z</time>
      </trkpt>
      <trkpt lat="43.47205" lon="6.89703">
        <ele>227.53</ele>
        <time>2019-07-01T13:12:35Z</time>
      </trkpt>
      <trkpt lat="43.47204" lon="6.89705">
        <ele>227.31</ele>
        <time>2019-07-01T13:12:37Z</time>
      </trkpt>
      <trkpt lat="43.47196" lon="6.89726">
        <ele>225.98</ele>
        <time>2019-07-01T13:12:53Z</time>
      </trkpt>
      <trkpt lat="43.47195" lon="6.89739">
        <ele>225.31</ele>
        <time>2019-07-01T13:13:02Z</time>
      </trkpt>
      <trkpt lat="43.47193" lon="6.89747">
        <ele>225.12</ele>
        <time>2019-07-01T13:13:06Z</time>
      </trkpt>
      <trkpt lat="43.47187" lon="6.89774">
        <ele>223.94</ele>
        <time>2019-07-01T13:13:25Z</time>
      </trkpt>
      <trkpt lat="43.47181" lon="6.89793">
        <ele>222.85</ele>
        <time>2019-07-01T13:13:41Z</time>
      </trkpt>
      <trkpt lat="43.47178" lon="6.89815">
        <ele>222.12</ele>
        <time>2019-07-01T13:13:56Z</time>
      </trkpt>
      <trkpt lat="43.47178" lon="6.89837">
        <ele>221.25</ele>
        <time>2019-07-01T13:14:12Z</time>
      </trkpt>
      <trkpt lat="43.4718" lon="6.89839">
        <ele>221.2</ele>
        <time>2019-07-01T13:14:14Z</time>
      </trkpt>
      <trkpt lat="43.47191" lon="6.89856">
        <ele>220.43</ele>
        <time>2019-07-01T13:14:31Z</time>
      </trkpt>
      <trkpt lat="43.47214" lon="6.89867">
        <ele>218.62</ele>
        <time>2019-07-01T13:14:53Z</time>
      </trkpt>
      <trkpt lat="43.47229" lon="6.89878">
        <ele>217.91</ele>
        <time>2019-07-01T13:15:08Z</time>
      </trkpt>
      <trkpt lat="43.47231" lon="6.89879">
        <ele>217.84</ele>
        <time>2019-07-01T13:15:11Z</time>
      </trkpt>
      <trkpt lat="43.47249" lon="6.89888">
        <ele>217.05</ele>
        <time>2019-07-01T13:15:27Z</time>
      </trkpt>
      <trkpt lat="43.47261" lon="6.89897">
        <ele>216.07</ele>
        <time>2019-07-01T13:15:46Z</time>
      </trkpt>
      <trkpt lat="43.47258" lon="6.8989">
        <ele>216.1</ele>
        <time>2019-07-01T13:16:06Z</time>
      </trkpt>
      <trkpt lat="43.47258" lon="6.89889">
        <ele>216.36</ele>
        <time>2019-07-01T13:16:33Z</time>
      </trkpt>
      <trkpt lat="43.47256" lon="6.8989">
        <ele>216.12</ele>
        <time>2019-07-01T13:17:00Z</time>
      </trkpt>
      <trkpt lat="43.47255" lon="6.89891">
        <ele>216.12</ele>
        <time>2019-07-01T13:17:31Z</time>
      </trkpt>
      <trkpt lat="43.47255" lon="6.8989">
        <ele>216.12</ele>
        <time>2019-07-01T13:18:03Z</time>
      </trkpt>
      <trkpt lat="43.47257" lon="6.89889">
        <ele>216.12</ele>
        <time>2019-07-01T13:18:31Z</time>
      </trkpt>
      <trkpt lat="43.47256" lon="6.89889">
        <ele>216.12</ele>
        <time>2019-07-01T13:19:01Z</time>
      </trkpt>
      <trkpt lat="43.4726" lon="6.89891">
        <ele>216.12</ele>
        <time>2019-07-01T13:19:32Z</time>
      </trkpt>
      <trkpt lat="43.47263" lon="6.89897">
        <ele>216.12</ele>
        <time>2019-07-01T13:19:37Z</time>
      </trkpt>
      <trkpt lat="43.47266" lon="6.89903">
        <ele>216.2</ele>
        <time>2019-07-01T13:19:41Z</time>
      </trkpt>
      <trkpt lat="43.47267" lon="6.89905">
        <ele>216.25</ele>
        <time>2019-07-01T13:19:43Z</time>
      </trkpt>
      <trkpt lat="43.4727" lon="6.89907">
        <ele>216.24</ele>
        <time>2019-07-01T13:19:46Z</time>
      </trkpt>
      <trkpt lat="43.47278" lon="6.89928">
        <ele>215.74</ele>
        <time>2019-07-01T13:20:02Z</time>
      </trkpt>
      <trkpt lat="43.4728" lon="6.89933">
        <ele>215.73</ele>
        <time>2019-07-01T13:20:08Z</time>
      </trkpt>
      <trkpt lat="43.47284" lon="6.89942">
        <ele>215.79</ele>
        <time>2019-07-01T13:20:15Z</time>
      </trkpt>
      <trkpt lat="43.47289" lon="6.89954">
        <ele>215.87</ele>
        <time>2019-07-01T13:20:25Z</time>
      </trkpt>
      <trkpt lat="43.47296" lon="6.89962">
        <ele>215.76</ele>
        <time>2019-07-01T13:20:34Z</time>
      </trkpt>
      <trkpt lat="43.47301" lon="6.89984">
        <ele>215.55</ele>
        <time>2019-07-01T13:20:51Z</time>
      </trkpt>
      <trkpt lat="43.47306" lon="6.90014">
        <ele>215.2</ele>
        <time>2019-07-01T13:21:12Z</time>
      </trkpt>
      <trkpt lat="43.47315" lon="6.90036">
        <ele>215.19</ele>
        <time>2019-07-01T13:21:29Z</time>
      </trkpt>
      <trkpt lat="43.47325" lon="6.90052">
        <ele>215.09</ele>
        <time>2019-07-01T13:21:43Z</time>
      </trkpt>
      <trkpt lat="43.47327" lon="6.90054">
        <ele>215.08</ele>
        <time>2019-07-01T13:21:46Z</time>
      </trkpt>
      <trkpt lat="43.47331" lon="6.90056">
        <ele>215.08</ele>
        <time>2019-07-01T13:21:49Z</time>
      </trkpt>
      <trkpt lat="43.47338" lon="6.90059">
        <ele>215.1</ele>
        <time>2019-07-01T13:21:56Z</time>
      </trkpt>
      <trkpt lat="43.47338" lon="6.90077">
        <ele>214.92</ele>
        <time>2019-07-01T13:22:07Z</time>
      </trkpt>
      <trkpt lat="43.47335" lon="6.90097">
        <ele>215.04</ele>
        <time>2019-07-01T13:22:25Z</time>
      </trkpt>
      <trkpt lat="43.47338" lon="6.90103">
        <ele>215.11</ele>
        <time>2019-07-01T13:22:31Z</time>
      </trkpt>
      <trkpt lat="43.47348" lon="6.90127">
        <ele>214.96</ele>
        <time>2019-07-01T13:22:50Z</time>
      </trkpt>
      <trkpt lat="43.47352" lon="6.90133">
        <ele>214.92</ele>
        <time>2019-07-01T13:22:55Z</time>
      </trkpt>
      <trkpt lat="43.47346" lon="6.90145">
        <ele>214.16</ele>
        <time>2019-07-01T13:23:13Z</time>
      </trkpt>
      <trkpt lat="43.4734" lon="6.90147">
        <ele>214.44</ele>
        <time>2019-07-01T13:23:19Z</time>
      </trkpt>
      <trkpt lat="43.47319" lon="6.90151">
        <ele>213.23</ele>
        <time>2019-07-01T13:23:37Z</time>
      </trkpt>
      <trkpt lat="43.47311" lon="6.9016">
        <ele>213.1</ele>
        <time>2019-07-01T13:23:45Z</time>
      </trkpt>
      <trkpt lat="43.47307" lon="6.90169">
        <ele>212.54</ele>
        <time>2019-07-01T13:23:52Z</time>
      </trkpt>
      <trkpt lat="43.47298" lon="6.90168">
        <ele>212.28</ele>
        <time>2019-07-01T13:24:02Z</time>
      </trkpt>
      <trkpt lat="43.47294" lon="6.90164">
        <ele>212.24</ele>
        <time>2019-07-01T13:24:06Z</time>
      </trkpt>
      <trkpt lat="43.47273" lon="6.90167">
        <ele>211.81</ele>
        <time>2019-07-01T13:24:24Z</time>
      </trkpt>
      <trkpt lat="43.47255" lon="6.90177">
        <ele>211.31</ele>
        <time>2019-07-01T13:24:41Z</time>
      </trkpt>
      <trkpt lat="43.47238" lon="6.90189">
        <ele>210.55</ele>
        <time>2019-07-01T13:24:58Z</time>
      </trkpt>
      <trkpt lat="43.47219" lon="6.90204">
        <ele>210.55</ele>
        <time>2019-07-01T13:25:17Z</time>
      </trkpt>
      <trkpt lat="43.47206" lon="6.90215">
        <ele>210.41</ele>
        <time>2019-07-01T13:25:30Z</time>
      </trkpt>
      <trkpt lat="43.47196" lon="6.90231">
        <ele>210.41</ele>
        <time>2019-07-01T13:25:45Z</time>
      </trkpt>
      <trkpt lat="43.47192" lon="6.90259">
        <ele>210.22</ele>
        <time>2019-07-01T13:26:02Z</time>
      </trkpt>
      <trkpt lat="43.47193" lon="6.90288">
        <ele>209.99</ele>
        <time>2019-07-01T13:26:18Z</time>
      </trkpt>
      <trkpt lat="43.47195" lon="6.90298">
        <ele>210.01</ele>
        <time>2019-07-01T13:26:25Z</time>
      </trkpt>
      <trkpt lat="43.472" lon="6.90322">
        <ele>209.9</ele>
        <time>2019-07-01T13:26:42Z</time>
      </trkpt>
      <trkpt lat="43.47206" lon="6.9036">
        <ele>209.32</ele>
        <time>2019-07-01T13:27:05Z</time>
      </trkpt>
      <trkpt lat="43.47206" lon="6.90363">
        <ele>209.29</ele>
        <time>2019-07-01T13:27:07Z</time>
      </trkpt>
      <trkpt lat="43.47205" lon="6.90372">
        <ele>209.25</ele>
        <time>2019-07-01T13:27:12Z</time>
      </trkpt>
      <trkpt lat="43.47195" lon="6.90392">
        <ele>209.59</ele>
        <time>2019-07-01T13:27:28Z</time>
      </trkpt>
      <trkpt lat="43.47191" lon="6.90413">
        <ele>209.75</ele>
        <time>2019-07-01T13:27:42Z</time>
      </trkpt>
      <trkpt lat="43.4719" lon="6.90416">
        <ele>209.62</ele>
        <time>2019-07-01T13:27:44Z</time>
      </trkpt>
      <trkpt lat="43.47187" lon="6.90422">
        <ele>209.49</ele>
        <time>2019-07-01T13:27:48Z</time>
      </trkpt>
      <trkpt lat="43.4719" lon="6.90451">
        <ele>209.4</ele>
        <time>2019-07-01T13:28:07Z</time>
      </trkpt>
      <trkpt lat="43.472" lon="6.90476">
        <ele>209.21</ele>
        <time>2019-07-01T13:28:24Z</time>
      </trkpt>
      <trkpt lat="43.47211" lon="6.90501">
        <ele>209.46</ele>
        <time>2019-07-01T13:28:43Z</time>
      </trkpt>
      <trkpt lat="43.47212" lon="6.90503">
        <ele>209.4</ele>
        <time>2019-07-01T13:28:45Z</time>
      </trkpt>
      <trkpt lat="43.47215" lon="6.90508">
        <ele>209.26</ele>
        <time>2019-07-01T13:28:49Z</time>
      </trkpt>
      <trkpt lat="43.47221" lon="6.9052">
        <ele>209.07</ele>
        <time>2019-07-01T13:28:58Z</time>
      </trkpt>
      <trkpt lat="43.47228" lon="6.90531">
        <ele>209.13</ele>
        <time>2019-07-01T13:29:07Z</time>
      </trkpt>
      <trkpt lat="43.47239" lon="6.90548">
        <ele>209.33</ele>
        <time>2019-07-01T13:29:22Z</time>
      </trkpt>
      <trkpt lat="43.47247" lon="6.90566">
        <ele>209.23</ele>
        <time>2019-07-01T13:29:36Z</time>
      </trkpt>
      <trkpt lat="43.47258" lon="6.9059">
        <ele>209.13</ele>
        <time>2019-07-01T13:29:53Z</time>
      </trkpt>
      <trkpt lat="43.47265" lon="6.90604">
        <ele>208.65</ele>
        <time>2019-07-01T13:30:07Z</time>
      </trkpt>
      <trkpt lat="43.47262" lon="6.90613">
        <ele>208.19</ele>
        <time>2019-07-01T13:30:13Z</time>
      </trkpt>
      <trkpt lat="43.47241" lon="6.90626">
        <ele>207.98</ele>
        <time>2019-07-01T13:30:28Z</time>
      </trkpt>
      <trkpt lat="43.47224" lon="6.90627">
        <ele>208.93</ele>
        <time>2019-07-01T13:30:45Z</time>
      </trkpt>
      <trkpt lat="43.47221" lon="6.90627">
        <ele>208.99</ele>
        <time>2019-07-01T13:30:48Z</time>
      </trkpt>
      <trkpt lat="43.47203" lon="6.90632">
        <ele>208.58</ele>
        <time>2019-07-01T13:31:03Z</time>
      </trkpt>
      <trkpt lat="43.47185" lon="6.90641">
        <ele>208.86</ele>
        <time>2019-07-01T13:31:21Z</time>
      </trkpt>
      <trkpt lat="43.47185" lon="6.90646">
        <ele>208.99</ele>
        <time>2019-07-01T13:31:37Z</time>
      </trkpt>
      <trkpt lat="43.47186" lon="6.90646">
        <ele>209.15</ele>
        <time>2019-07-01T13:32:05Z</time>
      </trkpt>
      <trkpt lat="43.47188" lon="6.90646">
        <ele>209.37</ele>
        <time>2019-07-01T13:32:33Z</time>
      </trkpt>
      <trkpt lat="43.47189" lon="6.90647">
        <ele>209.37</ele>
        <time>2019-07-01T13:33:02Z</time>
      </trkpt>
      <trkpt lat="43.47183" lon="6.9065">
        <ele>209.37</ele>
        <time>2019-07-01T13:33:39Z</time>
      </trkpt>
      <trkpt lat="43.47184" lon="6.90651">
        <ele>209.37</ele>
        <time>2019-07-01T13:34:01Z</time>
      </trkpt>
      <trkpt lat="43.47163" lon="6.90657">
        <ele>209.29</ele>
        <time>2019-07-01T13:34:19Z</time>
      </trkpt>
      <trkpt lat="43.47151" lon="6.9066">
        <ele>209.27</ele>
        <time>2019-07-01T13:34:32Z</time>
      </trkpt>
      <trkpt lat="43.47148" lon="6.90659">
        <ele>209.26</ele>
        <time>2019-07-01T13:34:34Z</time>
      </trkpt>
      <trkpt lat="43.47125" lon="6.90664">
        <ele>209.06</ele>
        <time>2019-07-01T13:34:54Z</time>
      </trkpt>
      <trkpt lat="43.47106" lon="6.90679">
        <ele>209.01</ele>
        <time>2019-07-01T13:35:13Z</time>
      </trkpt>
      <trkpt lat="43.47095" lon="6.90697">
        <ele>209.11</ele>
        <time>2019-07-01T13:35:29Z</time>
      </trkpt>
      <trkpt lat="43.4709" lon="6.90703">
        <ele>209.2</ele>
        <time>2019-07-01T13:35:41Z</time>
      </trkpt>
      <trkpt lat="43.47085" lon="6.90711">
        <ele>209.09</ele>
        <time>2019-07-01T13:35:47Z</time>
      </trkpt>
      <trkpt lat="43.47076" lon="6.90735">
        <ele>208.84</ele>
        <time>2019-07-01T13:36:04Z</time>
      </trkpt>
      <trkpt lat="43.47065" lon="6.90757">
        <ele>208.85</ele>
        <time>2019-07-01T13:36:20Z</time>
      </trkpt>
      <trkpt lat="43.47055" lon="6.90781">
        <ele>208.88</ele>
        <time>2019-07-01T13:36:35Z</time>
      </trkpt>
      <trkpt lat="43.47048" lon="6.90797">
        <ele>208.83</ele>
        <time>2019-07-01T13:36:52Z</time>
      </trkpt>
      <trkpt lat="43.47044" lon="6.90805">
        <ele>208.91</ele>
        <time>2019-07-01T13:37:17Z</time>
      </trkpt>
      <trkpt lat="43.47028" lon="6.90827">
        <ele>209.35</ele>
        <time>2019-07-01T13:37:34Z</time>
      </trkpt>
      <trkpt lat="43.47018" lon="6.90843">
        <ele>209.44</ele>
        <time>2019-07-01T13:37:49Z</time>
      </trkpt>
      <trkpt lat="43.47014" lon="6.90847">
        <ele>209.36</ele>
        <time>2019-07-01T13:38:07Z</time>
      </trkpt>
      <trkpt lat="43.47016" lon="6.90847">
        <ele>209.27</ele>
        <time>2019-07-01T13:38:41Z</time>
      </trkpt>
      <trkpt lat="43.47019" lon="6.90849">
        <ele>209.39</ele>
        <time>2019-07-01T13:39:11Z</time>
      </trkpt>
      <trkpt lat="43.47016" lon="6.90849">
        <ele>209.39</ele>
        <time>2019-07-01T13:39:45Z</time>
      </trkpt>
      <trkpt lat="43.47016" lon="6.90847">
        <ele>209.39</ele>
        <time>2019-07-01T13:40:17Z</time>
      </trkpt>
      <trkpt lat="43.4702" lon="6.90848">
        <ele>209.39</ele>
        <time>2019-07-01T13:40:26Z</time>
      </trkpt>
      <trkpt lat="43.47027" lon="6.90846">
        <ele>209.59</ele>
        <time>2019-07-01T13:40:38Z</time>
      </trkpt>
      <trkpt lat="43.47016" lon="6.90851">
        <ele>209.57</ele>
        <time>2019-07-01T13:40:54Z</time>
      </trkpt>
      <trkpt lat="43.47015" lon="6.90853">
        <ele>209.78</ele>
        <time>2019-07-01T13:41:26Z</time>
      </trkpt>
      <trkpt lat="43.47014" lon="6.90853">
        <ele>209.84</ele>
        <time>2019-07-01T13:42:41Z</time>
      </trkpt>
      <trkpt lat="43.47014" lon="6.90856">
        <ele>209.84</ele>
        <time>2019-07-01T13:43:21Z</time>
      </trkpt>
    </trkseg>
  </trk>
</gpx>